BA218 / G-CIVA 7700 Squawk Report (21st of April, 2019)

Aircraft B744 Reg No. G-CIVA Age 26 years old
Model 747 Jet engines 4 First flight 10-03-93
Registered 22-03-93 Rollout N/A Delivered 22-03-93
Construction No. 27092 Line No. 0967 Series 436
ADSHEX 40054D Airline name British Airways Owner N/A
Airfield based Heathrow~Gtr London~G First tracked 2017-07-13 07:54:00
Time Lat Lon Altitude Heading Speed Vertical Rate
2019-04-21 19:04:09 GMT 51.473248 -0.464024 0 2
2019-04-21 19:04:04 GMT 51.473213 -0.464061 0 3
2019-04-21 19:03:51 GMT 51.473099 -0.464135 0 3
2019-04-21 19:03:44 GMT 51.473042 -0.464172 0 0
2019-04-21 19:03:32 GMT 51.473007 -0.464209 0 3
2019-04-21 19:03:16 GMT 51.472755 -0.464395 0 6
2019-04-21 19:03:13 GMT 51.472679 -0.464439 0 5
2019-04-21 19:02:55 GMT 51.472389 -0.464896 0 6
2019-04-21 19:02:31 GMT 51.472389 -0.465917 0 7
2019-04-21 19:02:16 GMT 51.472389 -0.466633 0 6
2019-04-21 19:02:10 GMT 51.472412 -0.466862 0 6
2019-04-21 19:01:59 GMT 51.472607 -0.467179 0 6
2019-04-21 19:01:48 GMT 51.472893 -0.467272 0 7
2019-04-21 19:01:38 GMT 51.473213 -0.467272 0 7
2019-04-21 19:01:28 GMT 51.473511 -0.467272 0 7
2019-04-21 19:01:09 GMT 51.474129 -0.467401 0 7
2019-04-21 19:00:56 GMT 51.474506 -0.467513 0 7
2019-04-21 19:00:31 GMT 51.475101 -0.467105 0 6
2019-04-21 19:00:23 GMT 51.475136 -0.466785 0 7
2019-04-21 19:00:09 GMT 51.475147 -0.466140 0 7
2019-04-21 19:00:03 GMT 51.475147 -0.465880 0 6
2019-04-21 18:59:51 GMT 51.475147 -0.465431 0 7
2019-04-21 18:58:00 GMT 51.475170 -0.460461 0 8
2019-04-21 18:57:48 GMT 51.475170 -0.459904 0 6
2019-04-21 18:55:56 GMT 51.475079 -0.456137 0 6
2019-04-21 18:55:45 GMT 51.475079 -0.455704 0 7
2019-04-21 18:55:15 GMT 51.475079 -0.454132 0 8
2019-04-21 18:55:09 GMT 51.475090 -0.453817 0 8
2019-04-21 18:54:35 GMT 51.475090 -0.452099 0 7
2019-04-21 18:54:10 GMT 51.475090 -0.450811 0 8
2019-04-21 18:54:06 GMT 51.475090 -0.450649 0 8
2019-04-21 18:54:01 GMT 51.475090 -0.450344 0 8
2019-04-21 18:53:46 GMT 51.475101 -0.449238 0 7
2019-04-21 18:53:33 GMT 51.475101 -0.448992 0 7
2019-04-21 18:53:07 GMT 51.475101 -0.447674 0 8
2019-04-21 18:52:55 GMT 51.475113 -0.447062 0 7
2019-04-21 18:52:51 GMT 51.475113 -0.446858 0 7
2019-04-21 18:52:37 GMT 51.475067 -0.446097 0 8
2019-04-21 18:52:33 GMT 51.475044 -0.445893 0 8
2019-04-21 18:52:14 GMT 51.475033 -0.444853 0 8
2019-04-21 18:52:08 GMT 51.475033 -0.444565 0 8
2019-04-21 18:51:51 GMT 51.475033 -0.443647 0 8
2019-04-21 18:51:38 GMT 51.475044 -0.443001 0 7
2019-04-21 18:51:29 GMT 51.475044 -0.442534 0 7
2019-04-21 18:50:56 GMT 51.475044 -0.440788 0 8
2019-04-21 18:50:21 GMT 51.475056 -0.438934 0 8
2019-04-21 18:50:15 GMT 51.475056 -0.438618 0 8
2019-04-21 18:50:09 GMT 51.475044 -0.438251 0 7
2019-04-21 18:49:59 GMT 51.474976 -0.437832 0 7
2019-04-21 18:49:48 GMT 51.474724 -0.437579 0 6
2019-04-21 18:49:36 GMT 51.474369 -0.437560 0 8
2019-04-21 18:49:25 GMT 51.474018 -0.437546 0 7
2019-04-21 18:49:18 GMT 51.473824 -0.437546 0 7
2019-04-21 18:48:59 GMT 51.473282 -0.437542 0 7
2019-04-21 18:48:55 GMT 51.473133 -0.437542 0 7
2019-04-21 18:48:38 GMT 51.472610 -0.437546 0 7
2019-04-21 18:48:33 GMT 51.472439 -0.437546 0 8
2019-04-21 18:48:15 GMT 51.471897 -0.437505 0 6
2019-04-21 18:48:03 GMT 51.471634 -0.437393 0 5
2019-04-21 18:47:53 GMT 51.471497 -0.437096 0 6
2019-04-21 18:47:46 GMT 51.471458 -0.436821 0 6
2019-04-21 18:47:32 GMT 51.471481 -0.436230 0 6
2019-04-21 18:47:24 GMT 51.471519 -0.435905 0 5
2019-04-21 18:47:15 GMT 51.471634 -0.435612 0 5
2019-04-21 18:47:03 GMT 51.471725 -0.435257 0 6
2019-04-21 18:46:57 GMT 51.471714 -0.434981 0 5
2019-04-21 18:46:54 GMT 51.471691 -0.434875 0 6
2019-04-21 18:46:47 GMT 51.471622 -0.434666 0 6
2019-04-21 18:46:43 GMT 51.471554 -0.434498 0 6
2019-04-21 18:46:35 GMT 51.471458 -0.434303 0 5
2019-04-21 18:46:32 GMT 51.471428 -0.434201 0 5
2019-04-21 18:46:24 GMT 51.471390 -0.433941 0 4
2019-04-21 18:46:14 GMT 51.471355 -0.433769 0 0
2019-04-21 18:45:59 GMT 51.471359 -0.433756 0 0
2019-04-21 18:45:24 GMT 51.471355 -0.433750 0 0
2019-04-21 18:45:19 GMT 51.471359 -0.433756 0 0
2019-04-21 18:45:08 GMT 51.471355 -0.433750 0 0
2019-04-21 18:43:58 GMT 51.471355 -0.433750 0 0
2019-04-21 18:43:48 GMT 51.471359 -0.433756 0 0
2019-04-21 18:42:27 GMT 51.471359 -0.433756 0 0
2019-04-21 18:42:16 GMT 51.471355 -0.433750 0 0
2019-04-21 18:41:56 GMT 51.471367 -0.433750 0 0
2019-04-21 18:41:16 GMT 51.471355 -0.433750 0 0
2019-04-21 18:41:07 GMT 51.471359 -0.433756 0 0
2019-04-21 18:40:47 GMT 51.471355 -0.433750 0 0
2019-04-21 18:39:52 GMT 51.471359 -0.433756 0 0
2019-04-21 18:38:51 GMT 51.471359 -0.433756 0 0
2019-04-21 18:37:41 GMT 51.471359 -0.433756 0 0
2019-04-21 18:37:26 GMT 51.471355 -0.433750 0 0
2019-04-21 18:37:11 GMT 51.471359 -0.433756 0 0
2019-04-21 18:37:06 GMT 51.471355 -0.433750 0 0
2019-04-21 18:35:57 GMT 51.471355 -0.433750 0 0
2019-04-21 18:35:21 GMT 51.471359 -0.433756 0 0
2019-04-21 18:34:42 GMT 51.471355 -0.433750 0 0
2019-04-21 18:34:34 GMT 51.471359 -0.433756 0 0
2019-04-21 18:34:24 GMT 51.471344 -0.433598 0 5
2019-04-21 18:34:14 GMT 51.471279 -0.433199 0 6
2019-04-21 18:34:02 GMT 51.471176 -0.432735 0 6
2019-04-21 18:33:52 GMT 51.471100 -0.432396 0 6
2019-04-21 18:33:42 GMT 51.471016 -0.432014 0 6
2019-04-21 18:33:32 GMT 51.470936 -0.431652 0 5
2019-04-21 18:33:22 GMT 51.470856 -0.431328 0 5
2019-04-21 18:33:12 GMT 51.470783 -0.431061 0 4
2019-04-21 18:33:01 GMT 51.470684 -0.430805 0 5
2019-04-21 18:32:51 GMT 51.470524 -0.430601 0 5
2019-04-21 18:32:41 GMT 51.470341 -0.430453 0 5
2019-04-21 18:32:30 GMT 51.470158 -0.430336 0 4
2019-04-21 18:31:57 GMT 51.470066 -0.430285 0 0
2019-04-21 18:31:42 GMT 51.470062 -0.430298 0 0
2019-04-21 18:30:57 GMT 51.470055 -0.430304 0 0
2019-04-21 18:30:44 GMT 51.470062 -0.430298 0 0
We lost coverage of the aircraft here for a total of 388 minutes
2019-04-21 12:02:54 GMT 51.470215 -0.428931 0 0 0
2019-04-21 12:01:49 GMT 51.470215 -0.428925 0 0 0
2019-04-21 12:01:37 GMT 51.470215 -0.428931 0 0 0
2019-04-21 12:01:34 GMT 51.470203 -0.428931 0 0 0
2019-04-21 12:01:23 GMT 51.470226 -0.428944 0 0 1
2019-04-21 12:01:13 GMT 51.470272 -0.429020 0 0 3
2019-04-21 12:01:03 GMT 51.470295 -0.429077 0 0 2
2019-04-21 12:00:18 GMT 51.470695 -0.429747 0 0 5
2019-04-21 12:00:06 GMT 51.470867 -0.430012 0 0 5
2019-04-21 11:59:37 GMT 51.471039 -0.430323 0 0 3
2019-04-21 11:59:03 GMT 51.471039 -0.430527 0 0 5
2019-04-21 11:58:59 GMT 51.471039 -0.430657 0 0 4
2019-04-21 11:58:48 GMT 51.471027 -0.430965 0 0 4
2019-04-21 11:58:39 GMT 51.471027 -0.431175 0 0 3
2019-04-21 11:58:29 GMT 51.471016 -0.431404 0 0 5
2019-04-21 11:58:18 GMT 51.471016 -0.431805 0 0 6
2019-04-21 11:58:08 GMT 51.471062 -0.432234 0 0 6
2019-04-21 11:57:57 GMT 51.471153 -0.432624 0 0 6
2019-04-21 11:57:54 GMT 51.471169 -0.432758 0 0 6
2019-04-21 11:57:47 GMT 51.471233 -0.433032 0 0 7
2019-04-21 11:57:43 GMT 51.471268 -0.433199 0 0 7
2019-04-21 11:57:36 GMT 51.471325 -0.433552 0 0 7
2019-04-21 11:57:31 GMT 51.471359 -0.433719 0 0 7
2019-04-21 11:57:27 GMT 51.471401 -0.433903 0 0 7
2019-04-21 11:57:20 GMT 51.471447 -0.434208 0 0 7
2019-04-21 11:57:16 GMT 51.471508 -0.434405 0 0 7
2019-04-21 11:57:06 GMT 51.471645 -0.434704 0 0 5
2019-04-21 11:56:59 GMT 51.471725 -0.434888 0 0 5
2019-04-21 11:56:51 GMT 51.471748 -0.435148 0 0 5
2019-04-21 11:56:38 GMT 51.471668 -0.435612 0 0 6
2019-04-21 11:56:35 GMT 51.471634 -0.435667 0 0 6
2019-04-21 11:56:17 GMT 51.471268 -0.436057 0 0 6
2019-04-21 11:56:09 GMT 51.471085 -0.436094 0 0 5
2019-04-21 11:55:58 GMT 51.470879 -0.436153 0 0 5
2019-04-21 11:55:52 GMT 51.470772 -0.436230 0 0 5
2019-04-21 11:55:49 GMT 51.470707 -0.436298 0 0 5
2019-04-21 11:55:38 GMT 51.470612 -0.436668 0 0 6
2019-04-21 11:55:34 GMT 51.470615 -0.436855 0 0 6
2019-04-21 11:55:27 GMT 51.470638 -0.437059 0 0 5
2019-04-21 11:55:23 GMT 51.470657 -0.437222 0 0 6
2019-04-21 11:55:13 GMT 51.470818 -0.437450 0 0 6
2019-04-21 11:55:07 GMT 51.470959 -0.437486 0 0 6
2019-04-21 11:55:03 GMT 51.471073 -0.437467 0 0 6
2019-04-21 11:54:56 GMT 51.471222 -0.437393 0 0 5
2019-04-21 11:54:42 GMT 51.471447 -0.437031 0 0 6
2019-04-21 11:54:34 GMT 51.471481 -0.436687 0 0 6
2019-04-21 11:54:23 GMT 51.471508 -0.436261 0 0 5
2019-04-21 11:54:11 GMT 51.471634 -0.435963 0 0 5
2019-04-21 11:54:04 GMT 51.471775 -0.435905 0 0 6
2019-04-21 11:53:53 GMT 51.472012 -0.435890 0 0 9
2019-04-21 11:53:43 GMT 51.472298 -0.435890 0 0 6
2019-04-21 11:53:39 GMT 51.472401 -0.435867 0 0 5
2019-04-21 11:53:32 GMT 51.472507 -0.435848 0 0 7
2019-04-21 11:53:26 GMT 51.472687 -0.435834 0 0 5
2019-04-21 11:53:22 GMT 51.472740 -0.435810 0 0 8
2019-04-21 11:53:19 GMT 51.472843 -0.435772 0 0 6
2019-04-21 11:53:10 GMT 51.473019 -0.435575 0 0 6
2019-04-21 11:53:00 GMT 51.473183 -0.435352 0 0 5
2019-04-21 11:52:48 GMT 51.473309 -0.435181 0 0 0
2019-04-21 11:52:39 GMT 51.473339 -0.435129 0 0 4
2019-04-21 11:52:28 GMT 51.473495 -0.434914 0 0 5
2019-04-21 11:52:18 GMT 51.473682 -0.434647 0 0 6
2019-04-21 11:52:09 GMT 51.473831 -0.434461 0 0 5
2019-04-21 11:51:59 GMT 51.473995 -0.434284 0 0 5
2019-04-21 11:51:48 GMT 51.474209 -0.434238 0 0 5
2019-04-21 11:51:38 GMT 51.474392 -0.434341 0 0 5
2019-04-21 11:51:28 GMT 51.474529 -0.434684 0 0 6
2019-04-21 11:51:18 GMT 51.474545 -0.435047 0 0 6
2019-04-21 11:51:08 GMT 51.474545 -0.435448 0 0 5
2019-04-21 11:50:57 GMT 51.474533 -0.435791 0 0 5
2019-04-21 11:50:47 GMT 51.474499 -0.436115 0 0 5
2019-04-21 11:50:35 GMT 51.474529 -0.436484 0 0 6
2019-04-21 11:50:26 GMT 51.474522 -0.436821 0 0 5
2019-04-21 11:50:16 GMT 51.474510 -0.437126 0 0 5
2019-04-21 11:50:06 GMT 51.474403 -0.437430 0 0 6
2019-04-21 11:49:55 GMT 51.474136 -0.437546 0 0 6
2019-04-21 11:49:43 GMT 51.473846 -0.437546 0 0 5
2019-04-21 11:49:35 GMT 51.473694 -0.437546 0 0 5
2019-04-21 11:49:24 GMT 51.473484 -0.437527 0 0 5
2019-04-21 11:49:11 GMT 51.473171 -0.437527 0 0 6
2019-04-21 11:49:01 GMT 51.472950 -0.437542 0 0 6
2019-04-21 11:48:11 GMT 51.471889 -0.437527 0 0 5
2019-04-21 11:48:03 GMT 51.471725 -0.437523 0 0 5
2019-04-21 11:47:53 GMT 51.471519 -0.437523 0 0 5
2019-04-21 11:47:42 GMT 51.471313 -0.437523 0 0 4
2019-04-21 11:47:31 GMT 51.471153 -0.437523 0 0 4
2019-04-21 11:47:20 GMT 51.470982 -0.437527 0 0 4
2019-04-21 11:47:10 GMT 51.470818 -0.437508 0 0 4
2019-04-21 11:47:01 GMT 51.470657 -0.437508 0 0 4
2019-04-21 11:46:50 GMT 51.470482 -0.437508 0 0 4
2019-04-21 11:46:46 GMT 51.470413 -0.437508 0 0 4
2019-04-21 11:46:39 GMT 51.470295 -0.437505 0 0 4
2019-04-21 11:46:30 GMT 51.470119 -0.437508 0 0 5
2019-04-21 11:46:26 GMT 51.470062 -0.437508 0 0 4
2019-04-21 11:46:17 GMT 51.469894 -0.437505 0 0 4
2019-04-21 11:46:10 GMT 51.469757 -0.437505 0 0 4
2019-04-21 11:46:05 GMT 51.469688 -0.437505 0 0 4
2019-04-21 11:46:00 GMT 51.469585 -0.437505 0 0 4
2019-04-21 11:45:56 GMT 51.469517 -0.437508 0 0 4
2019-04-21 11:45:50 GMT 51.469402 -0.437505 0 0 4
2019-04-21 11:45:46 GMT 51.469341 -0.437508 0 0 4
2019-04-21 11:45:39 GMT 51.469200 -0.437508 0 0 5
2019-04-21 11:45:34 GMT 51.469120 -0.437508 0 0 5
2019-04-21 11:45:23 GMT 51.468899 -0.437505 0 0 5
2019-04-21 11:45:13 GMT 51.468681 -0.437523 0 0 5
2019-04-21 11:45:08 GMT 51.468567 -0.437523 0 0 5
2019-04-21 11:45:01 GMT 51.468452 -0.437560 0 0 5
2019-04-21 11:44:48 GMT 51.468178 -0.437717 0 0 5
2019-04-21 11:44:42 GMT 51.468075 -0.437813 0 0 5
2019-04-21 11:44:32 GMT 51.467911 -0.437965 0 0 4
2019-04-21 11:44:22 GMT 51.467793 -0.438099 0 0 4
2019-04-21 11:44:11 GMT 51.467720 -0.438340 0 0 4
2019-04-21 11:44:01 GMT 51.467709 -0.438618 0 0 5
2019-04-21 11:43:53 GMT 51.467709 -0.438859 0 0 5
2019-04-21 11:43:50 GMT 51.467709 -0.438989 0 0 5
2019-04-21 11:43:45 GMT 51.467709 -0.439101 0 0 5
2019-04-21 11:43:39 GMT 51.467709 -0.439268 0 0 5
2019-04-21 11:43:35 GMT 51.467701 -0.439434 0 0 5
2019-04-21 11:43:25 GMT 51.467690 -0.439739 0 0 5
2019-04-21 11:43:11 GMT 51.467667 -0.440178 0 0 5
2019-04-21 11:43:05 GMT 51.467644 -0.440369 0 0 5
2019-04-21 11:42:53 GMT 51.467606 -0.440715 0 0 5
2019-04-21 11:42:44 GMT 51.467548 -0.441049 0 0 5
2019-04-21 11:42:33 GMT 51.467537 -0.441418 0 0 5
2019-04-21 11:42:20 GMT 51.467525 -0.441799 0 0 5
2019-04-21 11:42:13 GMT 51.467525 -0.442014 0 0 5
2019-04-21 11:42:03 GMT 51.467525 -0.442348 0 0 5
2019-04-21 11:41:58 GMT 51.467525 -0.442524 0 0 5
2019-04-21 11:41:52 GMT 51.467525 -0.442756 0 0 5
2019-04-21 11:41:47 GMT 51.467525 -0.442905 0 0 5
2019-04-21 11:41:32 GMT 51.467525 -0.443420 0 0 6
2019-04-21 11:41:20 GMT 51.467525 -0.443878 0 0 6
2019-04-21 11:41:08 GMT 51.467514 -0.444371 0 0 5
2019-04-21 11:41:01 GMT 51.467514 -0.444575 0 0 5
2019-04-21 11:40:51 GMT 51.467514 -0.444984 0 0 6
2019-04-21 11:40:39 GMT 51.467514 -0.445423 0 0 5
2019-04-21 11:40:25 GMT 51.467514 -0.445862 0 0 5
2019-04-21 11:40:19 GMT 51.467514 -0.446033 0 0 5
2019-04-21 11:40:03 GMT 51.467514 -0.446529 0 0 5
2019-04-21 11:39:48 GMT 51.467514 -0.446969 0 0 5
2019-04-21 11:39:38 GMT 51.467514 -0.447266 0 0 5
2019-04-21 11:39:25 GMT 51.467514 -0.447637 0 0 5
2019-04-21 11:39:17 GMT 51.467514 -0.447941 0 0 5
2019-04-21 11:39:03 GMT 51.467514 -0.448399 0 0 5
2019-04-21 11:38:51 GMT 51.467514 -0.448780 0 0 5
2019-04-21 11:38:48 GMT 51.467514 -0.448837 0 0 5
2019-04-21 11:38:44 GMT 51.467514 -0.448971 0 0 5
2019-04-21 11:38:35 GMT 51.467503 -0.449307 0 0 6
2019-04-21 11:38:21 GMT 51.467503 -0.449808 0 0 5
2019-04-21 11:38:07 GMT 51.467503 -0.450272 0 0 5
2019-04-21 11:37:59 GMT 51.467503 -0.450532 0 0 5
2019-04-21 11:37:48 GMT 51.467503 -0.450878 0 0 5
2019-04-21 11:37:45 GMT 51.467503 -0.450978 0 0 5
2019-04-21 11:37:39 GMT 51.467503 -0.451145 0 0 4
2019-04-21 11:37:34 GMT 51.467503 -0.451279 0 0 4
2019-04-21 11:37:29 GMT 51.467503 -0.451386 0 0 4
2019-04-21 11:37:18 GMT 51.467503 -0.451679 0 0 4
2019-04-21 11:37:09 GMT 51.467503 -0.451943 0 0 5
2019-04-21 11:37:06 GMT 51.467503 -0.452023 0 0 5
2019-04-21 11:37:02 GMT 51.467503 -0.452184 0 0 5
2019-04-21 11:36:51 GMT 51.467491 -0.452499 0 0 5
2019-04-21 11:36:43 GMT 51.467491 -0.452919 0 0 5
2019-04-21 11:36:30 GMT 51.467491 -0.453167 0 0 4
2019-04-21 11:36:19 GMT 51.467491 -0.453529 0 0 5
2019-04-21 11:36:11 GMT 51.467491 -0.453798 0 0 6
2019-04-21 11:36:00 GMT 51.467491 -0.454216 0 0 6
2019-04-21 11:35:47 GMT 51.467491 -0.454689 0 0 5
2019-04-21 11:35:32 GMT 51.467480 -0.455227 0 0 5
2019-04-21 11:35:29 GMT 51.467480 -0.455339 0 0 6
2019-04-21 11:35:01 GMT 51.467480 -0.456429 0 0 6
2019-04-21 11:34:56 GMT 51.467491 -0.456581 0 0 5
2019-04-21 11:34:44 GMT 51.467491 -0.457020 0 0 6
2019-04-21 11:32:21 GMT 51.467491 -0.457362 0 0 0
2019-04-21 11:32:10 GMT 51.467503 -0.457287 0 0 2
2019-04-21 11:32:04 GMT 51.467525 -0.457211 0 0 2
2019-04-21 11:31:52 GMT 51.467583 -0.457096 0 0 2
2019-04-21 11:31:29 GMT 51.467766 -0.456972 0 0 3
2019-04-21 11:31:20 GMT 51.467861 -0.456963 0 0 3
2019-04-21 11:31:04 GMT 51.468037 -0.456982 0 0 3
2019-04-21 11:30:59 GMT 51.468098 -0.456990 0 0 3
2019-04-21 11:30:52 GMT 51.468189 -0.456990 0 0 3
2019-04-21 11:30:44 GMT 51.468246 -0.457001 0 0 3
2019-04-21 11:28:17 GMT 51.468475 -0.456953 0 0 0
2019-04-21 11:27:42 GMT 51.468491 -0.457001 0 0 0
2019-04-21 11:27:31 GMT 51.468498 -0.456916 0 0 1
2019-04-21 11:27:02 GMT 51.468422 -0.456715 0 0 0
2019-04-21 11:26:27 GMT 51.468487 -0.457009 0 0 0
2019-04-21 11:25:42 GMT 51.468456 -0.456924 0 0 3
2019-04-21 11:23:58 GMT 51.468491 -0.457001 0 0 0
2019-04-21 11:23:24 GMT 51.468433 -0.456772 0 0 0
2019-04-21 11:23:12 GMT 51.468422 -0.456772 0 0 0
2019-04-21 11:23:04 GMT 51.468491 -0.457001 0 0 0
2019-04-21 11:22:33 GMT 51.468487 -0.456935 0 0 1
2019-04-21 11:22:09 GMT 51.468418 -0.456768 0 0 0
2019-04-21 11:22:01 GMT 51.468395 -0.456712 0 0 4
2019-04-21 11:21:44 GMT 51.468491 -0.457001 0 0 0
2019-04-21 11:21:39 GMT 51.468487 -0.456953 0 0 0
We lost coverage of the aircraft here for a total of 93 minutes
2019-04-21 09:48:49 GMT 51.468491 -0.457001 0 0 0 0
2019-04-21 09:48:45 GMT 51.468479 -0.457001 0 0 2 0
2019-04-21 09:48:38 GMT 51.468388 -0.457001 0 0 5 0
2019-04-21 09:48:27 GMT 51.468132 -0.456982 0 0 9 0
2019-04-21 09:46:59 GMT 51.467480 -0.456378 0 275 5 0
2019-04-21 09:46:56 GMT 51.467491 -0.456276 0 281 8 0
2019-04-21 09:46:47 GMT 51.467422 -0.455875 0 326 9 0
2019-04-21 09:46:39 GMT 51.467167 -0.455647 0 2 11 0
2019-04-21 09:46:27 GMT 51.466587 -0.456063 0 39 13 0
2019-04-21 09:46:19 GMT 51.466293 -0.456429 0 22 12 0
2019-04-21 09:46:14 GMT 51.466015 -0.456564 0 14 12 0
2019-04-21 09:46:08 GMT 51.465614 -0.456749 0 28 19 0
2019-04-21 09:46:05 GMT 51.465420 -0.456963 0 39 22 0
2019-04-21 09:45:57 GMT 51.464954 -0.457916 0 67 20 0
2019-04-21 09:45:54 GMT 51.464870 -0.458364 0 87 23 0
2019-04-21 09:45:44 GMT 51.464836 -0.461686 0 90 72 0
2019-04-21 09:45:38 GMT 51.464825 -0.468063 0 90 120 0
2019-04-21 09:45:32 GMT 51.464825 -0.470798 0 90 135 0
2019-04-21 09:45:27 GMT 51.464767 -0.483770 -125 89 149 -576
2019-04-21 09:45:21 GMT 51.464767 -0.483770 -75 90 149 -576
2019-04-21 09:45:15 GMT 51.464756 -0.489273 -25 90 148 -896
2019-04-21 09:45:12 GMT 51.464756 -0.493698 50 90 147 -896
2019-04-21 09:45:06 GMT 51.464710 -0.504532 225 90 147 -704
2019-04-21 09:45:02 GMT 51.464710 -0.504532 175 90 147 -832
2019-04-21 09:44:58 GMT 51.464710 -0.508957 225 90 148 -704
2019-04-21 09:44:55 GMT 51.464676 -0.512126 275 89 149 -960
2019-04-21 09:44:51 GMT 51.464676 -0.516654 325 89 150 -640
2019-04-21 09:44:46 GMT 51.464630 -0.521108 400 89 151 -832
2019-04-21 09:44:43 GMT 51.464615 -0.524445 425 89 152 -768
2019-04-21 09:44:40 GMT 51.464630 -0.527789 450 90 152 -704
2019-04-21 09:44:36 GMT 51.464630 -0.532317 500 90 151 -832
2019-04-21 09:44:33 GMT 51.464584 -0.538998 550 89 150 -832
2019-04-21 09:44:30 GMT 51.464584 -0.538998 575 89 150 -768
2019-04-21 09:44:27 GMT 51.464569 -0.542374 650 89 148 -640
2019-04-21 09:44:24 GMT 51.464569 -0.546722 700 89 147 -768
2019-04-21 09:44:20 GMT 51.464523 -0.553284 1,475 90 146 -704
2019-04-21 09:44:13 GMT 51.464523 -0.557632 800 90 146 -640
2019-04-21 09:44:10 GMT 51.464478 -0.561905 850 89 147 -704
2019-04-21 09:44:07 GMT 51.464493 -0.565276 925 90 148 -896
2019-04-21 09:44:04 GMT 51.464478 -0.568466 1,050 89 152 -960
2019-04-21 09:44:01 GMT 51.464447 -0.571883 1,000 90 151 -1088
2019-04-21 09:43:58 GMT 51.464432 -0.575256 1,050 89 154 -832
2019-04-21 09:43:52 GMT 51.464401 -0.585690 1,125 90 158 -768
2019-04-21 09:43:49 GMT 51.464401 -0.585690 1,150 90 158 -768
2019-04-21 09:43:46 GMT 51.464401 -0.588065 1,225 90 156 -832
2019-04-21 09:43:43 GMT 51.464355 -0.592742 1,225 89 156 -704
2019-04-21 09:43:39 GMT 51.464336 -0.596161 1,275 89 157 -1088
2019-04-21 09:43:36 GMT 51.464355 -0.599720 1,325 89 161 -832
2019-04-21 09:43:33 GMT 51.464310 -0.604397 1,375 89 159 -768
2019-04-21 09:43:30 GMT 51.464310 -0.606623 1,400 89 160 -832
2019-04-21 09:43:27 GMT 51.464291 -0.610275 1,425 89 161 -832
2019-04-21 09:43:24 GMT 51.464264 -0.613972 1,475 89 164 -832
2019-04-21 09:43:21 GMT 51.464218 -0.618946 1,525 89 168 -832
2019-04-21 09:43:17 GMT 51.464245 -0.622711 1,575 89 171 -960
2019-04-21 09:43:14 GMT 51.464218 -0.629042 1,675 90 174 -1024
2019-04-21 09:43:10 GMT 51.464195 -0.633011 1,750 90 179 -960
2019-04-21 09:43:07 GMT 51.464195 -0.635681 1,800 90 183 -960
2019-04-21 09:43:03 GMT 51.464218 -0.642552 1,875 90 184 -960
2019-04-21 09:43:00 GMT 51.464245 -0.646667 1,875 90 185 -960
2019-04-21 09:42:57 GMT 51.464245 -0.649338 1,975 90 186 -1088
2019-04-21 09:42:54 GMT 51.464218 -0.653538 2,000 90 186 -1024
2019-04-21 09:42:51 GMT 51.464218 -0.659031 2,050 90 186 -1152
2019-04-21 09:42:48 GMT 51.464218 -0.661852 2,175 94 186 -1024
2019-04-21 09:42:45 GMT 51.464218 -0.667345 2,150 90 186 -960
2019-04-21 09:42:42 GMT 51.464245 -0.671387 2,200 90 186 -1088
2019-04-21 09:42:39 GMT 51.464291 -0.674286 2,250 91 186 -896
2019-04-21 09:42:36 GMT 51.464401 -0.678406 2,275 94 186 -1024
2019-04-21 09:42:33 GMT 51.464722 -0.683825 2,350 96 187 -1024
2019-04-21 09:42:30 GMT 51.464996 -0.686646 2,375 100 185 -512
2019-04-21 09:42:27 GMT 51.465546 -0.690689 2,375 103 186 -448
2019-04-21 09:42:24 GMT 51.466278 -0.694663 2,400 109 185 -512
2019-04-21 09:42:21 GMT 51.467224 -0.698471 2,450 115 186 -640
2019-04-21 09:42:18 GMT 51.468758 -0.703506 2,500 116 185 -768
2019-04-21 09:42:15 GMT 51.469757 -0.707134 2,525 117 185 -768
2019-04-21 09:42:12 GMT 51.470806 -0.710831 2,600 116 185 -768
2019-04-21 09:42:08 GMT 51.473740 -0.719456 2,725 116 186 -768
2019-04-21 09:42:05 GMT 51.473740 -0.719456 2,650 117 186 -768
2019-04-21 09:41:59 GMT 51.475697 -0.725555 2,725 116 188 -832
2019-04-21 09:41:56 GMT 51.476990 -0.729403 2,775 116 190 -768
2019-04-21 09:41:53 GMT 51.478363 -0.734377 2,800 116 190 -832
2019-04-21 09:41:48 GMT 51.480259 -0.740662 2,875 116 193 -832
2019-04-21 09:41:45 GMT 51.481659 -0.744546 2,925 116 194 -832
2019-04-21 09:41:42 GMT 51.482529 -0.747219 2,975 116 195 -832
2019-04-21 09:41:39 GMT 51.484131 -0.752415 3,025 116 199 -832
2019-04-21 09:41:36 GMT 51.484955 -0.755013 3,125 116 201 -768
2019-04-21 09:41:33 GMT 51.486420 -0.760284 3,075 116 200 -768
2019-04-21 09:41:30 GMT 51.487755 -0.764389 3,100 116 202 -832
2019-04-21 09:41:27 GMT 51.488823 -0.766983 3,200 116 205 -896
2019-04-21 09:41:24 GMT 51.490265 -0.772400 3,200 116 206 -896
2019-04-21 09:41:21 GMT 51.491547 -0.776615 3,250 116 207 -896
2019-04-21 09:41:18 GMT 51.492920 -0.780792 3,325 116 210 -768
2019-04-21 09:41:15 GMT 51.494385 -0.784854 3,350 116 212 -896
2019-04-21 09:41:12 GMT 51.495853 -0.789185 3,375 116 214 -832
2019-04-21 09:41:06 GMT 51.498367 -0.797729 3,475 117 217 -1280
2019-04-21 09:41:03 GMT 51.499603 -0.802076 3,500 117 219 -1472
2019-04-21 09:41:00 GMT 51.500793 -0.804897 3,525 117 219 -1472
2019-04-21 09:40:57 GMT 51.502808 -0.810836 3,675 117 224 -1088
2019-04-21 09:40:54 GMT 51.503769 -0.813731 4,175 141 236 -1280
2019-04-21 09:40:51 GMT 51.505508 -0.819669 3,775 117 226 -1216
2019-04-21 09:40:48 GMT 51.506561 -0.822564 3,850 118 229 -1216
2019-04-21 09:40:45 GMT 51.508438 -0.828651 3,925 119 230 -1152
2019-04-21 09:40:42 GMT 51.509445 -0.831620 3,950 120 230 -1088
2019-04-21 09:40:39 GMT 51.511551 -0.837485 3,975 121 231 -1088
2019-04-21 09:40:35 GMT 51.514389 -0.843052 4,075 126 233 -1216
2019-04-21 09:40:32 GMT 51.515717 -0.845799 4,125 131 234 -1152
2019-04-21 09:40:29 GMT 51.518013 -0.849609 4,150 149 239 -1472
2019-04-21 09:40:26 GMT 51.520943 -0.853958 4,225 144 236 -1408
2019-04-21 09:40:22 GMT 51.524670 -0.857849 4,300 148 236 -1536
2019-04-21 09:40:18 GMT 51.528206 -0.861435 4,425 149 237 -1536
2019-04-21 09:40:15 GMT 51.531052 -0.864060 4,575 149 237 -1536
2019-04-21 09:40:12 GMT 51.533978 -0.866699 4,600 149 237 -1472
2019-04-21 09:40:09 GMT 51.536957 -0.869405 4,675 149 237 -1536
2019-04-21 09:40:06 GMT 51.539429 -0.871260 4,775 148 238 -1472
2019-04-21 09:40:03 GMT 51.542679 -0.874823 4,800 148 238 -1536
2019-04-21 09:40:00 GMT 51.545105 -0.876679 4,875 148 238 -1536
2019-04-21 09:39:57 GMT 51.547943 -0.879440 4,950 148 238 -1536
2019-04-21 09:39:54 GMT 51.551296 -0.883102 5,075 148 238 -1536
2019-04-21 09:39:51 GMT 51.554077 -0.885884 5,125 148 238 -1536
2019-04-21 09:39:48 GMT 51.557163 -0.888672 5,175 148 238 -1536
2019-04-21 09:39:45 GMT 51.559212 -0.890427 5,275 149 239 -1472
2019-04-21 09:39:42 GMT 51.562134 -0.893233 5,350 149 239 -1472
2019-04-21 09:39:39 GMT 51.565109 -0.896945 5,425 149 239 -1472
2019-04-21 09:39:36 GMT 51.568428 -0.899582 5,525 149 237 -1472
2019-04-21 09:39:33 GMT 51.571335 -0.902364 5,550 149 237 -1536
2019-04-21 09:39:30 GMT 51.573593 -0.905075 5,650 148 236 -1408
2019-04-21 09:39:27 GMT 51.576736 -0.907782 5,750 148 232 -128
2019-04-21 09:39:24 GMT 51.579136 -0.909653 5,750 149 233 64
2019-04-21 09:39:21 GMT 51.582184 -0.913201 5,750 149 233 128
2019-04-21 09:39:18 GMT 51.584766 -0.915909 5,750 148 232 -64
2019-04-21 09:39:14 GMT 51.588409 -0.918546 5,750 148 232 -128
2019-04-21 09:39:11 GMT 51.591797 -0.922183 5,750 148 232 -128
2019-04-21 09:39:07 GMT 51.598267 -0.928421 5,775 148 231 -640
2019-04-21 09:39:04 GMT 51.598267 -0.928421 5,825 148 231 -1024
2019-04-21 09:39:01 GMT 51.600586 -0.931166 5,850 148 231 -1088
2019-04-21 09:38:58 GMT 51.603340 -0.933914 5,875 148 231 -1152
2019-04-21 09:38:55 GMT 51.605251 -0.935745 5,925 148 231 -1088
2019-04-21 09:38:52 GMT 51.609161 -0.939255 6,050 149 232 -896
2019-04-21 09:38:49 GMT 51.612076 -0.941929 6,050 150 233 -768
2019-04-21 09:38:46 GMT 51.614468 -0.944519 6,075 151 234 -704
2019-04-21 09:38:43 GMT 51.616890 -0.946121 6,125 153 236 -640
2019-04-21 09:38:40 GMT 51.620659 -0.949097 6,125 156 237 -640
2019-04-21 09:38:37 GMT 51.622753 -0.950394 6,300 159 237 -704
2019-04-21 09:38:34 GMT 51.626431 -0.952225 6,275 168 240 -832
2019-04-21 09:38:31 GMT 51.629654 -0.953064 6,225 170 241 -832
2019-04-21 09:38:28 GMT 51.633183 -0.953522 6,325 179 245 -576
2019-04-21 09:38:25 GMT 51.636978 -0.953658 6,325 180 246 -576
2019-04-21 09:38:21 GMT 51.645100 -0.953598 6,450 179 263 -640
2019-04-21 09:38:18 GMT 51.645100 -0.953598 6,400 181 250 -576
2019-04-21 09:38:15 GMT 51.647964 -0.953509 6,425 181 251 -640
2019-04-21 09:38:12 GMT 51.650940 -0.953509 6,475 181 255 -832
2019-04-21 09:38:09 GMT 51.655518 -0.953361 6,500 181 254 -704
2019-04-21 09:38:06 GMT 51.658833 -0.953293 6,625 181 260 -768
2019-04-21 09:38:03 GMT 51.661392 -0.953217 6,775 182 257 -832
2019-04-21 09:38:00 GMT 51.664490 -0.953138 6,650 182 258 -832
2019-04-21 09:37:57 GMT 51.669708 -0.952990 6,675 181 260 -768
2019-04-21 09:37:54 GMT 51.672844 -0.952835 6,775 180 261 -768
2019-04-21 09:37:51 GMT 51.675499 -0.952835 6,725 180 261 -768
2019-04-21 09:37:48 GMT 51.679001 -0.952767 6,750 180 261 -768
2019-04-21 09:37:45 GMT 51.687416 -0.953140 6,850 177 264 -576
2019-04-21 09:37:42 GMT 51.687416 -0.953140 6,850 173 265 -704
2019-04-21 09:37:39 GMT 51.691498 -0.953658 6,875 173 265 -704
2019-04-21 09:37:36 GMT 51.695328 -0.954590 7,000 161 268 -768
2019-04-21 09:37:32 GMT 51.699612 -0.956573 7,000 155 271 64
2019-04-21 09:37:28 GMT 51.703766 -0.958706 7,000 157 270 -192
2019-04-21 09:37:25 GMT 51.708023 -0.961898 7,000 155 272 64
2019-04-21 09:37:22 GMT 51.711437 -0.964584 7,000 154 279 0
2019-04-21 09:37:19 GMT 51.715904 -0.968246 7,000 153 280 0
2019-04-21 09:37:16 GMT 51.718929 -0.970078 7,000 154 285 0
2019-04-21 09:37:13 GMT 51.722122 -0.972810 7,000 154 288 0
2019-04-21 09:37:10 GMT 51.724937 -0.975647 7,000 154 288 0
2019-04-21 09:37:07 GMT 51.728428 -0.977478 7,000 154 292 64
2019-04-21 09:37:04 GMT 51.732010 -0.980456 7,000 154 294 0
2019-04-21 09:37:01 GMT 51.735855 -0.983351 7,000 153 298 128
2019-04-21 09:36:58 GMT 51.740112 -0.987167 6,975 154 314 -704
2019-04-21 09:36:55 GMT 51.744232 -0.990254 6,975 154 305 -384
2019-04-21 09:36:52 GMT 51.748165 -0.993118 7,050 154 310 -704
2019-04-21 09:36:49 GMT 51.751236 -0.996267 7,025 153 309 -704
2019-04-21 09:36:46 GMT 51.754761 -0.998271 7,075 153 311 -704
2019-04-21 09:36:43 GMT 51.760132 -1.003342 8,050 153 316 -704
2019-04-21 09:36:39 GMT 51.763668 -1.005402 12,050 153 316 -704
2019-04-21 09:36:35 GMT 51.774048 -1.013870 7,225 153 321 -1088
2019-04-21 09:36:32 GMT 51.774719 -1.014899 7,275 153 321 -1152
2019-04-21 09:36:29 GMT 51.776890 -1.016006 7,300 153 322 -1344
2019-04-21 09:36:26 GMT 51.781590 -1.020203 7,475 153 325 -1792
2019-04-21 09:36:23 GMT 51.785431 -1.023362 7,500 153 325 -1728
2019-04-21 09:36:20 GMT 51.790436 -1.026688 7,625 154 327 -1792
2019-04-21 09:36:17 GMT 51.793762 -1.029820 7,650 153 326 -1792
2019-04-21 09:36:14 GMT 51.797695 -1.033096 7,700 153 326 -1728
2019-04-21 09:36:11 GMT 51.801819 -1.036278 8,050 154 326 -1728
2019-04-21 09:36:08 GMT 51.805939 -1.039429 7,900 154 327 -1792
2019-04-21 09:36:04 GMT 51.812035 -1.043701 8,050 154 329 -1920
2019-04-21 09:36:01 GMT 51.814735 -1.045914 8,150 154 329 -2112
2019-04-21 09:35:58 GMT 51.820694 -1.050186 8,200 154 329 -2048
2019-04-21 09:35:54 GMT 51.829330 -1.057731 8,400 154 329 -2048
2019-04-21 09:35:51 GMT 51.829330 -1.057731 8,525 154 330 -3008
2019-04-21 09:35:48 GMT 51.833916 -1.060867 8,575 154 330 -2944
2019-04-21 09:35:45 GMT 51.837479 -1.064041 8,725 154 330 -3008
2019-04-21 09:35:42 GMT 51.841782 -1.067276 9,125 146 338 -3136
2019-04-21 09:35:39 GMT 51.845413 -1.069489 8,925 154 332 -3008
2019-04-21 09:35:36 GMT 51.850349 -1.073837 9,575 153 333 -3008
2019-04-21 09:35:33 GMT 51.853516 -1.076050 9,300 153 334 -2880
2019-04-21 09:35:30 GMT 51.858868 -1.080780 10,000 138 341 -3136
2019-04-21 09:35:27 GMT 51.861706 -1.083145 10,025 148 338 -3072
2019-04-21 09:35:24 GMT 51.866547 -1.088181 10,475 137 348 -3648
2019-04-21 09:35:21 GMT 51.871170 -1.092397 9,925 144 339 -3136
2019-04-21 09:35:18 GMT 51.873962 -1.095292 10,025 142 339 -3136
2019-04-21 09:35:15 GMT 51.877808 -1.101676 10,125 140 340 -3136
2019-04-21 09:35:12 GMT 51.882423 -1.106796 10,475 138 342 -3136
2019-04-21 09:35:09 GMT 51.885315 -1.111846 10,500 138 342 -3072
2019-04-21 09:35:06 GMT 51.889172 -1.116867 10,600 138 342 -3072
2019-04-21 09:35:03 GMT 51.893280 -1.122016 10,850 138 345 -3136
2019-04-21 09:35:00 GMT 51.895523 -1.125412 11,025 138 345 -3200
2019-04-21 09:34:57 GMT 51.898438 -1.130650 11,050 138 346 -3328
2019-04-21 09:34:54 GMT 51.903976 -1.137399 11,750 138 348 -3392
2019-04-21 09:34:51 GMT 51.906967 -1.142731 11,625 138 348 -3392
2019-04-21 09:34:47 GMT 51.916214 -1.156540 11,775 138 348 -3392
2019-04-21 09:34:44 GMT 51.916214 -1.156540 11,925 137 349 -3456
2019-04-21 09:34:41 GMT 51.919189 -1.160126 12,050 137 349 -3520
2019-04-21 09:34:38 GMT 51.922970 -1.165257 12,225 137 349 -3584
2019-04-21 09:34:35 GMT 51.925438 -1.168788 12,550 137 349 -3648
2019-04-21 09:34:32 GMT 51.930588 -1.177521 12,525 137 349 -3712
2019-04-21 09:34:29 GMT 51.933701 -1.181107 12,775 137 349 -3712
2019-04-21 09:34:26 GMT 51.936657 -1.186288 13,025 137 349 -3520
2019-04-21 09:34:23 GMT 51.939915 -1.189898 13,450 137 349 -3456
2019-04-21 09:34:20 GMT 51.944336 -1.196882 13,250 137 349 -3520
2019-04-21 09:34:17 GMT 51.947178 -1.200570 13,425 137 349 -3392
2019-04-21 09:34:14 GMT 51.951225 -1.207633 13,900 137 352 -2880
2019-04-21 09:34:11 GMT 51.957504 -1.216507 13,825 137 351 -3136
2019-04-21 09:34:08 GMT 51.957504 -1.216507 15,000 131 398 -128
2019-04-21 09:34:05 GMT 51.962173 -1.223526 14,075 137 353 -2816
2019-04-21 09:34:02 GMT 51.964645 -1.227036 14,475 137 356 -2688
2019-04-21 09:33:59 GMT 51.970139 -1.234360 14,300 138 357 -2368
2019-04-21 09:33:56 GMT 51.977554 -1.245117 14,550 138 361 -2240
2019-04-21 09:33:53 GMT 51.977554 -1.245117 14,575 138 361 -2240
2019-04-21 09:33:49 GMT 51.982452 -1.252365 14,650 138 363 -2816
2019-04-21 09:33:46 GMT 51.985722 -1.257856 14,875 138 369 -1216
2019-04-21 09:33:43 GMT 51.989685 -1.263351 14,925 138 372 -704
2019-04-21 09:33:40 GMT 51.992249 -1.267090 14,975 138 373 -576
2019-04-21 09:33:37 GMT 51.997330 -1.274414 15,000 138 377 -128
2019-04-21 09:33:34 GMT 52.006065 -1.287676 15,000 138 387 -64
2019-04-21 09:33:31 GMT 52.006065 -1.287676 15,000 138 384 0
2019-04-21 09:33:27 GMT 52.008858 -1.291600 15,000 138 386 -64
2019-04-21 09:33:24 GMT 52.014164 -1.299447 15,000 138 391 -64
2019-04-21 09:33:21 GMT 52.018707 -1.305237 15,000 138 398 -64
2019-04-21 09:33:18 GMT 52.022312 -1.311218 15,000 137 397 0
2019-04-21 09:33:15 GMT 52.026398 -1.317139 15,000 138 397 -64
2019-04-21 09:33:12 GMT 52.035599 -1.329269 15,025 131 398 -128
2019-04-21 09:33:08 GMT 52.035599 -1.329269 15,000 136 396 64
2019-04-21 09:33:05 GMT 52.040131 -1.337433 15,000 134 398 -128
2019-04-21 09:33:01 GMT 52.045898 -1.345978 15,025 131 398 -128
2019-04-21 09:32:57 GMT 52.051117 -1.354752 15,025 130 398 -128
2019-04-21 09:32:54 GMT 52.053543 -1.359024 15,025 129 399 -128
2019-04-21 09:32:51 GMT 52.057434 -1.368256 15,025 129 401 -320
2019-04-21 09:32:48 GMT 52.061558 -1.375488 15,050 129 401 -256
2019-04-21 09:32:45 GMT 52.064575 -1.382294 15,100 128 406 -320
2019-04-21 09:32:42 GMT 52.068584 -1.389378 15,075 128 413 -704
2019-04-21 09:32:39 GMT 52.075428 -1.403817 15,225 129 423 -1088
2019-04-21 09:32:36 GMT 52.075428 -1.403817 15,125 128 409 -576
2019-04-21 09:32:33 GMT 52.078995 -1.410980 15,125 128 413 -704
2019-04-21 09:32:30 GMT 52.085907 -1.425400 16,175 128 430 -1536
2019-04-21 09:32:27 GMT 52.085907 -1.425400 15,200 129 419 -896
2019-04-21 09:32:24 GMT 52.089249 -1.430435 15,400 128 426 -1216
2019-04-21 09:32:21 GMT 52.093689 -1.440277 15,300 128 425 -1152
2019-04-21 09:32:18 GMT 52.097446 -1.447606 15,375 128 431 -1664
2019-04-21 09:32:15 GMT 52.100147 -1.452785 15,425 128 431 -1664
2019-04-21 09:32:12 GMT 52.104126 -1.460190 15,625 128 433 -1792
2019-04-21 09:32:09 GMT 52.108521 -1.470566 15,550 129 436 -2176
2019-04-21 09:32:06 GMT 52.112808 -1.478210 15,775 129 437 -2496
2019-04-21 09:32:00 GMT 52.120026 -1.493356 15,975 129 438 -3136
2019-04-21 09:31:57 GMT 52.123764 -1.501083 16,125 129 437 -3456
2019-04-21 09:31:54 GMT 52.128357 -1.508815 16,275 128 439 -3392
2019-04-21 09:31:51 GMT 52.131638 -1.516571 16,500 128 438 -3392
2019-04-21 09:31:48 GMT 52.135433 -1.524353 16,600 128 439 -3328
2019-04-21 09:31:45 GMT 52.138508 -1.529218 16,700 128 439 -3328
2019-04-21 09:31:42 GMT 52.142212 -1.537170 16,950 129 441 -3392
2019-04-21 09:31:39 GMT 52.147476 -1.547318 17,175 129 442 -3392
2019-04-21 09:31:35 GMT 52.150890 -1.554958 17,500 131 442 -3264
2019-04-21 09:31:32 GMT 52.159267 -1.569868 17,900 132 445 -2624
2019-04-21 09:31:26 GMT 52.164669 -1.579599 17,825 133 445 -2560
2019-04-21 09:31:23 GMT 52.169174 -1.587067 17,950 134 446 -2496
2019-04-21 09:31:20 GMT 52.172768 -1.594116 18,075 134 447 -2432
2019-04-21 09:31:17 GMT 52.181259 -1.605835 18,275 136 448 -2624
2019-04-21 09:31:14 GMT 52.187439 -1.615295 18,400 137 449 -2560
2019-04-21 09:31:11 GMT 52.187439 -1.615295 18,450 139 450 -2560
2019-04-21 09:31:08 GMT 52.190739 -1.621974 18,525 137 449 -2560
2019-04-21 09:31:04 GMT 52.196182 -1.628647 18,700 139 450 -2560
2019-04-21 09:31:01 GMT 52.201950 -1.637421 18,900 140 450 -2624
2019-04-21 09:30:58 GMT 52.205246 -1.641769 20,125 144 457 -2560
2019-04-21 09:30:55 GMT 52.212524 -1.650085 19,100 142 451 -2624
2019-04-21 09:30:52 GMT 52.217506 -1.655954 19,400 144 452 -2624
2019-04-21 09:30:49 GMT 52.222046 -1.662064 19,425 144 452 -2624
2019-04-21 09:30:46 GMT 52.226212 -1.665955 19,600 144 453 -2624
2019-04-21 09:30:43 GMT 52.232666 -1.673965 19,650 144 454 -2624
2019-04-21 09:30:40 GMT 52.241482 -1.684126 19,825 144 461 -2624
2019-04-21 09:30:37 GMT 52.247345 -1.692208 20,025 144 457 -2560
2019-04-21 09:30:34 GMT 52.247345 -1.692208 20,025 144 457 -2560
2019-04-21 09:30:31 GMT 52.252213 -1.698151 20,175 144 458 -2560
2019-04-21 09:30:28 GMT 52.257111 -1.702271 20,375 144 462 -2624
2019-04-21 09:30:25 GMT 52.261639 -1.708374 20,525 144 461 -2624
2019-04-21 09:30:22 GMT 52.274002 -1.722412 20,575 144 461 -2624
2019-04-21 09:30:19 GMT 52.274002 -1.722412 20,925 144 462 -2624
2019-04-21 09:30:16 GMT 52.279606 -1.728463 20,775 144 463 -2624
2019-04-21 09:30:13 GMT 52.285080 -1.734695 20,850 144 466 -2624
2019-04-21 09:30:10 GMT 52.293293 -1.744943 21,150 144 464 -2560
2019-04-21 09:30:04 GMT 52.299625 -1.753026 21,425 144 467 -2624
2019-04-21 09:30:01 GMT 52.304138 -1.757263 21,800 144 467 -2624
2019-04-21 09:29:58 GMT 52.310890 -1.765424 21,550 144 467 -2624
2019-04-21 09:29:55 GMT 52.313683 -1.769584 21,750 144 467 -2624
2019-04-21 09:29:52 GMT 52.319824 -1.775742 21,800 144 479 -2560
2019-04-21 09:29:49 GMT 52.326736 -1.784058 22,000 144 468 -2624
2019-04-21 09:29:46 GMT 52.332165 -1.790222 22,100 144 470 -2624
2019-04-21 09:29:43 GMT 52.336578 -1.796417 22,275 144 470 -2688
2019-04-21 09:29:40 GMT 52.341019 -1.800537 22,325 144 471 -2624
2019-04-21 09:29:37 GMT 52.347198 -1.808777 22,575 144 475 -2624
2019-04-21 09:29:34 GMT 52.352322 -1.815177 22,675 144 475 -2560
2019-04-21 09:29:31 GMT 52.358643 -1.821289 23,050 144 478 -2624
2019-04-21 09:29:28 GMT 52.364285 -1.827654 24,375 144 493 -2560
2019-04-21 09:29:25 GMT 52.369171 -1.833954 22,950 144 479 -2560
2019-04-21 09:29:22 GMT 52.374062 -1.840288 23,225 144 482 -2560
2019-04-21 09:29:19 GMT 52.380844 -1.846542 23,300 144 488 -2560
2019-04-21 09:29:16 GMT 52.386303 -1.852923 23,400 144 483 -2624
2019-04-21 09:29:13 GMT 52.391846 -1.859279 23,725 144 487 -2560
2019-04-21 09:29:10 GMT 52.396545 -1.865557 23,725 144 488 -2560
2019-04-21 09:29:07 GMT 52.401012 -1.869873 23,825 144 488 -2560
2019-04-21 09:29:04 GMT 52.408276 -1.878270 23,900 144 489 -2624
2019-04-21 09:29:01 GMT 52.413940 -1.884842 24,050 144 491 -2624
2019-04-21 09:28:58 GMT 52.417603 -1.889038 24,175 144 491 -2624
2019-04-21 09:28:55 GMT 52.429317 -1.904088 24,350 144 493 -2560
2019-04-21 09:28:52 GMT 52.429317 -1.904088 24,425 144 493 -2560
2019-04-21 09:28:49 GMT 52.436394 -1.912955 24,600 144 493 -2560
2019-04-21 09:28:46 GMT 52.439117 -1.915054 24,650 144 494 -2560
2019-04-21 09:28:43 GMT 52.446579 -1.923752 26,450 144 493 -2560
2019-04-21 09:28:40 GMT 52.452408 -1.930219 25,000 144 493 -2560
2019-04-21 09:28:37 GMT 52.456085 -1.934535 25,100 144 492 -2560
2019-04-21 09:28:34 GMT 52.461227 -1.941223 25,175 144 492 -2560
2019-04-21 09:28:31 GMT 52.467632 -1.947719 29,475 144 492 -2560
2019-04-21 09:28:28 GMT 52.473495 -1.956351 25,500 144 492 -2560
2019-04-21 09:28:25 GMT 52.485832 -1.969535 25,875 144 492 -2560
2019-04-21 09:28:22 GMT 52.485832 -1.969535 25,700 144 492 -2624
2019-04-21 09:28:19 GMT 52.491440 -1.976089 25,925 144 495 -2496
2019-04-21 09:28:16 GMT 52.495239 -1.980515 26,000 144 492 -2560
2019-04-21 09:28:13 GMT 52.502701 -1.989136 26,125 144 490 -2560
2019-04-21 09:28:10 GMT 52.508377 -1.997833 26,300 144 490 -2496
2019-04-21 09:28:07 GMT 52.512405 -2.002182 26,350 144 490 -2560
2019-04-21 09:28:04 GMT 52.518185 -2.008772 29,325 139 487 -2560
2019-04-21 09:28:00 GMT 52.524857 -2.015381 26,700 144 490 -2560
2019-04-21 09:27:57 GMT 52.531952 -2.023926 26,800 144 502 -2560
2019-04-21 09:27:54 GMT 52.537228 -2.030587 27,300 144 490 -2560
2019-04-21 09:27:51 GMT 52.541794 -2.037048 27,050 144 490 -2560
2019-04-21 09:27:48 GMT 52.547283 -2.043457 27,125 144 490 -2560
2019-04-21 09:27:45 GMT 52.560196 -2.058640 27,375 144 491 -2560
2019-04-21 09:27:42 GMT 52.560196 -2.058640 27,525 144 492 -2560
2019-04-21 09:27:39 GMT 52.564041 -2.062988 27,575 144 492 -2560
2019-04-21 09:27:36 GMT 52.568756 -2.067413 27,775 144 495 -2560
2019-04-21 09:27:33 GMT 52.575989 -2.076187 27,825 144 493 -2560
2019-04-21 09:27:29 GMT 52.581543 -2.082772 27,900 144 495 -2496
2019-04-21 09:27:26 GMT 52.587112 -2.089310 28,075 144 495 -2496
2019-04-21 09:27:23 GMT 52.594345 -2.098083 28,250 144 496 -2560
2019-04-21 09:27:20 GMT 52.600258 -2.104588 28,300 144 498 -2560
2019-04-21 09:27:16 GMT 52.607101 -2.113456 28,625 144 503 -2560
2019-04-21 09:27:13 GMT 52.612038 -2.117850 28,700 144 499 -2560
2019-04-21 09:27:10 GMT 52.617279 -2.124481 30,400 139 497 -1408
2019-04-21 09:27:07 GMT 52.624054 -2.133179 28,925 144 499 -2560
2019-04-21 09:27:04 GMT 52.628860 -2.137375 29,600 145 500 -2560
2019-04-21 09:27:01 GMT 52.635544 -2.146149 29,100 145 501 -2496
2019-04-21 09:26:58 GMT 52.642639 -2.154999 29,475 144 501 -2496
2019-04-21 09:26:52 GMT 52.652664 -2.165985 29,700 144 503 -2560
2019-04-21 09:26:49 GMT 52.664082 -2.179374 29,775 144 502 -2496
2019-04-21 09:26:46 GMT 52.669876 -2.186203 29,850 142 501 -2496
2019-04-21 09:26:40 GMT 52.676044 -2.192950 30,150 141 501 -2496
2019-04-21 09:26:37 GMT 52.680679 -2.200089 30,200 141 500 -2496
2019-04-21 09:26:34 GMT 52.685257 -2.204819 30,300 141 500 -2496
2019-04-21 09:26:31 GMT 52.690887 -2.214355 30,400 140 499 -2496
2019-04-21 09:26:28 GMT 52.695236 -2.219391 30,850 139 496 -2496
2019-04-21 09:26:25 GMT 52.701183 -2.226693 30,675 139 496 -2496
2019-04-21 09:26:22 GMT 52.706268 -2.233887 31,075 139 488 -2560
2019-04-21 09:26:19 GMT 52.712494 -2.243805 30,925 139 488 -2560
2019-04-21 09:26:16 GMT 52.718315 -2.251020 31,075 139 490 -2560
2019-04-21 09:26:13 GMT 52.722244 -2.258224 31,150 139 488 -2560
2019-04-21 09:26:10 GMT 52.729385 -2.267990 31,450 139 485 -2688
2019-04-21 09:26:06 GMT 52.734467 -2.275033 31,550 139 485 -2752
2019-04-21 09:26:03 GMT 52.739914 -2.282181 31,725 139 485 -3264
2019-04-21 09:26:00 GMT 52.746323 -2.291870 31,850 139 486 -2816
2019-04-21 09:25:57 GMT 52.749985 -2.296448 31,975 139 486 -2624
2019-04-21 09:25:54 GMT 52.754333 -2.301331 32,100 139 486 -2304
2019-04-21 09:25:51 GMT 52.761429 -2.310944 32,250 139 488 -2368
2019-04-21 09:25:48 GMT 52.766125 -2.318115 32,375 139 488 -2560
2019-04-21 09:25:45 GMT 52.771271 -2.325287 32,450 139 489 -2752
2019-04-21 09:25:42 GMT 52.777084 -2.334824 33,175 139 491 -2240
2019-04-21 09:25:39 GMT 52.780746 -2.339706 32,725 139 491 -2240
2019-04-21 09:25:36 GMT 52.787750 -2.349548 32,800 139 491 -2240
2019-04-21 09:25:33 GMT 52.792797 -2.356881 32,950 139 493 -1856
2019-04-21 09:25:29 GMT 52.798965 -2.364044 33,075 139 493 -1664
2019-04-21 09:25:26 GMT 52.804295 -2.371242 33,125 139 494 -1600
2019-04-21 09:25:23 GMT 52.810440 -2.381287 33,225 139 494 -1536
2019-04-21 09:25:20 GMT 52.814491 -2.386152 33,300 139 494 -1536
2019-04-21 09:25:17 GMT 52.818695 -2.391052 33,450 139 495 -1408
2019-04-21 09:25:14 GMT 52.823822 -2.398300 33,425 139 495 -1408
2019-04-21 09:25:11 GMT 52.829361 -2.408066 33,500 139 495 -1408
2019-04-21 09:25:08 GMT 52.835022 -2.415580 33,600 139 496 -1408
2019-04-21 09:25:05 GMT 52.839584 -2.420524 33,675 139 499 -1344
2019-04-21 09:25:02 GMT 52.846241 -2.430333 33,700 139 497 -1408
2019-04-21 09:24:59 GMT 52.851471 -2.437744 33,800 139 497 -1408
2019-04-21 09:24:56 GMT 52.855923 -2.445007 33,825 139 499 -1344
2019-04-21 09:24:53 GMT 52.862091 -2.452469 33,950 139 500 -1344
2019-04-21 09:24:50 GMT 52.867859 -2.462311 34,025 139 501 -1408
2019-04-21 09:24:47 GMT 52.871429 -2.467270 34,200 139 503 -1216
2019-04-21 09:24:44 GMT 52.877895 -2.474827 34,125 139 502 -1344
2019-04-21 09:24:41 GMT 52.881386 -2.479693 34,400 139 503 -1152
2019-04-21 09:24:38 GMT 52.886719 -2.487183 34,400 139 504 -1152
2019-04-21 09:24:35 GMT 52.894226 -2.497253 34,325 139 504 -1088
2019-04-21 09:24:32 GMT 52.897820 -2.504569 34,525 139 502 -1152
2019-04-21 09:24:29 GMT 52.903793 -2.512283 34,425 139 505 -1088
2019-04-21 09:24:26 GMT 52.909878 -2.519714 35,300 139 497 -1024
2019-04-21 09:24:23 GMT 52.914642 -2.527161 34,650 139 504 -1088
2019-04-21 09:24:17 GMT 52.926636 -2.544826 34,675 139 504 -1152
2019-04-21 09:24:14 GMT 52.931107 -2.549848 34,825 139 503 -1152
2019-04-21 09:24:11 GMT 52.934780 -2.554871 34,850 139 502 -1152
2019-04-21 09:24:08 GMT 52.940002 -2.562561 34,850 139 502 -1152
2019-04-21 09:24:05 GMT 52.946411 -2.572479 34,900 139 501 -1152
2019-04-21 09:24:02 GMT 52.950935 -2.579904 34,975 139 499 -1024
2019-04-21 09:23:59 GMT 52.955498 -2.584926 35,000 139 500 -1024
2019-04-21 09:23:56 GMT 52.960831 -2.592545 35,075 139 499 -1024
2019-04-21 09:23:53 GMT 52.966251 -2.599993 35,100 139 499 -1024
2019-04-21 09:23:50 GMT 52.973740 -2.612381 35,150 139 498 -1024
2019-04-21 09:23:47 GMT 52.978363 -2.617416 35,200 139 498 -1024
2019-04-21 09:23:44 GMT 52.982685 -2.624791 35,275 139 497 -1024
2019-04-21 09:23:41 GMT 52.987434 -2.629813 35,300 139 497 -960
2019-04-21 09:23:38 GMT 52.992882 -2.639779 35,325 139 497 -960
2019-04-21 09:23:35 GMT 52.998047 -2.647095 35,400 139 497 -960
2019-04-21 09:23:32 GMT 53.003914 -2.654689 35,425 139 497 -1024
2019-04-21 09:23:29 GMT 53.008667 -2.661896 35,525 139 495 -1024
2019-04-21 09:23:25 GMT 53.017090 -2.671890 35,600 139 495 -960
2019-04-21 09:23:22 GMT 53.022491 -2.681808 35,600 139 494 -1024
2019-04-21 09:23:19 GMT 53.026794 -2.686691 35,650 139 494 -896
2019-04-21 09:23:16 GMT 53.032837 -2.696609 35,675 138 493 -704
2019-04-21 09:23:13 GMT 53.037827 -2.701569 35,750 138 493 -704
2019-04-21 09:23:10 GMT 53.042179 -2.709150 35,825 136 492 -704
2019-04-21 09:23:06 GMT 53.052372 -2.724139 35,850 118 488 -768
2019-04-21 09:23:00 GMT 53.058472 -2.734811 35,925 135 492 -768
2019-04-21 09:22:57 GMT 53.063644 -2.742615 35,925 133 491 -704
2019-04-21 09:22:53 GMT 53.069550 -2.753906 35,950 132 491 -768
2019-04-21 09:22:50 GMT 53.074020 -2.762512 36,075 129 491 -768
2019-04-21 09:22:47 GMT 53.079838 -2.774126 36,325 118 487 -768
2019-04-21 09:22:44 GMT 53.083145 -2.780012 36,100 125 489 -896
2019-04-21 09:22:41 GMT 53.087448 -2.789459 36,150 124 490 -896
2019-04-21 09:22:38 GMT 53.093811 -2.808533 36,250 121 489 -832
2019-04-21 09:22:35 GMT 53.093811 -2.808533 36,250 120 488 -832
2019-04-21 09:22:32 GMT 53.098434 -2.821368 36,275 119 489 -768
2019-04-21 09:22:29 GMT 53.100723 -2.828038 36,300 118 488 -768
2019-04-21 09:22:26 GMT 53.103058 -2.834394 36,325 118 489 -768
2019-04-21 09:22:22 GMT 53.107727 -2.847499 36,400 118 489 -768
2019-04-21 09:22:19 GMT 53.111481 -2.860683 36,425 118 488 -768
2019-04-21 09:22:16 GMT 53.114319 -2.867275 36,525 118 488 -768
2019-04-21 09:22:13 GMT 53.117268 -2.877368 36,525 118 488 -768
2019-04-21 09:22:09 GMT 53.123363 -2.897079 36,575 118 488 -768
2019-04-21 09:22:06 GMT 53.125462 -2.903541 36,600 118 488 -768
2019-04-21 09:22:03 GMT 53.128441 -2.910327 36,625 118 488 -768
2019-04-21 09:22:00 GMT 53.132118 -2.923494 36,700 118 488 -768
2019-04-21 09:21:57 GMT 53.135605 -2.933193 36,725 118 488 -768
2019-04-21 09:21:54 GMT 53.138264 -2.942963 36,775 118 487 -768
2019-04-21 09:21:51 GMT 53.142563 -2.953203 36,800 118 487 -704
2019-04-21 09:21:48 GMT 53.144875 -2.962916 36,850 118 487 -704
2019-04-21 09:21:45 GMT 53.147667 -2.969540 36,875 118 485 -704
2019-04-21 09:21:42 GMT 53.151623 -2.982627 36,900 118 487 -768
2019-04-21 09:21:39 GMT 53.153950 -2.989170 37,100 118 485 -768
2019-04-21 09:21:36 GMT 53.158234 -3.002337 37,000 118 487 -768
2019-04-21 09:21:33 GMT 53.160561 -3.009123 37,625 118 485 -768
2019-04-21 09:21:30 GMT 53.163940 -3.018808 37,050 118 487 -768
2019-04-21 09:21:27 GMT 53.167171 -3.028915 37,100 118 487 -768
2019-04-21 09:21:24 GMT 53.170757 -3.041920 37,125 118 486 -768
2019-04-21 09:21:21 GMT 53.174149 -3.051767 37,225 118 486 -768
2019-04-21 09:21:18 GMT 53.177273 -3.061712 37,600 118 485 -768
2019-04-21 09:21:15 GMT 53.180374 -3.071699 37,250 118 486 -768
2019-04-21 09:21:12 GMT 53.184208 -3.081584 37,275 118 486 -768
2019-04-21 09:21:09 GMT 53.186302 -3.088128 37,300 118 485 -768
2019-04-21 09:21:06 GMT 53.190075 -3.101214 37,425 118 485 -704
2019-04-21 09:21:03 GMT 53.196312 -3.121167 37,475 118 485 -704
2019-04-21 09:21:00 GMT 53.196312 -3.121167 37,450 118 485 -768
2019-04-21 09:20:57 GMT 53.198826 -3.127711 37,575 118 485 -832
2019-04-21 09:20:54 GMT 53.202209 -3.137460 37,575 118 485 -832
2019-04-21 09:20:51 GMT 53.205643 -3.150800 37,575 118 485 -768
2019-04-21 09:20:48 GMT 53.208881 -3.160427 37,600 118 485 -768
2019-04-21 09:20:45 GMT 53.216217 -3.183524 37,900 118 485 -832
2019-04-21 09:20:42 GMT 53.216217 -3.183524 37,725 118 485 -832
2019-04-21 09:20:39 GMT 53.219448 -3.193467 37,725 118 485 -832
2019-04-21 09:20:35 GMT 53.223591 -3.206635 37,800 118 485 -832
2019-04-21 09:20:32 GMT 53.228897 -3.223153 38,050 117 487 -768
2019-04-21 09:20:26 GMT 53.232159 -3.232889 37,900 118 486 -768
2019-04-21 09:20:23 GMT 53.235352 -3.242850 37,950 117 485 -704
2019-04-21 09:20:20 GMT 53.238052 -3.249677 37,975 117 485 -704
2019-04-21 09:20:17 GMT 53.241329 -3.259223 37,975 118 486 -704
2019-04-21 09:20:13 GMT 53.246521 -3.275809 38,050 118 486 -768
2019-04-21 09:20:10 GMT 53.249615 -3.285720 38,100 118 486 -768
2019-04-21 09:20:07 GMT 53.251896 -3.292344 38,125 118 486 -768
2019-04-21 09:20:04 GMT 53.258183 -3.312459 38,175 118 486 -704
2019-04-21 09:20:01 GMT 53.258183 -3.312459 38,225 118 487 -704
2019-04-21 09:19:58 GMT 53.262276 -3.325545 38,275 118 487 -704
2019-04-21 09:19:55 GMT 53.265656 -3.335371 38,300 118 487 -704
2019-04-21 09:19:52 GMT 53.272247 -3.355303 38,325 117 488 -704
2019-04-21 09:19:48 GMT 53.272247 -3.355303 38,400 117 487 -768
2019-04-21 09:19:45 GMT 53.276505 -3.368644 38,400 117 487 -768
2019-04-21 09:19:42 GMT 53.279083 -3.378457 38,475 117 487 -768
2019-04-21 09:19:39 GMT 53.281952 -3.388497 38,500 117 487 -832
2019-04-21 09:19:36 GMT 53.285694 -3.398653 38,525 117 488 -832
2019-04-21 09:19:33 GMT 53.287975 -3.405196 38,550 117 488 -832
2019-04-21 09:19:30 GMT 53.293934 -3.425069 38,925 117 487 -768
2019-04-21 09:19:27 GMT 53.298496 -3.438640 38,650 117 488 -768
2019-04-21 09:19:24 GMT 53.298496 -3.438640 38,675 117 488 -768
2019-04-21 09:19:21 GMT 53.300079 -3.445183 38,850 117 488 -768
2019-04-21 09:19:18 GMT 53.303650 -3.455200 38,775 117 488 -768
2019-04-21 09:19:15 GMT 53.307129 -3.468541 38,825 117 488 -704
2019-04-21 09:19:12 GMT 53.311340 -3.482195 38,875 117 487 -704
2019-04-21 09:19:09 GMT 53.314369 -3.492279 38,900 117 487 -704
2019-04-21 09:19:06 GMT 53.320702 -3.512232 38,975 117 487 -704
2019-04-21 09:19:02 GMT 53.320702 -3.512232 38,950 117 487 -704
2019-04-21 09:18:59 GMT 53.323746 -3.522295 39,000 117 486 -64
2019-04-21 09:18:56 GMT 53.329926 -3.542306 39,000 117 486 -64
2019-04-21 09:18:53 GMT 53.333954 -3.555568 39,025 117 486 64
2019-04-21 09:18:50 GMT 53.333954 -3.555568 39,000 117 487 0
2019-04-21 09:18:47 GMT 53.335598 -3.559005 39,025 117 487 0
2019-04-21 09:18:44 GMT 53.339321 -3.572091 39,025 117 487 -64
2019-04-21 09:18:41 GMT 53.342285 -3.582328 39,000 117 487 64
2019-04-21 09:18:38 GMT 53.344940 -3.588998 39,000 116 486 64
2019-04-21 09:18:35 GMT 53.348122 -3.598911 39,025 117 486 0
2019-04-21 09:18:32 GMT 53.351379 -3.612402 39,025 117 486 192
2019-04-21 09:18:29 GMT 53.355011 -3.622271 39,000 116 487 64
2019-04-21 09:18:23 GMT 53.361328 -3.642282 39,000 117 486 -64
2019-04-21 09:18:20 GMT 53.364552 -3.652550 39,000 117 486 0
2019-04-21 09:18:17 GMT 53.366600 -3.659174 39,000 117 486 0
2019-04-21 09:18:14 GMT 53.369720 -3.672503 39,000 116 485 -64
2019-04-21 09:18:11 GMT 53.373413 -3.682617 39,000 117 486 0
2019-04-21 09:18:08 GMT 53.376564 -3.692618 39,000 117 486 64
2019-04-21 09:18:05 GMT 53.380009 -3.705785 39,000 117 486 0
2019-04-21 09:18:02 GMT 53.381962 -3.712490 39,000 117 485 0
2019-04-21 09:17:59 GMT 53.385223 -3.722482 38,975 117 485 0
2019-04-21 09:17:56 GMT 53.387741 -3.729152 39,000 116 488 0
2019-04-21 09:17:53 GMT 53.391220 -3.742807 39,000 116 486 64
2019-04-21 09:17:50 GMT 53.394627 -3.752720 39,000 116 485 -64
2019-04-21 09:17:47 GMT 53.396812 -3.759344 39,000 116 486 0
2019-04-21 09:17:44 GMT 53.399872 -3.769409 39,000 116 485 -64
2019-04-21 09:17:41 GMT 53.404221 -3.782907 39,000 116 486 64
2019-04-21 09:17:38 GMT 53.407146 -3.792868 39,000 116 486 64
2019-04-21 09:17:34 GMT 53.410686 -3.806278 39,000 116 487 -64
2019-04-21 09:17:31 GMT 53.413925 -3.816336 39,000 116 487 0
2019-04-21 09:17:28 GMT 53.416458 -3.826554 39,000 116 486 0
2019-04-21 09:17:25 GMT 53.420288 -3.836583 39,000 116 486 0
2019-04-21 09:17:22 GMT 53.422928 -3.846830 39,000 116 486 0
2019-04-21 09:17:19 GMT 53.429214 -3.867026 39,000 116 487 -64
2019-04-21 09:17:15 GMT 53.429214 -3.867026 39,000 116 487 0
2019-04-21 09:17:12 GMT 53.432373 -3.876997 39,000 116 487 -64
2019-04-21 09:17:09 GMT 53.434753 -3.887060 39,000 116 487 -64
2019-04-21 09:17:06 GMT 53.439316 -3.900712 39,000 116 487 0
2019-04-21 09:17:03 GMT 53.442261 -3.910897 39,000 116 487 0
2019-04-21 09:17:00 GMT 53.444809 -3.921069 39,000 116 487 -64
2019-04-21 09:16:57 GMT 53.453190 -3.947727 39,000 116 487 64
2019-04-21 09:16:53 GMT 53.453190 -3.947727 39,000 128 488 0
2019-04-21 09:16:50 GMT 53.455795 -3.954351 39,000 118 488 64
2019-04-21 09:16:47 GMT 53.458923 -3.964417 39,000 119 488 128
2019-04-21 09:16:44 GMT 53.461613 -3.974304 39,000 120 488 0
2019-04-21 09:16:41 GMT 53.465515 -3.984113 39,000 122 488 -64
2019-04-21 09:16:37 GMT 53.469341 -3.993530 39,000 125 487 0
2019-04-21 09:16:34 GMT 53.473949 -4.006132 39,000 125 487 0
2019-04-21 09:16:31 GMT 53.477417 -4.015032 39,000 127 487 0
2019-04-21 09:16:27 GMT 53.483322 -4.027117 39,000 127 487 0
2019-04-21 09:16:24 GMT 53.487682 -4.036183 39,000 128 487 0
2019-04-21 09:16:21 GMT 53.491882 -4.045088 39,000 128 487 0
2019-04-21 09:16:17 GMT 53.500488 -4.062823 39,000 128 487 0
2019-04-21 09:16:14 GMT 53.500488 -4.062823 39,000 128 487 0
2019-04-21 09:16:11 GMT 53.505707 -4.074672 39,000 128 487 0
2019-04-21 09:16:08 GMT 53.509888 -4.083602 39,000 128 487 0
2019-04-21 09:16:05 GMT 53.519257 -4.104178 39,000 128 487 0
2019-04-21 09:16:01 GMT 53.519257 -4.104178 39,000 128 488 0
2019-04-21 09:15:58 GMT 53.523434 -4.113330 39,000 128 488 0
2019-04-21 09:15:55 GMT 53.534702 -4.137080 39,000 128 488 0
2019-04-21 09:15:51 GMT 53.534702 -4.137080 39,000 128 488 0
2019-04-21 09:15:48 GMT 53.537399 -4.142815 39,000 128 488 0
2019-04-21 09:15:45 GMT 53.541359 -4.148874 39,000 128 487 0
2019-04-21 09:15:42 GMT 53.545532 -4.157776 39,000 128 488 0
2019-04-21 09:15:39 GMT 53.551971 -4.172624 39,000 128 488 0
2019-04-21 09:15:36 GMT 53.554764 -4.178682 39,000 128 488 64
2019-04-21 09:15:33 GMT 53.557976 -4.184660 39,000 128 488 64
2019-04-21 09:15:30 GMT 53.562634 -4.196616 39,000 128 488 0
2019-04-21 09:15:27 GMT 53.567001 -4.205331 39,000 128 488 0
2019-04-21 09:15:24 GMT 53.571896 -4.214307 39,000 128 488 0
2019-04-21 09:15:20 GMT 53.576294 -4.223380 39,000 128 489 0
2019-04-21 09:15:17 GMT 53.580780 -4.235151 39,000 128 489 0
2019-04-21 09:15:14 GMT 53.584442 -4.241193 39,000 128 489 0
2019-04-21 09:15:11 GMT 53.594559 -4.265285 39,000 128 489 0
2019-04-21 09:15:08 GMT 53.594559 -4.265285 39,000 128 489 0
2019-04-21 09:15:02 GMT 53.601013 -4.276978 39,000 128 489 0
2019-04-21 09:14:59 GMT 53.605682 -4.289062 39,000 128 490 0
2019-04-21 09:14:56 GMT 53.610069 -4.298159 39,000 128 490 -64
2019-04-21 09:14:53 GMT 53.615517 -4.310114 39,000 128 490 0
2019-04-21 09:14:48 GMT 53.620468 -4.319039 39,000 128 490 0
2019-04-21 09:14:45 GMT 53.626099 -4.331124 39,000 128 490 64
2019-04-21 09:14:42 GMT 53.629482 -4.339842 39,000 127 490 0
2019-04-21 09:14:39 GMT 53.634293 -4.349016 39,000 127 490 0
2019-04-21 09:14:36 GMT 53.637814 -4.358179 39,000 127 490 0
2019-04-21 09:14:33 GMT 53.641819 -4.363996 39,000 128 491 0
2019-04-21 09:14:30 GMT 53.649776 -4.382091 39,000 128 491 -64
2019-04-21 09:14:27 GMT 53.655899 -4.397042 39,000 128 491 -64
2019-04-21 09:14:24 GMT 53.655899 -4.397042 39,000 128 491 0
2019-04-21 09:14:21 GMT 53.658298 -4.400186 39,000 127 492 0
2019-04-21 09:14:18 GMT 53.663979 -4.412303 39,000 127 492 0
2019-04-21 09:14:15 GMT 53.672588 -4.430237 39,000 127 492 0
2019-04-21 09:14:12 GMT 53.672588 -4.430237 39,000 127 492 0
2019-04-21 09:14:09 GMT 53.675102 -4.436295 39,000 127 492 0
2019-04-21 09:14:06 GMT 53.679062 -4.445461 39,000 127 492 0
2019-04-21 09:14:03 GMT 53.683434 -4.454552 39,000 127 492 0
2019-04-21 09:14:00 GMT 53.688416 -4.466508 39,000 127 492 0
2019-04-21 09:13:57 GMT 53.693344 -4.475673 39,000 127 493 0
2019-04-21 09:13:53 GMT 53.698563 -4.487523 39,000 127 493 0
2019-04-21 09:13:50 GMT 53.702709 -4.496801 39,000 127 493 0
2019-04-21 09:13:47 GMT 53.707443 -4.505886 39,000 127 493 0
2019-04-21 09:13:43 GMT 53.711647 -4.514896 39,000 127 493 0
2019-04-21 09:13:40 GMT 53.716164 -4.526852 39,000 127 493 0
2019-04-21 09:13:37 GMT 53.720074 -4.532911 39,000 127 493 0
2019-04-21 09:13:34 GMT 53.728405 -4.551248 39,000 127 493 0
2019-04-21 09:13:31 GMT 53.728405 -4.551248 39,000 127 493 0
2019-04-21 09:13:28 GMT 53.732666 -4.560189 39,000 127 493 0
2019-04-21 09:13:25 GMT 53.736832 -4.569505 39,000 127 493 0
2019-04-21 09:13:22 GMT 53.742092 -4.581703 39,000 127 493 0
2019-04-21 09:13:16 GMT 53.751343 -4.602801 39,000 127 493 0
2019-04-21 09:13:13 GMT 53.753498 -4.606018 39,000 127 493 64
2019-04-21 09:13:10 GMT 53.757156 -4.614886 39,000 127 493 64
2019-04-21 09:13:07 GMT 53.762421 -4.627206 39,000 127 493 0
2019-04-21 09:13:04 GMT 53.766083 -4.633327 39,000 127 493 -64
2019-04-21 09:13:01 GMT 53.771118 -4.645412 39,000 127 493 0
2019-04-21 09:12:58 GMT 53.776337 -4.657497 39,000 127 493 -64
2019-04-21 09:12:55 GMT 53.779175 -4.663539 39,000 127 493 0
2019-04-21 09:12:52 GMT 53.783337 -4.672744 39,000 127 493 0
2019-04-21 09:12:49 GMT 53.788876 -4.684942 39,000 127 493 0
2019-04-21 09:12:46 GMT 53.792320 -4.691162 39,000 127 494 0
2019-04-21 09:12:43 GMT 53.795837 -4.697283 39,000 127 494 0
2019-04-21 09:12:40 GMT 53.800095 -4.709338 39,000 127 494 0
2019-04-21 09:12:37 GMT 53.804398 -4.718471 39,000 127 494 0
2019-04-21 09:12:34 GMT 53.809128 -4.727514 39,000 127 494 0
2019-04-21 09:12:30 GMT 53.813965 -4.736834 39,000 127 494 64
2019-04-21 09:12:27 GMT 53.818157 -4.746013 39,000 127 494 0
2019-04-21 09:12:24 GMT 53.822296 -4.755040 39,000 127 494 0
2019-04-21 09:12:21 GMT 53.825977 -4.764189 39,000 127 495 0
2019-04-21 09:12:18 GMT 53.831100 -4.776387 39,000 127 494 -64
2019-04-21 09:12:15 GMT 53.835571 -4.785645 39,000 127 494 0
2019-04-21 09:12:12 GMT 53.839245 -4.794886 39,000 127 494 64
2019-04-21 09:12:09 GMT 53.843628 -4.804164 39,000 127 494 64
2019-04-21 09:12:06 GMT 53.847813 -4.813385 39,000 127 495 0
2019-04-21 09:12:03 GMT 53.850742 -4.819524 39,000 127 495 0
2019-04-21 09:11:59 GMT 53.858749 -4.834873 39,000 127 495 64
2019-04-21 09:11:56 GMT 53.863083 -4.846854 39,000 127 495 0
2019-04-21 09:11:53 GMT 53.865360 -4.849979 39,000 127 494 64
2019-04-21 09:11:50 GMT 53.869629 -4.859253 39,000 127 495 -64
2019-04-21 09:11:47 GMT 53.874573 -4.871338 39,000 127 495 64
2019-04-21 09:11:41 GMT 53.882355 -4.886896 39,000 127 495 0
2019-04-21 09:11:38 GMT 53.887661 -4.899175 39,000 127 495 0
2019-04-21 09:11:35 GMT 53.889847 -4.905234 39,000 127 495 0
2019-04-21 09:11:32 GMT 53.894257 -4.914342 39,000 127 495 0
2019-04-21 09:11:29 GMT 53.899113 -4.923733 39,000 127 495 64
2019-04-21 09:11:26 GMT 53.908813 -4.945103 39,000 127 495 0
2019-04-21 09:11:23 GMT 53.908813 -4.945103 39,000 127 495 -64
2019-04-21 09:11:19 GMT 53.914398 -4.957424 39,000 127 495 0
2019-04-21 09:11:16 GMT 53.918339 -4.966790 39,000 127 495 0
2019-04-21 09:11:13 GMT 53.922272 -4.975708 39,000 127 495 64
2019-04-21 09:11:10 GMT 53.925926 -4.985046 39,000 127 495 -64
2019-04-21 09:11:07 GMT 53.930099 -4.994463 39,000 127 495 0
2019-04-21 09:11:04 GMT 53.934540 -5.003707 39,000 127 495 64
2019-04-21 09:11:01 GMT 53.937332 -5.009846 39,000 127 495 0
2019-04-21 09:10:57 GMT 53.943432 -5.022044 39,000 127 496 64
2019-04-21 09:10:54 GMT 53.949017 -5.034404 39,000 127 495 0
2019-04-21 09:10:50 GMT 53.955185 -5.049866 39,000 127 495 0
2019-04-21 09:10:47 GMT 53.957932 -5.055987 39,000 127 495 0
2019-04-21 09:10:44 GMT 53.962051 -5.065101 39,000 127 496 64
2019-04-21 09:10:41 GMT 53.965961 -5.071241 39,000 127 496 0
2019-04-21 09:10:37 GMT 53.971642 -5.083843 39,000 127 496 64
2019-04-21 09:10:34 GMT 53.976482 -5.096121 39,000 127 494 -64
2019-04-21 09:10:31 GMT 53.980064 -5.102180 39,000 127 496 64
2019-04-21 09:10:28 GMT 53.988400 -5.120598 39,000 127 495 0
2019-04-21 09:10:25 GMT 53.988400 -5.120598 39,000 127 495 0
2019-04-21 09:10:22 GMT 53.993286 -5.133119 39,000 127 495 -64
2019-04-21 09:10:19 GMT 53.998032 -5.142229 39,000 127 495 0
2019-04-21 09:10:16 GMT 54.000641 -5.148507 39,000 127 495 0
2019-04-21 09:10:13 GMT 54.005066 -5.157677 39,000 127 495 0
2019-04-21 09:10:10 GMT 54.013351 -5.176419 39,000 127 495 0
2019-04-21 09:10:04 GMT 54.016983 -5.185704 39,000 127 495 0
2019-04-21 09:10:01 GMT 54.022705 -5.198024 39,000 127 495 0
2019-04-21 09:09:58 GMT 54.033737 -5.222665 39,000 127 495 0
2019-04-21 09:09:53 GMT 54.033737 -5.222665 39,000 127 495 0
2019-04-21 09:09:50 GMT 54.037079 -5.228786 39,000 127 495 0
2019-04-21 09:09:47 GMT 54.041428 -5.241263 39,000 127 495 0
2019-04-21 09:09:44 GMT 54.045753 -5.250415 39,000 127 495 0
2019-04-21 09:09:41 GMT 54.053375 -5.265747 39,000 127 494 128
2019-04-21 09:09:35 GMT 54.057671 -5.275053 39,000 127 494 0
2019-04-21 09:09:32 GMT 54.063023 -5.287413 39,000 127 494 -64
2019-04-21 09:09:29 GMT 54.066330 -5.296901 39,000 127 494 -64
2019-04-21 09:09:26 GMT 54.071495 -5.305993 39,000 127 493 64
2019-04-21 09:09:23 GMT 54.074936 -5.315264 39,000 127 493 0
2019-04-21 09:09:20 GMT 54.078232 -5.321385 39,000 127 493 0
2019-04-21 09:09:17 GMT 54.082249 -5.330631 39,000 127 493 0
2019-04-21 09:09:14 GMT 54.086472 -5.340062 39,000 127 493 0
2019-04-21 09:09:11 GMT 54.092148 -5.352382 39,000 127 493 0
2019-04-21 09:09:08 GMT 54.095329 -5.361732 39,000 127 493 64
2019-04-21 09:09:05 GMT 54.099884 -5.370980 39,000 127 493 64
2019-04-21 09:09:02 GMT 54.103455 -5.377101 39,000 127 493 0
2019-04-21 09:08:59 GMT 54.109016 -5.392429 39,000 127 493 0
2019-04-21 09:08:56 GMT 54.112694 -5.398730 39,000 127 493 -64
2019-04-21 09:08:53 GMT 54.115440 -5.404950 39,000 127 493 -64
2019-04-21 09:08:50 GMT 54.119934 -5.414141 39,000 127 493 0
2019-04-21 09:08:47 GMT 54.124237 -5.426540 39,000 127 492 64
2019-04-21 09:08:43 GMT 54.129913 -5.438625 39,000 127 492 0
2019-04-21 09:08:40 GMT 54.134991 -5.447845 39,000 127 492 64
2019-04-21 09:08:37 GMT 54.138428 -5.457145 39,000 127 492 0
2019-04-21 09:08:33 GMT 54.143692 -5.469543 39,000 127 492 64
2019-04-21 09:08:30 GMT 54.146667 -5.475978 39,000 127 492 0
2019-04-21 09:08:27 GMT 54.151978 -5.488220 39,000 127 492 64
2019-04-21 09:08:24 GMT 54.155457 -5.494420 39,000 127 492 -64
2019-04-21 09:08:21 GMT 54.160400 -5.506505 39,000 127 491 0
2019-04-21 09:08:17 GMT 54.165756 -5.518903 39,000 127 491 0
2019-04-21 09:08:14 GMT 54.169861 -5.528223 39,000 127 491 0
2019-04-21 09:08:11 GMT 54.173306 -5.534363 39,000 127 491 0
2019-04-21 09:08:08 GMT 54.177868 -5.546803 39,000 127 491 64
2019-04-21 09:08:05 GMT 54.180801 -5.553104 39,000 127 491 -64
2019-04-21 09:08:01 GMT 54.187271 -5.568263 39,000 127 491 128
2019-04-21 09:07:57 GMT 54.192810 -5.580741 39,000 127 490 64
2019-04-21 09:07:54 GMT 54.197559 -5.589779 39,000 127 490 0
2019-04-21 09:07:51 GMT 54.200958 -5.599104 39,000 127 490 64
2019-04-21 09:07:48 GMT 54.205101 -5.608359 39,000 127 490 64
2019-04-21 09:07:45 GMT 54.209244 -5.617702 39,000 127 490 64
2019-04-21 09:07:42 GMT 54.213711 -5.626858 39,000 127 489 0
2019-04-21 09:07:39 GMT 54.217297 -5.633159 39,000 126 490 -64
2019-04-21 09:07:36 GMT 54.221439 -5.645357 39,000 126 490 -64
2019-04-21 09:07:33 GMT 54.225723 -5.654742 39,000 126 490 0
2019-04-21 09:07:30 GMT 54.229774 -5.663856 39,000 126 489 64
2019-04-21 09:07:27 GMT 54.234650 -5.673183 39,000 126 490 0
2019-04-21 09:07:23 GMT 54.239273 -5.685503 39,000 126 490 0
2019-04-21 09:07:20 GMT 54.247559 -5.704023 39,000 126 490 0
2019-04-21 09:07:17 GMT 54.247559 -5.704023 39,000 126 489 64
2019-04-21 09:07:14 GMT 54.250946 -5.710223 39,000 126 489 0
2019-04-21 09:07:10 GMT 54.256821 -5.725735 39,000 126 489 0
2019-04-21 09:07:07 GMT 54.260777 -5.731955 39,000 126 489 0
2019-04-21 09:07:04 GMT 54.265106 -5.744234 39,000 126 489 0
2019-04-21 09:07:01 GMT 54.269119 -5.753383 39,000 126 488 0
2019-04-21 09:06:58 GMT 54.272324 -5.759818 39,000 126 489 0
2019-04-21 09:06:55 GMT 54.277588 -5.771981 39,000 126 489 64
2019-04-21 09:06:52 GMT 54.281113 -5.778162 39,000 126 489 64
2019-04-21 09:06:49 GMT 54.286606 -5.790684 39,000 126 489 64
2019-04-21 09:06:46 GMT 54.289406 -5.799866 39,000 126 489 -64
2019-04-21 09:06:43 GMT 54.293179 -5.805858 39,000 126 488 0
2019-04-21 09:06:40 GMT 54.298019 -5.818176 39,000 126 488 0
2019-04-21 09:06:36 GMT 54.302906 -5.830661 39,000 126 488 0
2019-04-21 09:06:33 GMT 54.310776 -5.846181 39,000 126 488 0
2019-04-21 09:06:30 GMT 54.310776 -5.846181 39,000 126 488 0
2019-04-21 09:06:27 GMT 54.316040 -5.858540 39,000 126 488 0
2019-04-21 09:06:24 GMT 54.320175 -5.867864 39,000 126 488 64
2019-04-21 09:06:21 GMT 54.322365 -5.873940 39,000 126 488 64
2019-04-21 09:06:18 GMT 54.328045 -5.886175 39,000 126 488 64
2019-04-21 09:06:14 GMT 54.333027 -5.898743 39,000 126 488 0
2019-04-21 09:06:11 GMT 54.337784 -5.908060 39,000 126 488 0
2019-04-21 09:06:08 GMT 54.342545 -5.920258 39,000 126 488 0
2019-04-21 09:06:04 GMT 54.347038 -5.929538 39,000 126 488 0
2019-04-21 09:06:01 GMT 54.355183 -5.948264 39,000 126 488 0
2019-04-21 09:05:58 GMT 54.355183 -5.948264 39,000 126 489 0
2019-04-21 09:05:55 GMT 54.358749 -5.957256 39,000 126 488 0
2019-04-21 09:05:52 GMT 54.362446 -5.966575 39,000 126 488 0
2019-04-21 09:05:49 GMT 54.367035 -5.976078 39,000 126 489 0
2019-04-21 09:05:43 GMT 54.375092 -5.994496 39,000 126 489 64
2019-04-21 09:05:40 GMT 54.377747 -6.000878 39,000 126 489 0
2019-04-21 09:05:37 GMT 54.382046 -6.010104 39,000 126 488 64
2019-04-21 09:05:34 GMT 54.386536 -6.019458 39,000 126 489 0
2019-04-21 09:05:31 GMT 54.390472 -6.028831 39,000 126 489 -64
2019-04-21 09:05:28 GMT 54.394730 -6.038037 39,000 126 489 -64
2019-04-21 09:05:25 GMT 54.398010 -6.047557 39,000 126 489 0
2019-04-21 09:05:22 GMT 54.402832 -6.056698 39,000 126 489 0
2019-04-21 09:05:19 GMT 54.406487 -6.066118 39,000 126 489 0
2019-04-21 09:05:16 GMT 54.415100 -6.087799 39,000 126 491 128
2019-04-21 09:05:13 GMT 54.415100 -6.087799 39,000 126 491 0
2019-04-21 09:05:10 GMT 54.418350 -6.094100 39,000 126 491 -64
2019-04-21 09:05:07 GMT 54.423386 -6.106621 39,000 126 491 0
2019-04-21 09:05:02 GMT 54.430553 -6.122215 39,000 126 491 128
2019-04-21 09:04:58 GMT 54.435287 -6.131502 39,000 126 492 0
2019-04-21 09:04:55 GMT 54.440140 -6.143942 39,000 126 492 0
2019-04-21 09:04:52 GMT 54.443436 -6.150324 39,000 126 491 0
2019-04-21 09:04:49 GMT 54.447784 -6.162926 39,000 126 491 0
2019-04-21 09:04:46 GMT 54.454010 -6.175447 39,000 126 492 -64
2019-04-21 09:04:43 GMT 54.456757 -6.181748 39,000 126 492 0
2019-04-21 09:04:40 GMT 54.459686 -6.187888 39,000 126 492 64
2019-04-21 09:04:37 GMT 54.468910 -6.209939 39,000 126 492 0
2019-04-21 09:04:34 GMT 54.468910 -6.209939 39,000 126 492 0
2019-04-21 09:04:31 GMT 54.475113 -6.225532 39,000 126 492 0
2019-04-21 09:04:25 GMT 54.480194 -6.237972 39,000 126 492 -64
2019-04-21 09:04:21 GMT 54.486465 -6.250574 39,000 126 492 -64
2019-04-21 09:04:18 GMT 54.489719 -6.260126 39,025 126 492 -64
2019-04-21 09:04:14 GMT 54.499924 -6.282160 39,000 126 492 64
2019-04-21 09:04:11 GMT 54.499924 -6.282160 39,000 126 492 64
2019-04-21 09:04:08 GMT 54.503265 -6.291504 39,000 126 492 64
2019-04-21 09:04:03 GMT 54.510086 -6.307364 39,000 126 492 0
2019-04-21 09:04:00 GMT 54.514069 -6.316556 39,000 126 492 0
2019-04-21 09:03:57 GMT 54.516907 -6.322882 39,000 126 492 -64
2019-04-21 09:03:54 GMT 54.522167 -6.335449 39,000 126 492 0
2019-04-21 09:03:51 GMT 54.525970 -6.345008 39,000 126 492 0
2019-04-21 09:03:48 GMT 54.530266 -6.354342 39,000 126 492 64
2019-04-21 09:03:44 GMT 54.534485 -6.363831 39,000 126 492 64
2019-04-21 09:03:41 GMT 54.539612 -6.376352 39,000 126 492 0
2019-04-21 09:03:38 GMT 54.543137 -6.382734 39,000 126 492 64
2019-04-21 09:03:35 GMT 54.548767 -6.395255 39,000 126 492 0
2019-04-21 09:03:32 GMT 54.551422 -6.401717 39,000 126 492 0
2019-04-21 09:03:29 GMT 54.555683 -6.411105 39,000 126 492 0
2019-04-21 09:03:26 GMT 54.559570 -6.420459 39,000 126 492 0
2019-04-21 09:03:21 GMT 54.567627 -6.439200 39,000 126 492 64
2019-04-21 09:03:18 GMT 54.570953 -6.448891 39,000 126 492 64
2019-04-21 09:03:15 GMT 54.574444 -6.455217 39,000 126 492 64
2019-04-21 09:03:12 GMT 54.579334 -6.467785 39,000 126 492 0
2019-04-21 09:03:09 GMT 54.582779 -6.477248 39,000 126 492 0
2019-04-21 09:03:06 GMT 54.586624 -6.483388 39,000 126 492 0
2019-04-21 09:03:01 GMT 54.599579 -6.515054 39,000 126 492 -64
2019-04-21 09:02:56 GMT 54.599579 -6.515054 39,000 126 492 -64
2019-04-21 09:02:53 GMT 54.610943 -6.543274 39,000 126 492 0
2019-04-21 09:02:49 GMT 54.613495 -6.546478 39,000 126 492 0
2019-04-21 09:02:43 GMT 54.618027 -6.559323 39,000 126 492 64
2019-04-21 09:02:40 GMT 54.621883 -6.568659 39,000 126 492 64
2019-04-21 09:02:37 GMT 54.625278 -6.574818 39,000 126 491 64
2019-04-21 09:02:34 GMT 54.629242 -6.584365 39,000 126 492 64
2019-04-21 09:02:30 GMT 54.634918 -6.597209 39,000 126 492 -64
2019-04-21 09:02:27 GMT 54.640549 -6.613020 39,000 126 492 0
2019-04-21 09:02:22 GMT 54.645538 -6.622575 39,000 126 493 0
2019-04-21 09:02:19 GMT 54.648834 -6.631997 39,000 126 493 -64
2019-04-21 09:02:16 GMT 54.654003 -6.644481 39,000 126 493 -64
2019-04-21 09:02:13 GMT 54.662010 -6.663624 39,000 126 493 64
2019-04-21 09:02:10 GMT 54.662010 -6.663624 39,000 126 493 64
2019-04-21 09:02:07 GMT 54.666000 -6.673063 39,000 126 493 64
2019-04-21 09:02:04 GMT 54.670715 -6.682601 39,000 126 494 0
2019-04-21 09:01:59 GMT 54.676758 -6.698429 39,000 126 494 64
2019-04-21 09:01:56 GMT 54.680191 -6.704972 39,000 126 494 64
2019-04-21 09:01:53 GMT 54.685043 -6.717736 39,000 126 494 64
2019-04-21 09:01:49 GMT 54.690308 -6.730580 39,000 126 495 64
2019-04-21 09:01:46 GMT 54.694969 -6.739946 39,000 126 495 0
2019-04-21 09:01:43 GMT 54.698181 -6.746271 39,000 126 495 0
2019-04-21 09:01:40 GMT 54.703068 -6.759089 39,000 126 495 64
2019-04-21 09:01:34 GMT 54.710518 -6.778398 39,000 126 496 -64
2019-04-21 09:01:31 GMT 54.714054 -6.784807 39,000 126 496 0
2019-04-21 09:01:28 GMT 54.718758 -6.797541 39,000 126 496 -64
2019-04-21 09:01:25 GMT 54.722992 -6.807000 39,000 126 496 -64
2019-04-21 09:01:22 GMT 54.730911 -6.826307 39,000 126 495 64
2019-04-21 09:01:19 GMT 54.730911 -6.826307 39,000 126 496 64
2019-04-21 09:01:15 GMT 54.739655 -6.845371 39,000 126 496 0
2019-04-21 09:01:12 GMT 54.744461 -6.858054 39,000 126 496 0
2019-04-21 09:01:09 GMT 54.744461 -6.858054 39,000 126 496 0
2019-04-21 09:01:05 GMT 54.750000 -6.870979 39,000 125 496 64
2019-04-21 09:01:01 GMT 54.755630 -6.883985 39,000 125 496 0
2019-04-21 09:00:58 GMT 54.758102 -6.890286 39,000 125 496 0
2019-04-21 09:00:55 GMT 54.763412 -6.903130 39,000 125 496 64
2019-04-21 09:00:51 GMT 54.767776 -6.912731 39,000 125 496 128
2019-04-21 09:00:48 GMT 54.772430 -6.922437 39,000 125 497 0
2019-04-21 09:00:45 GMT 54.778156 -6.938366 39,000 125 497 0
2019-04-21 09:00:42 GMT 54.781555 -6.944941 39,000 125 497 0
2019-04-21 09:00:38 GMT 54.785065 -6.954588 39,000 125 496 0
2019-04-21 09:00:35 GMT 54.789658 -6.964250 39,000 125 497 -64
2019-04-21 09:00:32 GMT 54.793442 -6.973976 39,000 125 497 -64
2019-04-21 09:00:28 GMT 54.799572 -6.989885 39,000 125 497 0
2019-04-21 09:00:25 GMT 54.803558 -6.999503 39,000 125 497 0
2019-04-21 09:00:21 GMT 54.809921 -7.012428 39,000 125 497 -64
2019-04-21 09:00:18 GMT 54.812119 -7.019052 39,000 125 497 -64
2019-04-21 09:00:15 GMT 54.817749 -7.031735 39,000 125 497 -64
2019-04-21 09:00:11 GMT 54.822601 -7.044741 39,000 125 497 0
2019-04-21 09:00:08 GMT 54.826218 -7.051122 39,000 125 497 64
2019-04-21 09:00:05 GMT 54.830475 -7.064209 39,000 125 497 64
2019-04-21 09:00:02 GMT 54.833862 -7.070591 39,000 125 497 64
2019-04-21 08:59:58 GMT 54.839813 -7.083597 39,000 125 498 0
2019-04-21 08:59:55 GMT 54.843750 -7.093006 39,000 125 497 64
2019-04-21 08:59:52 GMT 54.847687 -7.102742 39,000 125 498 0
2019-04-21 08:59:48 GMT 54.853271 -7.115829 39,000 125 497 0
2019-04-21 08:59:45 GMT 54.857346 -7.128511 39,000 125 497 -64
2019-04-21 08:59:42 GMT 54.866592 -7.148141 39,000 125 498 0
2019-04-21 08:59:38 GMT 54.866592 -7.148141 39,000 125 498 0
2019-04-21 08:59:35 GMT 54.871216 -7.160986 39,000 125 498 128
2019-04-21 08:59:32 GMT 54.875404 -7.170743 39,000 125 498 0
2019-04-21 08:59:27 GMT 54.881836 -7.186917 39,000 125 498 64
2019-04-21 08:59:24 GMT 54.886486 -7.196794 39,000 125 498 -64
2019-04-21 08:59:20 GMT 54.890488 -7.206385 39,000 125 498 64
2019-04-21 08:59:17 GMT 54.894539 -7.216103 39,000 125 498 128
2019-04-21 08:59:14 GMT 54.899288 -7.229254 39,000 125 498 0
2019-04-21 08:59:11 GMT 54.903259 -7.238859 39,000 125 498 0
2019-04-21 08:59:08 GMT 54.907665 -7.248480 39,000 125 499 0
2019-04-21 08:59:05 GMT 54.911270 -7.258247 39,000 125 498 0
2019-04-21 08:59:01 GMT 54.917313 -7.271172 39,000 125 498 -64
2019-04-21 08:58:56 GMT 54.922897 -7.284259 39,000 125 499 64
2019-04-21 08:58:52 GMT 54.929871 -7.300665 39,000 125 499 0
2019-04-21 08:58:46 GMT 54.936218 -7.316895 39,000 125 499 0
2019-04-21 08:58:43 GMT 54.940487 -7.326632 39,000 125 499 0
2019-04-21 08:58:39 GMT 54.945885 -7.339616 39,000 125 499 0
2019-04-21 08:58:36 GMT 54.950401 -7.352600 39,000 125 499 0
2019-04-21 08:58:32 GMT 54.955078 -7.362536 39,000 125 499 64
2019-04-21 08:58:29 GMT 54.965012 -7.388386 39,000 125 500 0
2019-04-21 08:58:25 GMT 54.965012 -7.388386 39,000 125 500 64
2019-04-21 08:58:21 GMT 54.973709 -7.408178 39,000 125 499 64
2019-04-21 08:58:18 GMT 54.973709 -7.408178 39,000 125 500 -64
2019-04-21 08:58:15 GMT 54.977776 -7.418102 39,000 125 500 -64
2019-04-21 08:58:11 GMT 54.983315 -7.430836 39,000 125 500 -64
2019-04-21 08:58:08 GMT 54.987717 -7.440895 39,000 125 500 -64
2019-04-21 08:58:05 GMT 54.991928 -7.453739 39,000 125 500 0
2019-04-21 08:58:01 GMT 54.996765 -7.463629 39,000 125 500 0
2019-04-21 08:57:57 GMT 55.001656 -7.476862 39,000 125 500 -64
2019-04-21 08:57:54 GMT 55.005798 -7.486536 39,000 125 500 64
2019-04-21 08:57:51 GMT 55.009708 -7.496504 39,000 125 501 0
2019-04-21 08:57:48 GMT 55.014587 -7.506328 39,000 125 501 64
2019-04-21 08:57:44 GMT 55.019028 -7.519172 39,000 125 501 64
2019-04-21 08:57:41 GMT 55.023861 -7.529297 39,000 125 501 64
2019-04-21 08:57:38 GMT 55.028610 -7.542197 39,000 125 501 64
2019-04-21 08:57:35 GMT 55.032532 -7.552131 39,000 125 501 64
2019-04-21 08:57:32 GMT 55.035965 -7.558836 39,000 125 501 0
2019-04-21 08:57:29 GMT 55.040588 -7.571761 39,000 125 501 0
2019-04-21 08:57:26 GMT 55.044392 -7.581815 39,000 125 501 0
2019-04-21 08:57:23 GMT 55.052078 -7.598258 39,000 125 501 -64
2019-04-21 08:57:20 GMT 55.052078 -7.598258 39,000 125 501 -64
2019-04-21 08:57:17 GMT 55.056702 -7.611183 39,000 125 501 0
2019-04-21 08:57:14 GMT 55.060226 -7.617888 39,000 125 501 0
2019-04-21 08:57:10 GMT 55.064987 -7.631217 39,000 125 501 0
2019-04-21 08:57:07 GMT 55.069702 -7.644142 39,000 125 502 -64
2019-04-21 08:57:04 GMT 55.074554 -7.654058 39,000 125 502 64
2019-04-21 08:57:00 GMT 55.079041 -7.664014 39,000 125 502 64
2019-04-21 08:56:56 GMT 55.083801 -7.677101 39,000 125 502 64
2019-04-21 08:56:53 GMT 55.088516 -7.690268 39,000 125 502 0
2019-04-21 08:56:50 GMT 55.099548 -7.716926 39,000 125 503 128
2019-04-21 08:56:46 GMT 55.099548 -7.716926 39,000 125 502 0
2019-04-21 08:56:43 GMT 55.102844 -7.723389 39,000 125 502 0
2019-04-21 08:56:39 GMT 55.107925 -7.736637 39,000 125 502 64
2019-04-21 08:56:36 GMT 55.111378 -7.746776 39,000 125 502 64
2019-04-21 08:56:32 GMT 55.116302 -7.756509 39,000 125 502 0
2019-04-21 08:56:29 GMT 55.120834 -7.769677 39,000 125 503 0
2019-04-21 08:56:26 GMT 55.124741 -7.779652 39,000 125 503 0
2019-04-21 08:56:23 GMT 55.129028 -7.789549 39,000 125 503 0
2019-04-21 08:56:20 GMT 55.132980 -7.799710 39,000 125 503 0
2019-04-21 08:56:17 GMT 55.136703 -7.806202 39,000 125 503 0
2019-04-21 08:56:14 GMT 55.141220 -7.819353 39,000 125 503 64
2019-04-21 08:56:11 GMT 55.144711 -7.826094 39,000 125 503 64
2019-04-21 08:56:08 GMT 55.148026 -7.835837 39,000 125 503 0
2019-04-21 08:56:04 GMT 55.155670 -7.855790 39,000 125 503 -64
2019-04-21 08:56:01 GMT 55.158554 -7.862657 39,000 125 503 0
2019-04-21 08:55:58 GMT 55.162773 -7.872453 39,000 125 503 64
2019-04-21 08:55:53 GMT 55.169083 -7.889153 39,000 125 503 64
2019-04-21 08:55:50 GMT 55.172791 -7.895696 39,000 125 503 64
2019-04-21 08:55:46 GMT 55.179394 -7.912487 39,000 125 503 0
2019-04-21 08:55:43 GMT 55.182541 -7.922597 39,000 125 503 -64
2019-04-21 08:55:40 GMT 55.186066 -7.928978 39,000 125 503 -64
2019-04-21 08:55:37 GMT 55.190098 -7.939120 39,000 124 504 64
2019-04-21 08:55:33 GMT 55.196686 -7.955879 39,000 124 504 0
2019-04-21 08:55:29 GMT 55.200108 -7.965754 39,000 124 504 0
2019-04-21 08:55:25 GMT 55.206112 -7.979070 39,000 125 503 64
2019-04-21 08:55:22 GMT 55.211281 -7.992470 39,000 124 504 -64
2019-04-21 08:55:18 GMT 55.215179 -8.002409 39,000 124 504 0
2019-04-21 08:55:15 GMT 55.219288 -8.012279 39,000 125 503 64
2019-04-21 08:55:12 GMT 55.223465 -8.022362 39,000 125 503 0
2019-04-21 08:55:09 GMT 55.228088 -8.035853 39,000 125 503 64
2019-04-21 08:55:06 GMT 55.232136 -8.045571 39,000 125 504 0
2019-04-21 08:55:02 GMT 55.236237 -8.055806 39,000 125 504 0
2019-04-21 08:54:58 GMT 55.241638 -8.068893 39,000 124 504 64
2019-04-21 08:54:55 GMT 55.245869 -8.079196 39,000 124 504 0
2019-04-21 08:54:51 GMT 55.252075 -8.095712 39,000 124 504 0
2019-04-21 08:54:48 GMT 55.255005 -8.102579 39,000 124 504 64
2019-04-21 08:54:44 GMT 55.260361 -8.115665 39,000 124 504 -64
2019-04-21 08:54:41 GMT 55.265717 -8.129075 39,000 124 504 64
2019-04-21 08:54:37 GMT 55.270706 -8.142485 39,000 124 505 0
2019-04-21 08:54:33 GMT 55.276566 -8.155814 39,000 124 504 0
2019-04-21 08:54:30 GMT 55.279724 -8.162438 39,000 124 504 -128
2019-04-21 08:54:27 GMT 55.283157 -8.172746 39,000 124 504 0
2019-04-21 08:54:23 GMT 55.288742 -8.186063 39,000 124 504 0
2019-04-21 08:54:20 GMT 55.293816 -8.199463 39,000 124 504 -64
2019-04-21 08:54:17 GMT 55.296425 -8.206121 39,000 124 504 -64
2019-04-21 08:54:14 GMT 55.300690 -8.216077 39,025 124 504 64
2019-04-21 08:54:11 GMT 55.304619 -8.226013 39,000 124 504 128
2019-04-21 08:54:08 GMT 55.309692 -8.239663 39,000 124 504 0
2019-04-21 08:54:04 GMT 55.314194 -8.249682 39,000 124 504 0
2019-04-21 08:54:01 GMT 55.317654 -8.259721 39,000 124 504 -64
2019-04-21 08:53:57 GMT 55.324539 -8.276259 39,000 124 504 -64
2019-04-21 08:53:51 GMT 55.330967 -8.293263 39,000 124 504 64
2019-04-21 08:53:47 GMT 55.336971 -8.306580 39,000 124 504 0
2019-04-21 08:53:44 GMT 55.341255 -8.319980 39,000 124 504 -64
2019-04-21 08:53:41 GMT 55.344280 -8.326638 39,000 124 504 -64
2019-04-21 08:53:38 GMT 55.349495 -8.340121 39,000 124 505 0
2019-04-21 08:53:34 GMT 55.354568 -8.353604 39,000 124 504 0
2019-04-21 08:53:31 GMT 55.358200 -8.360429 39,000 124 505 0
2019-04-21 08:53:27 GMT 55.363861 -8.377075 39,000 124 504 0
2019-04-21 08:53:24 GMT 55.368069 -8.387312 39,000 124 504 64
2019-04-21 08:53:21 GMT 55.371559 -8.393971 39,000 124 505 0
2019-04-21 08:53:18 GMT 55.375980 -8.407371 39,000 124 505 -64
2019-04-21 08:53:14 GMT 55.382584 -8.424252 39,000 124 505 64
2019-04-21 08:53:11 GMT 55.385239 -8.430957 39,000 124 505 64
2019-04-21 08:53:08 GMT 55.389156 -8.440912 39,000 124 505 64
2019-04-21 08:53:05 GMT 55.397675 -8.461137 39,000 124 504 0
2019-04-21 08:52:58 GMT 55.403400 -8.474537 39,000 124 504 0
2019-04-21 08:52:53 GMT 55.408802 -8.488020 39,000 124 504 0
2019-04-21 08:52:50 GMT 55.412750 -8.498167 39,000 123 504 0
2019-04-21 08:52:47 GMT 55.416870 -8.508669 39,000 123 505 0
2019-04-21 08:52:43 GMT 55.422272 -8.525633 39,000 123 505 0
2019-04-21 08:52:40 GMT 55.425659 -8.532176 39,000 123 505 0
2019-04-21 08:52:36 GMT 55.430237 -8.546232 39,000 122 505 -64
2019-04-21 08:52:33 GMT 55.435867 -8.559884 39,000 122 504 64
2019-04-21 08:52:30 GMT 55.438595 -8.570085 39,000 122 505 0
2019-04-21 08:52:27 GMT 55.442459 -8.580484 39,000 122 504 0
2019-04-21 08:52:24 GMT 55.447254 -8.591137 39,000 121 504 0
2019-04-21 08:52:20 GMT 55.450836 -8.601629 39,000 121 505 64
2019-04-21 08:52:16 GMT 55.456051 -8.619032 39,000 121 504 0
2019-04-21 08:52:12 GMT 55.460632 -8.629594 39,000 120 504 64
2019-04-21 08:52:09 GMT 55.464104 -8.640232 39,000 120 504 0
2019-04-21 08:52:06 GMT 55.467876 -8.654308 39,000 120 504 0
2019-04-21 08:52:03 GMT 55.471344 -8.664717 39,000 120 504 0
2019-04-21 08:52:00 GMT 55.479218 -8.686191 39,000 120 504 64
2019-04-21 08:51:57 GMT 55.479218 -8.686191 39,000 120 504 0
2019-04-21 08:51:54 GMT 55.482864 -8.696795 39,000 120 504 0
2019-04-21 08:51:51 GMT 55.486450 -8.707164 39,000 120 503 64
2019-04-21 08:51:48 GMT 55.488235 -8.714405 39,000 120 503 64
2019-04-21 08:51:45 GMT 55.491943 -8.724861 39,000 120 503 0
2019-04-21 08:51:42 GMT 55.496365 -8.739281 39,000 120 503 0
2019-04-21 08:51:38 GMT 55.500458 -8.749778 39,000 120 502 -64
2019-04-21 08:51:34 GMT 55.505585 -8.767347 39,000 120 502 0
2019-04-21 08:51:31 GMT 55.512039 -8.785067 39,000 120 502 0
2019-04-21 08:51:28 GMT 55.512039 -8.785067 39,000 120 502 0
2019-04-21 08:51:24 GMT 55.520153 -8.809662 39,000 120 502 64
2019-04-21 08:51:18 GMT 55.524204 -8.823824 39,000 120 502 64
2019-04-21 08:51:15 GMT 55.528381 -8.834589 39,000 120 502 128
2019-04-21 08:51:11 GMT 55.537170 -8.862887 39,000 120 501 64
2019-04-21 08:51:07 GMT 55.537170 -8.862887 39,000 120 501 64
2019-04-21 08:51:03 GMT 55.541195 -8.873262 39,000 120 501 0
2019-04-21 08:51:00 GMT 55.545181 -8.883944 39,000 120 500 0
2019-04-21 08:50:56 GMT 55.549393 -8.898093 39,000 120 500 0
2019-04-21 08:50:53 GMT 55.553207 -8.908539 39,000 120 500 0
2019-04-21 08:50:50 GMT 55.557674 -8.922529 39,000 120 500 0
2019-04-21 08:50:43 GMT 55.565369 -8.947366 39,000 120 500 64
2019-04-21 08:50:38 GMT 55.570084 -8.961265 39,000 120 500 0
2019-04-21 08:50:35 GMT 55.574478 -8.975580 39,000 120 500 0
2019-04-21 08:50:32 GMT 55.578018 -8.985958 39,000 120 500 0
2019-04-21 08:50:29 GMT 55.580997 -8.993254 39,000 120 500 0
2019-04-21 08:50:22 GMT 55.589264 -9.017695 39,000 120 500 0
2019-04-21 08:50:18 GMT 55.593430 -9.031844 39,000 120 500 0
2019-04-21 08:50:14 GMT 55.597916 -9.046159 39,000 120 499 64
2019-04-21 08:50:11 GMT 55.601295 -9.056854 39,000 120 499 64
2019-04-21 08:50:08 GMT 55.604965 -9.067300 39,000 120 499 0
2019-04-21 08:50:03 GMT 55.610603 -9.085007 39,000 120 500 0
2019-04-21 08:50:00 GMT 55.617680 -9.106207 39,000 120 500 0
2019-04-21 08:49:57 GMT 55.617680 -9.106207 39,000 120 500 0
2019-04-21 08:49:51 GMT 55.625977 -9.130804 39,000 119 500 0
2019-04-21 08:49:48 GMT 55.633415 -9.155817 39,000 119 500 0
2019-04-21 08:49:44 GMT 55.633415 -9.155817 39,000 119 501 -64
2019-04-21 08:49:41 GMT 55.635929 -9.162683 39,000 119 501 -64
2019-04-21 08:49:37 GMT 55.641331 -9.176931 39,000 119 501 0
2019-04-21 08:49:34 GMT 55.645100 -9.191351 39,000 119 501 0
2019-04-21 08:49:30 GMT 55.649094 -9.201799 39,000 119 501 0
2019-04-21 08:49:27 GMT 55.652222 -9.212551 39,000 119 501 0
2019-04-21 08:49:21 GMT 55.663860 -9.247828 39,000 119 501 0
2019-04-21 08:49:18 GMT 55.663860 -9.247828 39,000 119 501 0
2019-04-21 08:49:14 GMT 55.669075 -9.262161 39,000 119 501 0
2019-04-21 08:49:09 GMT 55.673729 -9.276495 39,000 119 501 0
2019-04-21 08:49:06 GMT 55.677246 -9.287276 39,000 119 502 0
2019-04-21 08:49:03 GMT 55.680725 -9.301342 39,000 119 502 0
2019-04-21 08:48:59 GMT 55.685394 -9.315657 39,000 119 502 0
2019-04-21 08:48:56 GMT 55.688644 -9.322898 39,000 119 502 0
2019-04-21 08:48:53 GMT 55.692070 -9.333487 39,000 119 502 0
2019-04-21 08:48:49 GMT 55.696819 -9.347734 39,000 119 502 0
2019-04-21 08:48:46 GMT 55.700405 -9.362068 39,000 119 502 64
2019-04-21 08:48:41 GMT 55.709152 -9.386985 39,000 119 502 128
2019-04-21 08:48:38 GMT 55.709152 -9.386985 39,000 119 502 0
2019-04-21 08:48:32 GMT 55.716110 -9.408458 39,000 119 502 -64
2019-04-21 08:48:29 GMT 55.719585 -9.418888 39,000 119 502 -64
2019-04-21 08:48:25 GMT 55.724426 -9.433222 39,000 119 503 0
2019-04-21 08:48:20 GMT 55.730522 -9.454937 39,000 119 503 64
2019-04-21 08:48:15 GMT 55.735645 -9.469013 39,000 119 503 0
2019-04-21 08:48:08 GMT 55.745003 -9.497681 39,000 119 502 64
2019-04-21 08:48:05 GMT 55.748383 -9.508584 39,000 119 502 0
2019-04-21 08:48:02 GMT 55.750717 -9.515409 39,000 119 502 0
2019-04-21 08:47:57 GMT 55.756638 -9.533472 39,000 119 502 0
2019-04-21 08:47:54 GMT 55.759872 -9.544373 39,000 119 502 -64
2019-04-21 08:47:48 GMT 55.766418 -9.565763 39,000 119 502 0
2019-04-21 08:47:44 GMT 55.771908 -9.583511 39,000 119 502 0
2019-04-21 08:47:38 GMT 55.783314 -9.619560 39,000 119 503 0
2019-04-21 08:47:34 GMT 55.783314 -9.619560 39,000 119 503 0
2019-04-21 08:47:28 GMT 55.796036 -9.658813 39,000 119 503 0
2019-04-21 08:47:23 GMT 55.796036 -9.658813 39,000 119 503 64
2019-04-21 08:47:18 GMT 55.801437 -9.673129 39,000 119 503 0
2019-04-21 08:47:13 GMT 55.807892 -9.694769 39,000 119 503 0
2019-04-21 08:47:07 GMT 55.813618 -9.712601 39,000 119 503 0
2019-04-21 08:47:04 GMT 55.816956 -9.723483 39,000 119 503 0
2019-04-21 08:47:01 GMT 55.820324 -9.734316 39,000 119 504 0
2019-04-21 08:46:58 GMT 55.825069 -9.748821 39,000 119 504 0
2019-04-21 08:46:55 GMT 55.828537 -9.759438 39,000 119 504 -64
2019-04-21 08:46:52 GMT 55.832100 -9.770365 39,000 119 504 0
2019-04-21 08:46:48 GMT 55.836384 -9.784870 39,000 119 504 0
2019-04-21 08:46:44 GMT 55.840851 -9.799290 39,000 119 504 0
2019-04-21 08:46:40 GMT 55.844513 -9.810042 39,000 119 505 64
2019-04-21 08:46:37 GMT 55.848068 -9.820919 39,000 119 505 0
2019-04-21 08:46:34 GMT 55.851883 -9.831432 39,000 119 505 0
2019-04-21 08:46:28 GMT 55.859009 -9.856882 39,000 119 505 0
2019-04-21 08:46:24 GMT 55.863663 -9.871559 39,000 119 506 64
2019-04-21 08:46:20 GMT 55.868786 -9.885893 39,000 119 505 0
2019-04-21 08:46:17 GMT 55.871437 -9.893188 39,000 119 506 0
2019-04-21 08:46:13 GMT 55.875580 -9.907780 39,000 119 506 0
2019-04-21 08:46:07 GMT 55.883102 -9.933056 39,000 119 506 64
2019-04-21 08:46:03 GMT 55.887405 -9.944000 39,000 119 506 0
2019-04-21 08:45:56 GMT 55.895142 -9.969344 39,000 119 506 0
2019-04-21 08:45:52 GMT 55.899399 -9.983992 39,000 119 506 0
2019-04-21 08:45:46 GMT 55.907234 -10.009489 39,000 119 506 0
2019-04-21 08:45:43 GMT 55.910568 -10.020114 39,000 119 506 0
2019-04-21 08:45:37 GMT 55.922470 -10.056485 39,000 119 507 0
2019-04-21 08:45:32 GMT 55.922470 -10.056485 39,000 119 507 0
2019-04-21 08:45:27 GMT 55.928741 -10.074892 39,000 119 508 0
2019-04-21 08:45:23 GMT 55.934189 -10.092940 39,000 119 507 0
2019-04-21 08:45:15 GMT 55.942009 -10.118580 39,000 119 507 -64
2019-04-21 08:45:12 GMT 55.945496 -10.129311 39,000 119 507 0
2019-04-21 08:45:05 GMT 55.953323 -10.155144 39,000 119 508 0
2019-04-21 08:45:01 GMT 55.957886 -10.169563 39,000 119 508 0
2019-04-21 08:44:55 GMT 55.965382 -10.191708 39,000 119 508 -64
2019-04-21 08:44:50 GMT 55.971039 -10.209711 39,000 119 509 0
2019-04-21 08:44:45 GMT 55.977310 -10.232017 39,000 119 508 0
2019-04-21 08:44:41 GMT 55.981255 -10.242863 39,000 119 508 64
2019-04-21 08:44:32 GMT 55.992752 -10.279341 39,000 119 510 64
2019-04-21 08:44:23 GMT 56.001366 -10.308867 39,000 119 510 64
2019-04-21 08:44:19 GMT 56.006065 -10.323629 39,000 118 509 0
2019-04-21 08:44:14 GMT 56.012535 -10.345602 39,000 118 510 0
2019-04-21 08:44:07 GMT 56.019566 -10.367918 39,000 118 510 0
2019-04-21 08:44:03 GMT 56.025467 -10.386158 39,000 119 510 0
2019-04-21 08:43:53 GMT 56.037231 -10.422946 39,000 118 510 -64
2019-04-21 08:43:43 GMT 56.048676 -10.459983 39,000 118 510 64
2019-04-21 08:43:39 GMT 56.051872 -10.471087 39,000 118 510 64
2019-04-21 08:43:32 GMT 56.059937 -10.496937 39,000 118 511 64
2019-04-21 08:43:29 GMT 56.063278 -10.507822 39,000 118 511 64
2019-04-21 08:43:23 GMT 56.069702 -10.530052 39,000 118 510 0
2019-04-21 08:43:20 GMT 56.073761 -10.541049 39,000 118 510 0
2019-04-21 08:43:13 GMT 56.081341 -10.566874 39,025 118 509 64
2019-04-21 08:43:09 GMT 56.086227 -10.581636 39,000 118 509 64
2019-04-21 08:43:03 GMT 56.093216 -10.607383 39,000 118 508 64
2019-04-21 08:42:59 GMT 56.096985 -10.618544 39,000 118 507 0
2019-04-21 08:42:53 GMT 56.108204 -10.655451 39,000 118 507 -64
2019-04-21 08:42:43 GMT 56.115967 -10.681125 39,000 118 507 -64
2019-04-21 08:42:30 GMT 56.131199 -10.728836 39,000 118 506 0
2019-04-21 08:42:19 GMT 56.143204 -10.769431 39,000 118 505 64
2019-04-21 08:42:12 GMT 56.150482 -10.791154 39,000 118 505 0
2019-04-21 08:42:09 GMT 56.154057 -10.802307 39,000 118 505 0
2019-04-21 08:42:04 GMT 56.159592 -10.820451 39,000 118 503 0
2019-04-21 08:42:01 GMT 56.162296 -10.831490 39,000 118 503 0
2019-04-21 08:41:58 GMT 56.166183 -10.842424 39,000 118 503 64
2019-04-21 08:41:51 GMT 56.174122 -10.868053 39,000 118 503 0
2019-04-21 08:41:47 GMT 56.177567 -10.882645 39,000 118 502 0
2019-04-21 08:41:41 GMT 56.184689 -10.904617 39,000 118 502 64
2019-04-21 08:41:38 GMT 56.188522 -10.915416 39,000 118 501 64
2019-04-21 08:41:30 GMT 56.201157 -10.959278 39,000 118 500 0
2019-04-21 08:41:21 GMT 56.207474 -10.981085 39,000 118 499 128
2019-04-21 08:41:16 GMT 56.212097 -10.995650 39,000 118 499 0
2019-04-21 08:41:10 GMT 56.218643 -11.017789 39,000 117 500 -64
2019-04-21 08:41:06 GMT 56.224770 -11.035938 39,000 117 500 0
2019-04-21 08:41:00 GMT 56.229218 -11.054493 39,000 116 500 64
2019-04-21 08:40:56 GMT 56.234451 -11.073103 39,000 115 500 0
2019-04-21 08:40:50 GMT 56.239746 -11.091863 39,000 114 501 64
2019-04-21 08:40:46 GMT 56.244598 -11.110697 39,000 114 501 0
2019-04-21 08:40:40 GMT 56.249359 -11.129899 39,000 113 501 0
2019-04-21 08:40:35 GMT 56.254761 -11.152871 39,000 112 502 0
2019-04-21 08:40:30 GMT 56.258797 -11.172237 39,000 111 503 0
2019-04-21 08:40:25 GMT 56.263412 -11.191739 39,000 111 502 0
2019-04-21 08:40:20 GMT 56.267132 -11.211205 39,000 111 502 0
2019-04-21 08:40:15 GMT 56.271790 -11.230441 39,000 111 502 0
2019-04-21 08:40:09 GMT 56.275928 -11.250000 39,000 111 501 0
2019-04-21 08:40:03 GMT 56.281906 -11.277050 39,000 111 501 0
2019-04-21 08:39:59 GMT 56.284451 -11.288710 39,000 110 501 64
2019-04-21 08:39:54 GMT 56.289009 -11.312313 39,000 110 500 64
2019-04-21 08:39:49 GMT 56.293030 -11.331565 39,000 110 500 64
2019-04-21 08:39:43 GMT 56.298157 -11.354703 39,000 110 500 64
2019-04-21 08:39:40 GMT 56.300308 -11.362527 39,000 110 500 0
2019-04-21 08:39:28 GMT 56.309692 -11.409052 39,000 110 500 0
2019-04-21 08:39:19 GMT 56.322109 -11.467409 39,000 110 499 64
2019-04-21 08:39:07 GMT 56.327591 -11.494446 39,000 110 499 64
2019-04-21 08:39:03 GMT 56.331345 -11.510176 39,000 110 499 64
2019-04-21 08:38:58 GMT 56.334320 -11.525491 39,000 110 499 -64
2019-04-21 08:38:51 GMT 56.340450 -11.552467 39,000 110 498 0
2019-04-21 08:38:46 GMT 56.344620 -11.571849 39,000 110 497 64
2019-04-21 08:38:41 GMT 56.348923 -11.594987 39,000 110 496 64
2019-04-21 08:38:38 GMT 56.351349 -11.606889 39,000 110 494 64
2019-04-21 08:38:31 GMT 56.356930 -11.629887 39,000 110 494 0
2019-04-21 08:38:25 GMT 56.361786 -11.656577 39,000 110 492 0
2019-04-21 08:38:17 GMT 56.367916 -11.683359 39,000 110 492 0
2019-04-21 08:38:11 GMT 56.374153 -11.714258 39,000 110 491 0
2019-04-21 08:38:07 GMT 56.376251 -11.721983 39,000 110 491 0
2019-04-21 08:38:00 GMT 56.382442 -11.752367 39,000 110 492 0
2019-04-21 08:37:56 GMT 56.390495 -11.790819 39,000 110 493 0
2019-04-21 08:37:50 GMT 56.390495 -11.790819 39,000 110 493 0
2019-04-21 08:37:46 GMT 56.392822 -11.802229 39,000 110 493 0
2019-04-21 08:37:38 GMT 56.399277 -11.833191 39,000 110 493 0
2019-04-21 08:37:35 GMT 56.401806 -11.844549 39,000 110 493 0
2019-04-21 08:37:29 GMT 56.407059 -11.871726 39,000 110 494 0
2019-04-21 08:37:25 GMT 56.409767 -11.883259 39,000 110 494 64
2019-04-21 08:37:19 GMT 56.415436 -11.910262 39,000 110 494 0
2019-04-21 08:37:15 GMT 56.417820 -11.921797 39,000 110 494 0
2019-04-21 08:37:08 GMT 56.424244 -11.952696 39,000 110 495 64
2019-04-21 08:37:04 GMT 56.426605 -11.964111 39,000 110 495 0
2019-04-21 08:36:57 GMT 56.432327 -11.991411 39,000 110 495 64
2019-04-21 08:36:54 GMT 56.434387 -12.003063 39,000 110 495 64
2019-04-21 08:36:47 GMT 56.440567 -12.033775 39,000 110 496 0
2019-04-21 08:36:44 GMT 56.442726 -12.045307 39,000 110 496 64
2019-04-21 08:36:37 GMT 56.448990 -12.072560 39,000 110 495 0
2019-04-21 08:36:26 GMT 56.456955 -12.111345 39,000 110 495 0
2019-04-21 08:36:15 GMT 56.465351 -12.153883 39,000 110 496 64
We lost coverage of the aircraft here for a total of 308 minutes
2019-04-21 03:28:44 GMT 47.555878 -90.802483 35,000 52 506 -64
2019-04-21 03:28:35 GMT 47.542465 -90.829605 35,000 52 506 0
2019-04-21 03:28:27 GMT 47.531204 -90.851646 35,000 52 506 -64
2019-04-21 03:28:11 GMT 47.508041 -90.895180 35,000 52 506 0
2019-04-21 03:28:06 GMT 47.501587 -90.906166 35,000 52 506 0
2019-04-21 03:27:55 GMT 47.485935 -90.936371 35,000 52 506 0
2019-04-21 03:27:45 GMT 47.471272 -90.963699 35,000 52 506 0
2019-04-21 03:27:34 GMT 47.456039 -90.993645 35,000 52 506 0
2019-04-21 03:27:23 GMT 47.439709 -91.023491 35,000 52 506 0
2019-04-21 03:27:14 GMT 47.426514 -91.048164 35,000 52 506 0
2019-04-21 03:27:03 GMT 47.411407 -91.078140 35,000 51 506 0
2019-04-21 03:26:53 GMT 47.396183 -91.105179 35,000 51 506 0
2019-04-21 03:26:40 GMT 47.377144 -91.143211 35,000 51 506 -64
2019-04-21 03:26:31 GMT 47.365318 -91.164970 35,000 51 506 0
2019-04-21 03:26:19 GMT 47.347908 -91.197655 35,000 51 506 0
2019-04-21 03:26:04 GMT 47.325237 -91.240891 35,000 51 506 0
2019-04-21 03:26:01 GMT 47.320999 -91.246384 35,000 51 506 0
2019-04-21 03:25:50 GMT 47.304802 -91.278923 35,000 51 506 0
2019-04-21 03:25:40 GMT 47.290462 -91.305962 35,000 51 506 0
2019-04-21 03:25:30 GMT 47.275845 -91.333008 35,000 51 506 0
2019-04-21 03:25:19 GMT 47.260578 -91.359840 35,000 51 506 0
2019-04-21 03:25:08 GMT 47.245239 -91.389702 35,000 51 507 -64
2019-04-21 03:24:54 GMT 47.225006 -91.427811 35,000 51 507 0
2019-04-21 03:24:47 GMT 47.214630 -91.446533 35,000 51 506 0
2019-04-21 03:24:37 GMT 47.200153 -91.473503 35,000 51 506 0
2019-04-21 03:24:27 GMT 47.184631 -91.503410 35,000 51 506 0
2019-04-21 03:24:16 GMT 47.169205 -91.530258 35,000 51 507 0
2019-04-21 03:24:06 GMT 47.154114 -91.560127 35,000 51 507 0
2019-04-21 03:23:56 GMT 47.139587 -91.587105 35,000 51 507 0
2019-04-21 03:23:45 GMT 47.124271 -91.614075 35,000 51 507 0
2019-04-21 03:23:29 GMT 47.100903 -91.657318 35,000 51 508 0
2019-04-21 03:23:24 GMT 47.093857 -91.670815 35,000 51 508 -64
2019-04-21 03:23:13 GMT 47.077999 -91.700417 35,000 51 508 0
2019-04-21 03:23:03 GMT 47.061996 -91.730141 35,000 51 508 0
2019-04-21 03:22:53 GMT 47.047787 -91.754433 35,000 51 508 0
2019-04-21 03:22:40 GMT 47.029449 -91.789330 35,000 51 508 0
2019-04-21 03:22:29 GMT 47.012733 -91.818939 35,000 51 509 0
2019-04-21 03:22:18 GMT 46.997086 -91.848793 35,000 51 508 0
2019-04-21 03:22:10 GMT 46.985458 -91.870079 35,000 51 508 0
2019-04-21 03:21:59 GMT 46.969254 -91.899788 35,000 51 508 0
2019-04-21 03:21:50 GMT 46.956207 -91.924049 35,000 51 508 0
2019-04-21 03:21:40 GMT 46.940689 -91.950829 35,000 51 508 0
2019-04-21 03:21:28 GMT 46.923248 -91.983238 35,000 51 508 0
2019-04-21 03:21:19 GMT 46.910362 -92.007332 35,000 51 508 0
2019-04-21 03:21:09 GMT 46.894913 -92.036591 35,000 51 508 0
2019-04-21 03:20:58 GMT 46.879028 -92.063438 35,000 51 508 0
2019-04-21 03:20:47 GMT 46.863953 -92.092758 35,000 51 507 0
2019-04-21 03:20:36 GMT 46.847214 -92.122101 35,000 51 506 64
2019-04-21 03:20:27 GMT 46.833252 -92.148567 35,000 50 506 0
2019-04-21 03:20:16 GMT 46.817688 -92.174889 35,000 49 505 0
2019-04-21 03:20:06 GMT 46.801712 -92.203583 35,000 49 504 0
2019-04-21 03:19:55 GMT 46.785789 -92.229195 35,000 48 504 0
2019-04-21 03:19:45 GMT 46.769730 -92.254257 35,000 47 503 0
2019-04-21 03:19:34 GMT 46.753235 -92.281944 35,000 47 503 0
2019-04-21 03:19:24 GMT 46.736572 -92.306725 35,000 47 503 0
2019-04-21 03:19:13 GMT 46.720013 -92.334114 35,000 47 503 0
2019-04-21 03:19:03 GMT 46.703255 -92.358971 35,000 47 503 0
2019-04-21 03:18:52 GMT 46.685898 -92.386513 35,000 47 503 0
2019-04-21 03:18:42 GMT 46.670654 -92.411232 35,000 47 503 0
2019-04-21 03:18:31 GMT 46.653118 -92.438759 35,000 47 504 0
2019-04-21 03:18:21 GMT 46.637383 -92.463478 35,000 47 504 -64
2019-04-21 03:18:10 GMT 46.619980 -92.490746 35,000 47 503 0
2019-04-21 03:18:06 GMT 46.611591 -92.503166 35,000 47 504 -64
2019-04-21 03:17:58 GMT 46.596973 -92.528023 35,000 47 504 0
2019-04-21 03:17:47 GMT 46.582077 -92.550301 35,000 47 503 0
2019-04-21 03:17:39 GMT 46.570534 -92.567574 35,000 47 503 -64
2019-04-21 03:17:29 GMT 46.554520 -92.592567 35,000 47 503 0
2019-04-21 03:17:18 GMT 46.537308 -92.619705 35,000 47 503 0
2019-04-21 03:17:08 GMT 46.520721 -92.646744 35,000 47 503 0
2019-04-21 03:16:57 GMT 46.504662 -92.671463 35,000 47 503 0
2019-04-21 03:16:49 GMT 46.490067 -92.693657 35,000 46 503 0
2019-04-21 03:16:45 GMT 46.485527 -92.700989 35,000 47 503 0
2019-04-21 03:16:36 GMT 46.471161 -92.723206 35,000 47 503 0
2019-04-21 03:16:24 GMT 46.451157 -92.752815 35,000 47 503 0
2019-04-21 03:16:17 GMT 46.440651 -92.770065 35,000 46 502 0
2019-04-21 03:16:12 GMT 46.432892 -92.782356 35,000 47 503 0
2019-04-21 03:16:07 GMT 46.424103 -92.796959 35,000 47 503 0
2019-04-21 03:15:57 GMT 46.407898 -92.821541 35,000 46 503 0
2019-04-21 03:15:47 GMT 46.391556 -92.846199 35,000 46 503 0
2019-04-21 03:15:41 GMT 46.382172 -92.860931 35,000 46 503 0
2019-04-21 03:15:37 GMT 46.374802 -92.870850 35,000 46 503 0
2019-04-21 03:15:30 GMT 46.364960 -92.888031 35,000 46 503 0
2019-04-21 03:15:25 GMT 46.357040 -92.900253 35,000 46 503 0
2019-04-21 03:15:20 GMT 46.348385 -92.912613 35,000 46 503 0
2019-04-21 03:15:16 GMT 46.342705 -92.922363 35,000 46 503 -64
2019-04-21 03:15:10 GMT 46.330627 -92.939514 35,000 46 504 0
2019-04-21 03:15:06 GMT 46.325363 -92.949364 35,000 46 504 0
2019-04-21 03:15:02 GMT 46.320602 -92.954453 35,000 46 504 0
2019-04-21 03:14:58 GMT 46.314880 -92.964233 35,000 46 504 0
2019-04-21 03:14:55 GMT 46.309113 -92.973877 35,000 46 504 0
2019-04-21 03:14:48 GMT 46.297970 -92.991028 35,000 46 504 0
2019-04-21 03:14:43 GMT 46.291397 -93.000938 35,000 46 504 0
2019-04-21 03:14:37 GMT 46.281162 -93.015678 35,000 46 504 0
2019-04-21 03:14:28 GMT 46.264206 -93.042679 35,000 46 503 0
2019-04-21 03:14:21 GMT 46.255142 -93.057281 35,000 46 504 0
2019-04-21 03:14:14 GMT 46.242710 -93.074455 35,000 46 503 0
2019-04-21 03:14:10 GMT 46.238525 -93.081802 35,000 46 503 0
2019-04-21 03:14:03 GMT 46.225800 -93.101494 35,000 46 503 0
2019-04-21 03:14:00 GMT 46.222046 -93.106316 35,000 46 503 0
2019-04-21 03:13:48 GMT 46.203094 -93.135658 35,000 46 504 0
2019-04-21 03:13:39 GMT 46.188293 -93.157677 35,000 46 504 0
2019-04-21 03:13:28 GMT 46.171509 -93.184563 35,000 46 504 0
2019-04-21 03:13:23 GMT 46.160686 -93.201759 35,000 46 502 0
2019-04-21 03:13:18 GMT 46.155350 -93.208946 35,000 46 502 0
2019-04-21 03:13:12 GMT 46.142670 -93.228577 35,000 46 502 0
2019-04-21 03:13:08 GMT 46.138435 -93.235748 35,000 46 502 0
2019-04-21 03:13:00 GMT 46.125492 -93.255180 35,000 46 502 0
2019-04-21 03:12:51 GMT 46.110580 -93.277138 35,000 46 502 0
2019-04-21 03:12:46 GMT 46.103943 -93.286720 35,000 46 502 -64
2019-04-21 03:12:40 GMT 46.092766 -93.303726 35,000 46 502 0
2019-04-21 03:12:29 GMT 46.075928 -93.330467 35,000 46 502 0
2019-04-21 03:12:19 GMT 46.059860 -93.354782 35,000 46 502 0
2019-04-21 03:12:09 GMT 46.042969 -93.378967 35,000 46 502 0
2019-04-21 03:11:58 GMT 46.025871 -93.405762 35,000 46 502 0
2019-04-21 03:11:47 GMT 46.009159 -93.429863 35,000 46 503 0
2019-04-21 03:11:38 GMT 45.992661 -93.456474 35,000 46 503 0
2019-04-21 03:11:27 GMT 45.976730 -93.480721 35,000 46 503 0
2019-04-21 03:11:16 GMT 45.959930 -93.505112 35,000 46 503 0
2019-04-21 03:11:06 GMT 45.943130 -93.529289 35,000 46 503 -64
2019-04-21 03:10:56 GMT 45.927063 -93.553543 35,000 46 505 0
2019-04-21 03:10:46 GMT 45.910282 -93.580238 35,000 46 504 0
2019-04-21 03:10:35 GMT 45.892639 -93.606728 35,000 46 505 0
2019-04-21 03:10:31 GMT 45.885773 -93.616310 35,000 46 504 -64
2019-04-21 03:10:25 GMT 45.876846 -93.630913 35,000 46 504 0
2019-04-21 03:10:19 GMT 45.866592 -93.645386 35,000 46 504 0
2019-04-21 03:10:14 GMT 45.859352 -93.657486 35,000 46 504 0
2019-04-21 03:10:07 GMT 45.845249 -93.676918 35,000 46 504 0
2019-04-21 03:10:03 GMT 45.841896 -93.681656 35,000 46 504 0
2019-04-21 03:09:54 GMT 45.825790 -93.705826 35,000 46 505 0
2019-04-21 03:09:48 GMT 45.814774 -93.722755 35,000 46 505 0
2019-04-21 03:09:43 GMT 45.809143 -93.732407 35,000 46 505 0
2019-04-21 03:09:32 GMT 45.791794 -93.756653 35,000 46 504 0
2019-04-21 03:09:26 GMT 45.781891 -93.773323 35,000 46 504 0
2019-04-21 03:09:23 GMT 45.776047 -93.780640 35,000 46 504 0
2019-04-21 03:09:16 GMT 45.763229 -93.799995 35,000 46 504 -64
2019-04-21 03:09:10 GMT 45.753754 -93.814400 35,000 46 504 0
2019-04-21 03:09:02 GMT 45.741951 -93.831207 35,000 46 504 0
2019-04-21 03:08:59 GMT 45.737732 -93.838448 35,000 46 504 0
2019-04-21 03:08:53 GMT 45.725655 -93.855240 35,000 46 504 0
2019-04-21 03:08:50 GMT 45.721573 -93.862495 35,000 46 504 0
2019-04-21 03:08:45 GMT 45.716019 -93.869591 35,000 46 504 -64
2019-04-21 03:08:38 GMT 45.704056 -93.888817 35,000 46 504 0
2019-04-21 03:08:34 GMT 45.696655 -93.898361 35,000 46 504 0
2019-04-21 03:08:28 GMT 45.686188 -93.915352 35,000 46 504 0
2019-04-21 03:08:23 GMT 45.678547 -93.925003 35,000 46 504 0
2019-04-21 03:08:20 GMT 45.675385 -93.929756 35,000 46 504 0
2019-04-21 03:08:17 GMT 45.670540 -93.936951 35,000 46 503 0
2019-04-21 03:08:14 GMT 45.663940 -93.948845 35,000 46 503 0
2019-04-21 03:08:10 GMT 45.657120 -93.958496 35,000 46 503 0
2019-04-21 03:08:03 GMT 45.646271 -93.972900 35,000 46 503 0
2019-04-21 03:07:58 GMT 45.640549 -93.982346 35,000 46 503 0
2019-04-21 03:07:52 GMT 45.629898 -93.999092 35,000 46 503 -64
2019-04-21 03:07:49 GMT 45.623566 -94.008705 35,000 46 503 -64
2019-04-21 03:07:45 GMT 45.618439 -94.015839 35,000 46 504 0
2019-04-21 03:07:42 GMT 45.612720 -94.023056 35,000 46 503 -64
2019-04-21 03:07:38 GMT 45.607414 -94.032600 35,000 46 503 0
2019-04-21 03:07:35 GMT 45.600895 -94.042213 35,000 46 504 0
2019-04-21 03:07:30 GMT 45.594288 -94.051758 35,000 46 504 0
2019-04-21 03:07:26 GMT 45.586838 -94.061371 35,000 46 504 0
2019-04-21 03:07:18 GMT 45.573570 -94.080460 35,000 45 503 0
2019-04-21 03:07:15 GMT 45.568542 -94.090004 35,000 45 503 0
2019-04-21 03:07:10 GMT 45.560631 -94.099480 35,000 45 503 0
2019-04-21 03:07:05 GMT 45.553391 -94.111435 35,000 45 503 0
2019-04-21 03:06:59 GMT 45.543915 -94.125893 35,000 45 503 0
2019-04-21 03:06:54 GMT 45.535210 -94.137695 35,000 45 503 0
2019-04-21 03:06:47 GMT 45.523014 -94.156921 35,000 45 503 0
2019-04-21 03:06:37 GMT 45.509144 -94.175880 35,000 45 503 0
2019-04-21 03:06:34 GMT 45.502766 -94.185257 35,000 45 503 0
2019-04-21 03:06:26 GMT 45.489822 -94.204483 35,000 45 503 0
2019-04-21 03:06:23 GMT 45.484772 -94.211685 35,000 45 503 0
2019-04-21 03:06:16 GMT 45.474930 -94.225876 35,000 45 503 0
2019-04-21 03:06:13 GMT 45.467617 -94.237778 35,000 45 503 0
2019-04-21 03:06:05 GMT 45.451511 -94.261353 35,000 45 503 0
2019-04-21 03:05:56 GMT 45.441643 -94.275627 35,000 45 502 0
2019-04-21 03:05:50 GMT 45.430069 -94.292381 35,000 45 502 0
2019-04-21 03:05:42 GMT 45.418785 -94.308922 35,000 45 502 0
2019-04-21 03:05:32 GMT 45.402584 -94.332565 35,000 45 502 0
2019-04-21 03:05:24 GMT 45.389549 -94.351593 35,000 45 502 0
2019-04-21 03:05:21 GMT 45.386292 -94.356415 35,000 45 502 0
2019-04-21 03:05:13 GMT 45.372116 -94.377594 35,000 45 503 0
2019-04-21 03:05:10 GMT 45.366413 -94.384750 35,000 45 503 0
2019-04-21 03:05:03 GMT 45.355316 -94.401329 35,000 45 502 0
2019-04-21 03:05:00 GMT 45.351791 -94.406044 35,000 45 502 0
2019-04-21 03:04:51 GMT 45.335770 -94.429848 35,000 45 502 0
2019-04-21 03:04:42 GMT 45.320389 -94.453453 35,000 45 503 0
2019-04-21 03:04:30 GMT 45.301659 -94.479340 35,000 45 502 -64
2019-04-21 03:04:18 GMT 45.284088 -94.505241 35,000 45 503 0
2019-04-21 03:04:11 GMT 45.270859 -94.524208 35,000 45 502 0
2019-04-21 03:04:08 GMT 45.267288 -94.528915 35,000 45 502 0
2019-04-21 03:03:58 GMT 45.251816 -94.552528 35,000 45 502 0
2019-04-21 03:03:48 GMT 45.234879 -94.576134 35,000 45 502 0
2019-04-21 03:03:38 GMT 45.218285 -94.601929 35,000 45 502 0
2019-04-21 03:03:28 GMT 45.202972 -94.623154 35,000 45 502 -64
2019-04-21 03:03:25 GMT 45.197113 -94.632568 35,000 45 502 -64
2019-04-21 03:03:19 GMT 45.186172 -94.646690 35,000 45 502 0
2019-04-21 03:03:16 GMT 45.183472 -94.651337 35,000 45 502 0
2019-04-21 03:03:06 GMT 45.166901 -94.674881 35,000 45 503 0
2019-04-21 03:02:55 GMT 45.148315 -94.703133 35,000 45 503 0
2019-04-21 03:02:45 GMT 45.131287 -94.726799 35,000 45 503 0
2019-04-21 03:02:34 GMT 45.114052 -94.752525 35,000 45 503 0
2019-04-21 03:02:27 GMT 45.100971 -94.773758 35,000 45 504 0
2019-04-21 03:02:24 GMT 45.096828 -94.776108 35,000 45 504 0
2019-04-21 03:02:16 GMT 45.084778 -94.792526 35,000 45 503 0
2019-04-21 03:02:13 GMT 45.079884 -94.799553 35,000 45 503 0
2019-04-21 03:02:05 GMT 45.067410 -94.818176 35,000 45 503 64
2019-04-21 03:02:02 GMT 45.062439 -94.825287 35,000 45 503 0
2019-04-21 03:01:53 GMT 45.047531 -94.846375 35,000 45 504 -64
2019-04-21 03:01:43 GMT 45.030716 -94.872108 35,000 45 504 0
2019-04-21 03:01:40 GMT 45.026505 -94.876816 35,000 45 503 0
2019-04-21 03:01:35 GMT 45.015736 -94.893333 35,000 45 504 0
2019-04-21 03:01:32 GMT 45.011360 -94.897957 35,000 45 504 0
2019-04-21 03:01:24 GMT 44.999210 -94.916718 35,000 45 504 0
2019-04-21 03:01:21 GMT 44.994370 -94.923706 35,000 45 504 0
2019-04-21 03:01:13 GMT 44.982170 -94.939964 35,000 45 504 0
2019-04-21 03:01:10 GMT 44.976490 -94.949539 35,000 45 504 0
2019-04-21 03:01:03 GMT 44.964844 -94.965950 35,000 45 504 0
2019-04-21 03:01:00 GMT 44.959499 -94.972923 35,000 45 504 0
2019-04-21 03:00:53 GMT 44.941910 -94.998711 35,000 45 504 0
2019-04-21 03:00:49 GMT 44.941910 -94.998711 35,000 45 504 0
2019-04-21 03:00:43 GMT 44.930546 -95.015121 35,000 45 504 0
2019-04-21 03:00:39 GMT 44.924652 -95.022125 35,000 45 504 64
2019-04-21 03:00:31 GMT 44.907269 -95.047813 35,000 45 504 0
2019-04-21 03:00:28 GMT 44.907269 -95.047813 35,000 45 504 0
2019-04-21 03:00:21 GMT 44.896561 -95.061882 35,000 45 504 0
2019-04-21 03:00:17 GMT 44.889858 -95.071198 35,000 45 504 0
2019-04-21 03:00:10 GMT 44.873425 -95.094574 35,000 45 504 0
2019-04-21 03:00:07 GMT 44.873425 -95.094574 35,000 45 504 0
2019-04-21 03:00:01 GMT 44.861984 -95.111000 35,000 45 505 0
2019-04-21 02:59:57 GMT 44.856125 -95.120285 35,000 45 505 0
2019-04-21 02:59:48 GMT 44.841908 -95.141197 35,000 45 505 0
2019-04-21 02:59:45 GMT 44.837765 -95.145889 35,000 45 505 0
2019-04-21 02:59:39 GMT 44.819046 -95.171745 35,000 45 506 0
2019-04-21 02:59:35 GMT 44.819046 -95.171745 35,000 45 506 0
2019-04-21 02:59:30 GMT 44.810669 -95.185745 35,000 45 506 0
2019-04-21 02:59:25 GMT 44.802979 -95.195030 35,000 45 507 0
2019-04-21 02:59:19 GMT 44.793777 -95.209221 35,000 45 507 0
2019-04-21 02:59:16 GMT 44.789749 -95.213730 35,000 45 506 0
2019-04-21 02:59:13 GMT 44.784927 -95.220787 35,000 45 507 0
2019-04-21 02:59:09 GMT 44.776337 -95.232498 35,000 45 507 0
2019-04-21 02:59:04 GMT 44.767639 -95.246498 35,000 45 506 0
2019-04-21 02:58:58 GMT 44.759140 -95.258163 35,000 45 506 0
2019-04-21 02:58:53 GMT 44.751160 -95.269905 35,000 45 507 0
2019-04-21 02:58:47 GMT 44.742195 -95.281479 35,000 45 507 -64
2019-04-21 02:58:43 GMT 44.732929 -95.295479 35,000 45 507 -64
2019-04-21 02:58:38 GMT 44.725063 -95.304924 35,000 45 507 0
2019-04-21 02:58:35 GMT 44.721451 -95.311890 35,000 45 507 -64
2019-04-21 02:58:32 GMT 44.714813 -95.321243 35,000 45 507 0
2019-04-21 02:58:27 GMT 44.708443 -95.328369 35,000 45 507 64
2019-04-21 02:58:23 GMT 44.700211 -95.339882 35,000 45 508 0
2019-04-21 02:58:20 GMT 44.696869 -95.344589 35,000 45 507 0
2019-04-21 02:58:13 GMT 44.686005 -95.360863 35,000 45 508 0
2019-04-21 02:58:06 GMT 44.673523 -95.377220 35,000 45 508 0
2019-04-21 02:58:01 GMT 44.664413 -95.391151 35,000 45 508 0
2019-04-21 02:57:56 GMT 44.656445 -95.402863 35,000 45 507 0
2019-04-21 02:57:53 GMT 44.651550 -95.409981 35,000 45 508 0
2019-04-21 02:57:46 GMT 44.638092 -95.428619 35,000 45 508 64
2019-04-21 02:57:42 GMT 44.634476 -95.433266 35,000 45 508 64
2019-04-21 02:57:35 GMT 44.621063 -95.451836 35,000 45 508 0
2019-04-21 02:57:32 GMT 44.617584 -95.456543 35,000 45 508 -64
2019-04-21 02:57:27 GMT 44.609798 -95.468178 35,000 45 508 -64
2019-04-21 02:57:24 GMT 44.604538 -95.475052 35,000 45 508 0
2019-04-21 02:57:21 GMT 44.599464 -95.482178 35,000 45 508 64
2019-04-21 02:57:18 GMT 44.592945 -95.491554 35,000 45 508 64
2019-04-21 02:57:15 GMT 44.586662 -95.500801 35,000 45 508 -64
2019-04-21 02:57:11 GMT 44.582474 -95.505554 35,000 45 508 -64
2019-04-21 02:57:06 GMT 44.574600 -95.517227 35,000 45 509 -64
2019-04-21 02:57:03 GMT 44.568420 -95.526382 35,000 45 509 -64
2019-04-21 02:57:00 GMT 44.564941 -95.531029 35,000 45 509 0
2019-04-21 02:56:56 GMT 44.557938 -95.540314 35,000 45 509 0
2019-04-21 02:56:53 GMT 44.551254 -95.549728 35,000 45 509 0
2019-04-21 02:56:50 GMT 44.547592 -95.554306 35,000 45 508 64
2019-04-21 02:56:46 GMT 44.540390 -95.566116 35,000 45 509 0
2019-04-21 02:56:39 GMT 44.529869 -95.580116 35,000 45 509 0
2019-04-21 02:56:36 GMT 44.523121 -95.589294 35,000 45 509 64
2019-04-21 02:56:33 GMT 44.517883 -95.596420 35,000 45 509 0
2019-04-21 02:56:29 GMT 44.512459 -95.603226 35,000 44 509 0
2019-04-21 02:56:25 GMT 44.505524 -95.612671 35,000 44 509 0
2019-04-21 02:56:18 GMT 44.494995 -95.628990 35,000 44 509 0
2019-04-21 02:56:15 GMT 44.488266 -95.638145 35,000 44 509 0
2019-04-21 02:56:08 GMT 44.477417 -95.652077 35,000 44 509 0
2019-04-21 02:56:04 GMT 44.470051 -95.663719 35,000 44 509 64
2019-04-21 02:55:58 GMT 44.460709 -95.675354 35,000 44 509 -64
2019-04-21 02:55:53 GMT 44.453243 -95.687103 35,000 44 509 64
2019-04-21 02:55:48 GMT 44.443375 -95.701103 35,000 44 510 -64
2019-04-21 02:55:43 GMT 44.434937 -95.712563 35,000 44 510 -64
2019-04-21 02:55:37 GMT 44.425499 -95.724213 35,000 44 509 64
2019-04-21 02:55:32 GMT 44.417175 -95.735779 35,000 44 509 64
2019-04-21 02:55:26 GMT 44.407883 -95.749840 35,000 44 509 -64
2019-04-21 02:55:22 GMT 44.400284 -95.758995 35,000 44 509 -64
2019-04-21 02:55:16 GMT 44.390350 -95.772858 35,000 44 508 0
2019-04-21 02:55:11 GMT 44.382858 -95.784637 35,000 44 508 -64
2019-04-21 02:55:05 GMT 44.372383 -95.798370 35,000 44 508 -64
2019-04-21 02:55:01 GMT 44.365215 -95.807617 35,000 44 507 -64
2019-04-21 02:54:55 GMT 44.355057 -95.823799 35,000 44 507 64
2019-04-21 02:54:51 GMT 44.348236 -95.833023 35,000 44 507 0
2019-04-21 02:54:44 GMT 44.337845 -95.846886 35,000 44 507 0
2019-04-21 02:54:40 GMT 44.330021 -95.858391 35,000 44 507 64
2019-04-21 02:54:34 GMT 44.320541 -95.869904 35,000 44 507 0
2019-04-21 02:54:29 GMT 44.312237 -95.881302 35,000 44 506 -64
2019-04-21 02:54:24 GMT 44.303513 -95.892921 35,000 44 507 -64
2019-04-21 02:54:19 GMT 44.295525 -95.904350 35,000 44 506 0
2019-04-21 02:54:13 GMT 44.285236 -95.918144 35,000 44 507 0
2019-04-21 02:54:08 GMT 44.277328 -95.929543 35,000 44 506 -64
2019-04-21 02:54:02 GMT 44.267578 -95.943405 35,000 44 506 -64
2019-04-21 02:53:59 GMT 44.260666 -95.952629 35,000 44 506 0
2019-04-21 02:53:52 GMT 44.250732 -95.966362 35,000 44 506 -64
2019-04-21 02:53:48 GMT 44.243153 -95.977631 35,000 44 506 0
2019-04-21 02:53:42 GMT 44.233238 -95.991570 35,000 44 506 0
2019-04-21 02:53:37 GMT 44.225975 -96.000610 35,000 44 506 0
2019-04-21 02:53:31 GMT 44.215733 -96.014481 35,000 44 506 0
2019-04-21 02:53:27 GMT 44.208435 -96.025871 35,000 44 506 0
2019-04-21 02:53:21 GMT 44.198837 -96.037254 35,000 44 506 0
2019-04-21 02:53:15 GMT 44.189384 -96.051109 35,000 44 506 0
2019-04-21 02:53:10 GMT 44.180832 -96.062469 35,000 44 506 64
2019-04-21 02:53:05 GMT 44.172905 -96.073936 35,000 44 506 0
2019-04-21 02:53:00 GMT 44.163803 -96.085274 35,000 44 505 0
2019-04-21 02:52:55 GMT 44.155014 -96.099136 35,000 44 505 0
2019-04-21 02:52:49 GMT 44.145393 -96.110489 35,000 44 505 0
2019-04-21 02:52:44 GMT 44.137573 -96.121880 35,000 44 505 0
2019-04-21 02:52:39 GMT 44.128777 -96.133316 35,000 44 505 0
2019-04-21 02:52:34 GMT 44.120163 -96.146851 35,000 44 504 0
2019-04-21 02:52:28 GMT 44.110611 -96.158287 35,000 44 504 0
2019-04-21 02:52:24 GMT 44.103310 -96.169670 35,000 44 505 0
2019-04-21 02:52:18 GMT 44.093903 -96.181152 35,000 44 504 0
2019-04-21 02:52:12 GMT 44.084198 -96.194695 35,000 44 505 0
2019-04-21 02:52:07 GMT 44.076405 -96.206032 35,000 44 504 -64
2019-04-21 02:52:03 GMT 44.068588 -96.215324 35,000 44 504 0
2019-04-21 02:51:57 GMT 44.059227 -96.228790 35,000 44 504 0
2019-04-21 02:51:53 GMT 44.050194 -96.242455 35,000 44 504 -64
2019-04-21 02:51:46 GMT 44.041214 -96.253777 35,000 44 504 0
2019-04-21 02:51:42 GMT 44.033436 -96.265213 35,000 44 504 0
2019-04-21 02:51:36 GMT 44.024185 -96.276451 35,000 44 504 64
2019-04-21 02:51:32 GMT 44.016071 -96.287773 35,000 44 504 0
2019-04-21 02:51:28 GMT 44.011322 -96.294655 35,000 44 504 0
2019-04-21 02:51:25 GMT 44.006016 -96.301376 35,000 44 504 0
2019-04-21 02:51:19 GMT 43.994522 -96.317268 35,000 44 504 0
2019-04-21 02:51:14 GMT 43.988205 -96.326340 35,000 44 504 0
2019-04-21 02:51:09 GMT 43.978180 -96.339943 35,000 44 504 0
2019-04-21 02:51:05 GMT 43.971680 -96.349014 35,000 44 504 0
2019-04-21 02:50:59 GMT 43.959930 -96.364746 35,000 44 504 64
2019-04-21 02:50:55 GMT 43.954971 -96.371498 35,000 44 504 0
2019-04-21 02:50:47 GMT 43.942890 -96.387436 35,000 44 504 0
2019-04-21 02:50:43 GMT 43.936420 -96.396400 35,000 44 503 0
2019-04-21 02:50:39 GMT 43.928974 -96.405418 35,000 44 503 -64
2019-04-21 02:50:36 GMT 43.924622 -96.412186 35,000 44 503 0
2019-04-21 02:50:33 GMT 43.919617 -96.418961 35,000 44 503 0
2019-04-21 02:50:26 GMT 43.908234 -96.434792 35,000 44 502 0
2019-04-21 02:50:22 GMT 43.901367 -96.443802 35,000 44 503 0
2019-04-21 02:50:19 GMT 43.894409 -96.452805 35,000 44 502 0
2019-04-21 02:50:16 GMT 43.890289 -96.459503 35,000 44 502 0
2019-04-21 02:50:13 GMT 43.885117 -96.466225 35,000 44 502 0
2019-04-21 02:50:05 GMT 43.871292 -96.484230 35,000 44 502 -64
2019-04-21 02:50:02 GMT 43.867767 -96.488770 35,000 44 502 -64
2019-04-21 02:49:54 GMT 43.853897 -96.506653 35,000 44 502 0
2019-04-21 02:49:51 GMT 43.848633 -96.515724 35,000 44 502 64
2019-04-21 02:49:45 GMT 43.837124 -96.529213 35,000 44 502 0
2019-04-21 02:49:41 GMT 43.832237 -96.535820 35,000 44 502 0
2019-04-21 02:49:36 GMT 43.824783 -96.547020 35,000 44 502 0
2019-04-21 02:49:31 GMT 43.815445 -96.560501 35,000 44 502 0
2019-04-21 02:49:27 GMT 43.807983 -96.569633 35,000 44 502 0
2019-04-21 02:49:24 GMT 43.802258 -96.576233 35,000 44 502 0
2019-04-21 02:49:16 GMT 43.790497 -96.591988 35,000 44 502 0
2019-04-21 02:49:09 GMT 43.779308 -96.607689 35,000 44 502 0
2019-04-21 02:49:05 GMT 43.772789 -96.616646 35,000 44 502 -64
2019-04-21 02:48:59 GMT 43.762547 -96.629921 35,000 44 502 0
2019-04-21 02:48:55 GMT 43.755249 -96.641296 35,000 44 502 64
2019-04-21 02:48:51 GMT 43.749420 -96.648033 35,000 44 502 0
2019-04-21 02:48:45 GMT 43.736897 -96.665955 35,000 44 502 0
2019-04-21 02:48:42 GMT 43.732384 -96.670464 35,000 44 503 0
2019-04-21 02:48:34 GMT 43.720825 -96.686073 35,000 44 503 0
2019-04-21 02:48:31 GMT 43.714279 -96.695145 35,000 44 502 0
2019-04-21 02:48:24 GMT 43.703426 -96.710815 35,000 44 502 0
2019-04-21 02:48:19 GMT 43.696072 -96.719772 35,000 44 503 0
2019-04-21 02:48:13 GMT 43.685879 -96.733177 35,000 45 503 0
2019-04-21 02:48:10 GMT 43.679871 -96.742470 35,000 45 503 0
2019-04-21 02:48:02 GMT 43.667534 -96.760971 35,000 47 504 0
2019-04-21 02:47:57 GMT 43.660229 -96.770325 35,000 47 504 0
2019-04-21 02:47:52 GMT 43.651939 -96.784775 35,000 48 504 -64
2019-04-21 02:47:49 GMT 43.645561 -96.794655 35,000 49 504 0
2019-04-21 02:47:40 GMT 43.634628 -96.811714 35,000 50 504 0
2019-04-21 02:47:37 GMT 43.630386 -96.819374 35,000 51 504 0
2019-04-21 02:47:30 GMT 43.620209 -96.837135 35,000 52 505 0
2019-04-21 02:47:27 GMT 43.614441 -96.847290 35,000 53 506 0
2019-04-21 02:47:20 GMT 43.605286 -96.862816 35,000 53 505 64
2019-04-21 02:47:16 GMT 43.600388 -96.873100 35,000 53 505 64
2019-04-21 02:47:09 GMT 43.590679 -96.890976 35,000 53 505 -64
2019-04-21 02:47:06 GMT 43.584858 -96.901443 35,000 53 506 0
2019-04-21 02:46:59 GMT 43.576527 -96.917007 35,000 53 506 0
2019-04-21 02:46:55 GMT 43.569992 -96.929756 35,000 53 506 0
2019-04-21 02:46:51 GMT 43.563446 -96.940163 35,000 53 507 -64
2019-04-21 02:46:46 GMT 43.556229 -96.952972 35,000 53 507 0
2019-04-21 02:46:38 GMT 43.546875 -96.971207 35,000 53 508 64
2019-04-21 02:46:33 GMT 43.537331 -96.989334 35,000 53 508 -64
2019-04-21 02:46:29 GMT 43.533096 -96.997078 35,000 53 508 -64
2019-04-21 02:46:25 GMT 43.526340 -97.009995 35,000 53 508 0
2019-04-21 02:46:17 GMT 43.516846 -97.025558 35,000 53 508 -64
2019-04-21 02:46:13 GMT 43.510849 -97.038406 35,000 53 508 0
2019-04-21 02:46:07 GMT 43.502197 -97.053925 35,000 53 509 0
2019-04-21 02:45:58 GMT 43.489792 -97.074623 35,000 53 510 64
2019-04-21 02:45:55 GMT 43.486305 -97.082520 35,000 53 510 64
2019-04-21 02:45:52 GMT 43.481140 -97.092720 35,000 53 510 0
2019-04-21 02:45:45 GMT 43.472157 -97.108414 35,000 53 509 -64
2019-04-21 02:45:38 GMT 43.460285 -97.129013 35,000 52 509 64
2019-04-21 02:45:35 GMT 43.457397 -97.134315 35,000 52 509 64
2019-04-21 02:45:30 GMT 43.450287 -97.147179 35,000 52 509 -64
2019-04-21 02:45:27 GMT 43.445992 -97.154778 35,000 52 509 0
2019-04-21 02:45:24 GMT 43.442459 -97.162514 35,000 53 509 64
2019-04-21 02:45:14 GMT 43.427536 -97.188316 35,000 52 509 0
2019-04-21 02:45:09 GMT 43.420528 -97.201279 35,000 52 508 64
2019-04-21 02:45:06 GMT 43.416321 -97.209007 35,000 52 508 0
2019-04-21 02:45:03 GMT 43.412289 -97.216843 35,000 52 508 0
2019-04-21 02:44:59 GMT 43.406330 -97.227173 35,000 52 508 -64
2019-04-21 02:44:53 GMT 43.397415 -97.245163 35,000 52 509 -64
2019-04-21 02:44:46 GMT 43.386826 -97.263138 35,000 52 509 64
2019-04-21 02:44:42 GMT 43.381752 -97.273605 35,000 52 509 64
2019-04-21 02:44:35 GMT 43.372253 -97.288841 35,000 53 509 0
2019-04-21 02:44:31 GMT 43.367088 -97.299301 35,000 52 509 0
2019-04-21 02:44:25 GMT 43.357635 -97.317467 35,000 52 509 0
2019-04-21 02:44:21 GMT 43.352470 -97.325203 35,000 52 509 -64
2019-04-21 02:44:14 GMT 43.342850 -97.343147 35,000 52 509 64
2019-04-21 02:44:10 GMT 43.336761 -97.353371 35,000 52 509 64
2019-04-21 02:44:04 GMT 43.327881 -97.368950 35,000 52 509 64
2019-04-21 02:44:00 GMT 43.322662 -97.379105 35,000 52 509 0
2019-04-21 02:43:54 GMT 43.313042 -97.397263 35,000 52 509 -64
2019-04-21 02:43:49 GMT 43.307453 -97.407402 35,000 52 509 64
2019-04-21 02:43:43 GMT 43.298004 -97.422897 35,000 52 510 64
2019-04-21 02:43:38 GMT 43.291901 -97.435829 35,000 52 510 0
2019-04-21 02:43:32 GMT 43.283203 -97.451225 35,000 52 509 0
2019-04-21 02:43:29 GMT 43.277802 -97.461502 35,000 52 509 0
2019-04-21 02:43:22 GMT 43.268463 -97.477028 35,000 52 509 64
2019-04-21 02:43:17 GMT 43.261971 -97.489799 35,000 52 510 128
2019-04-21 02:43:12 GMT 43.253502 -97.505295 35,000 52 510 64
2019-04-21 02:43:07 GMT 43.247681 -97.515564 35,000 52 510 0
2019-04-21 02:43:02 GMT 43.237793 -97.533623 35,000 52 511 -64
2019-04-21 02:42:57 GMT 43.232830 -97.541199 35,000 52 510 -64
2019-04-21 02:42:50 GMT 43.222641 -97.559296 35,000 52 511 0
2019-04-21 02:42:46 GMT 43.217560 -97.569710 35,000 52 511 -64
2019-04-21 02:42:41 GMT 43.208862 -97.585037 35,000 52 511 0
2019-04-21 02:42:36 GMT 43.202408 -97.595322 35,000 52 512 0
2019-04-21 02:42:30 GMT 43.193756 -97.610909 35,000 52 512 0
2019-04-21 02:42:25 GMT 43.187347 -97.623726 35,000 52 512 0
2019-04-21 02:42:20 GMT 43.178596 -97.639290 35,000 52 512 -64
2019-04-21 02:42:15 GMT 43.171188 -97.652107 35,000 52 512 0
2019-04-21 02:42:08 GMT 43.162720 -97.667564 35,000 52 512 0
2019-04-21 02:42:04 GMT 43.156952 -97.677910 35,000 52 511 0
2019-04-21 02:41:59 GMT 43.148438 -97.693436 35,000 52 511 0
2019-04-21 02:41:54 GMT 43.142120 -97.703461 35,000 52 512 0
2019-04-21 02:41:48 GMT 43.133286 -97.719048 35,000 52 511 0
2019-04-21 02:41:43 GMT 43.126553 -97.731827 35,000 52 511 0
2019-04-21 02:41:38 GMT 43.118546 -97.747192 35,000 52 512 0
2019-04-21 02:41:32 GMT 43.111038 -97.760117 35,000 52 511 0
2019-04-21 02:41:27 GMT 43.103321 -97.773087 35,000 52 511 64
2019-04-21 02:41:21 GMT 43.095177 -97.788391 35,000 52 511 0
2019-04-21 02:41:16 GMT 43.087830 -97.801254 35,000 52 510 0
2019-04-21 02:41:12 GMT 43.080791 -97.814095 35,000 52 511 0
2019-04-21 02:41:06 GMT 43.073318 -97.826866 35,000 52 512 0
2019-04-21 02:41:01 GMT 43.065445 -97.842133 35,000 52 512 -64
2019-04-21 02:40:56 GMT 43.058308 -97.855095 35,000 52 511 0
2019-04-21 02:40:51 GMT 43.049648 -97.870399 35,000 52 511 0
2019-04-21 02:40:45 GMT 43.042557 -97.883331 35,000 52 510 0
2019-04-21 02:40:40 GMT 43.034985 -97.895966 35,000 52 511 64
2019-04-21 02:40:34 GMT 43.027267 -97.908623 35,000 52 510 64
2019-04-21 02:40:29 GMT 43.019806 -97.921669 35,000 52 511 -64
2019-04-21 02:40:24 GMT 43.012573 -97.934303 35,000 52 512 0
2019-04-21 02:40:19 GMT 43.004242 -97.949631 35,000 52 511 0
2019-04-21 02:40:13 GMT 42.997555 -97.962471 35,000 52 512 0
2019-04-21 02:40:07 GMT 42.988663 -97.977776 35,000 52 512 0
2019-04-21 02:40:03 GMT 42.982147 -97.988106 35,000 52 512 0
2019-04-21 02:39:58 GMT 42.973579 -98.003471 35,000 52 512 -64
2019-04-21 02:39:52 GMT 42.966888 -98.016441 35,000 52 512 -64
2019-04-21 02:39:47 GMT 42.958557 -98.031708 35,000 52 512 -64
2019-04-21 02:39:42 GMT 42.951828 -98.042053 35,000 52 513 0
2019-04-21 02:39:36 GMT 42.942951 -98.059776 35,000 52 513 64
2019-04-21 02:39:32 GMT 42.936295 -98.069984 35,000 52 514 0
2019-04-21 02:39:28 GMT 42.931824 -98.077827 35,000 52 514 64
2019-04-21 02:39:25 GMT 42.928005 -98.085411 35,000 52 514 64
2019-04-21 02:39:21 GMT 42.921066 -98.098396 35,000 52 514 64
2019-04-21 02:39:15 GMT 42.912971 -98.111183 35,000 52 514 -64
2019-04-21 02:39:11 GMT 42.905869 -98.123940 35,000 52 514 0
2019-04-21 02:39:04 GMT 42.897263 -98.139206 35,000 52 514 0
2019-04-21 02:38:59 GMT 42.889927 -98.152054 35,000 52 513 -64
2019-04-21 02:38:56 GMT 42.885681 -98.159775 35,000 52 513 -64
2019-04-21 02:38:50 GMT 42.875355 -98.177620 35,000 52 513 64
2019-04-21 02:38:44 GMT 42.865952 -98.193115 35,000 52 513 64
2019-04-21 02:38:39 GMT 42.860367 -98.203255 35,000 52 513 -64
2019-04-21 02:38:33 GMT 42.850754 -98.221291 35,000 52 513 0
2019-04-21 02:38:29 GMT 42.845078 -98.231506 35,000 52 513 64
2019-04-21 02:38:22 GMT 42.835365 -98.249428 35,000 52 513 0
2019-04-21 02:38:18 GMT 42.829411 -98.259499 35,000 52 513 0
2019-04-21 02:38:15 GMT 42.825119 -98.267273 35,000 52 513 0
2019-04-21 02:38:12 GMT 42.819679 -98.274864 35,000 52 513 0
2019-04-21 02:38:07 GMT 42.814278 -98.285065 35,000 52 513 0
2019-04-21 02:38:01 GMT 42.804749 -98.303040 35,000 52 512 -128
2019-04-21 02:37:57 GMT 42.799381 -98.310585 35,000 52 512 -128
2019-04-21 02:37:53 GMT 42.793701 -98.320740 35,025 52 512 64
2019-04-21 02:37:50 GMT 42.789459 -98.328384 35,025 52 511 0
2019-04-21 02:37:46 GMT 42.784012 -98.338432 35,000 52 511 -64
2019-04-21 02:37:43 GMT 42.779037 -98.346092 35,000 52 510 0
2019-04-21 02:37:40 GMT 42.773544 -98.356255 35,000 52 510 0
2019-04-21 02:37:37 GMT 42.769135 -98.363968 35,000 52 510 0
2019-04-21 02:37:32 GMT 42.763962 -98.374077 35,000 52 509 -64
2019-04-21 02:37:29 GMT 42.758423 -98.384003 35,000 52 509 0
2019-04-21 02:37:26 GMT 42.752831 -98.391769 35,000 52 509 0
2019-04-21 02:37:19 GMT 42.743225 -98.409286 35,000 52 508 0
2019-04-21 02:37:14 GMT 42.737091 -98.419525 35,000 52 508 -64
2019-04-21 02:37:11 GMT 42.733185 -98.427086 35,000 52 509 0
2019-04-21 02:37:08 GMT 42.728157 -98.437050 35,000 52 508 -64
2019-04-21 02:37:01 GMT 42.718197 -98.452255 35,000 52 508 0
2019-04-21 02:36:54 GMT 42.707394 -98.472313 35,000 52 508 0
2019-04-21 02:36:50 GMT 42.702347 -98.479881 35,000 52 508 0
2019-04-21 02:36:46 GMT 42.697357 -98.490059 35,000 52 508 0
2019-04-21 02:36:43 GMT 42.692219 -98.497543 35,000 52 508 -64
2019-04-21 02:36:40 GMT 42.687790 -98.505226 35,000 52 508 0
2019-04-21 02:36:33 GMT 42.676483 -98.525200 35,000 52 508 0
2019-04-21 02:36:29 GMT 42.672203 -98.532867 35,000 52 507 -64
2019-04-21 02:36:25 GMT 42.666943 -98.542953 35,000 52 507 0
2019-04-21 02:36:22 GMT 42.661682 -98.552856 35,000 51 507 -64
2019-04-21 02:36:17 GMT 42.655350 -98.562820 35,000 52 507 64
2019-04-21 02:36:12 GMT 42.646458 -98.578026 35,000 52 507 0
2019-04-21 02:36:08 GMT 42.641968 -98.585564 35,000 51 506 0
2019-04-21 02:36:04 GMT 42.636475 -98.595367 35,000 51 506 -64
2019-04-21 02:36:01 GMT 42.631393 -98.605354 35,000 52 505 -64
2019-04-21 02:35:57 GMT 42.626209 -98.613152 35,000 52 505 0
2019-04-21 02:35:53 GMT 42.619812 -98.625458 35,000 52 505 0
2019-04-21 02:35:50 GMT 42.615967 -98.630447 35,000 52 505 -64
2019-04-21 02:35:46 GMT 42.610794 -98.640373 35,000 51 505 0
2019-04-21 02:35:43 GMT 42.605957 -98.648026 35,000 51 505 0
2019-04-21 02:35:40 GMT 42.600998 -98.657852 35,000 51 505 0
2019-04-21 02:35:36 GMT 42.595734 -98.665466 35,000 51 505 0
2019-04-21 02:35:33 GMT 42.590881 -98.675392 35,000 51 504 0
2019-04-21 02:35:29 GMT 42.586033 -98.682777 35,000 52 503 0
2019-04-21 02:35:26 GMT 42.580772 -98.692932 35,000 52 503 0
2019-04-21 02:35:23 GMT 42.574535 -98.702705 35,000 51 502 -64
2019-04-21 02:35:18 GMT 42.570419 -98.710289 35,000 52 503 -64
2019-04-21 02:35:12 GMT 42.561035 -98.725082 35,000 52 503 0
2019-04-21 02:35:08 GMT 42.555031 -98.737389 35,000 52 503 0
2019-04-21 02:35:02 GMT 42.545952 -98.752396 35,000 51 502 -64
2019-04-21 02:34:58 GMT 42.539948 -98.762238 35,000 51 503 0
2019-04-21 02:34:54 GMT 42.535172 -98.769714 35,000 51 503 -64
2019-04-21 02:34:50 GMT 42.530273 -98.779701 35,000 51 503 0
2019-04-21 02:34:47 GMT 42.524734 -98.789497 35,000 51 502 0
2019-04-21 02:34:43 GMT 42.520161 -98.797112 35,000 51 502 0
2019-04-21 02:34:39 GMT 42.513199 -98.809410 35,000 51 502 0
2019-04-21 02:34:36 GMT 42.509491 -98.814278 35,000 51 502 0
2019-04-21 02:34:29 GMT 42.499352 -98.831795 35,000 51 502 0
2019-04-21 02:34:25 GMT 42.494465 -98.841629 35,000 51 502 0
2019-04-21 02:34:19 GMT 42.483673 -98.859039 35,000 51 502 0
2019-04-21 02:34:15 GMT 42.479195 -98.866478 35,000 51 502 0
2019-04-21 02:34:11 GMT 42.474449 -98.876190 35,000 51 503 0
2019-04-21 02:34:05 GMT 42.463974 -98.893684 35,000 51 503 0
2019-04-21 02:33:58 GMT 42.452454 -98.913536 35,000 51 504 0
2019-04-21 02:33:50 GMT 42.443802 -98.928329 35,000 51 504 0
2019-04-21 02:33:40 GMT 42.429016 -98.953171 35,000 51 504 0
2019-04-21 02:33:29 GMT 42.413792 -98.980301 35,000 51 504 0
2019-04-21 02:33:19 GMT 42.398895 -99.005020 35,000 51 505 0
2019-04-21 02:33:16 GMT 42.392937 -99.014923 35,000 51 506 0
2019-04-21 02:33:08 GMT 42.383286 -99.032448 35,000 51 506 0
2019-04-21 02:33:05 GMT 42.377472 -99.042313 35,000 51 506 0
2019-04-21 02:32:58 GMT 42.368408 -99.057167 35,000 51 506 0
2019-04-21 02:32:48 GMT 42.353134 -99.084541 35,000 51 506 -64
2019-04-21 02:32:37 GMT 42.337723 -99.109390 35,000 51 507 0
2019-04-21 02:32:33 GMT 42.329716 -99.124207 35,000 51 507 0
2019-04-21 02:32:26 GMT 42.321533 -99.136627 35,000 51 507 -64
2019-04-21 02:32:23 GMT 42.316452 -99.146553 35,000 51 508 0
2019-04-21 02:32:14 GMT 42.302170 -99.171585 35,000 51 508 0
2019-04-21 02:32:05 GMT 42.291264 -99.188911 35,000 51 508 0
2019-04-21 02:32:02 GMT 42.285027 -99.198814 35,000 51 508 0
2019-04-21 02:31:54 GMT 42.275299 -99.216347 35,000 51 508 0
2019-04-21 02:31:50 GMT 42.267384 -99.228577 35,000 51 508 0
2019-04-21 02:31:44 GMT 42.260010 -99.241066 35,000 51 509 0
2019-04-21 02:31:41 GMT 42.255558 -99.248703 35,000 51 509 -64
2019-04-21 02:31:32 GMT 42.241314 -99.273544 35,000 51 509 -64
2019-04-21 02:31:24 GMT 42.229771 -99.293411 35,000 51 510 0
2019-04-21 02:31:13 GMT 42.214500 -99.318382 35,000 51 510 0
2019-04-21 02:31:02 GMT 42.198715 -99.345680 35,000 51 511 0
2019-04-21 02:30:51 GMT 42.182796 -99.373123 35,000 51 511 64
2019-04-21 02:30:41 GMT 42.167389 -99.398163 35,000 51 511 0
2019-04-21 02:30:31 GMT 42.152298 -99.425400 35,000 51 511 -64
2019-04-21 02:30:21 GMT 42.136059 -99.452774 35,000 51 511 0
2019-04-21 02:30:13 GMT 42.124878 -99.470406 35,000 51 511 -64
2019-04-21 02:30:09 GMT 42.120560 -99.477623 35,000 51 511 0
2019-04-21 02:30:00 GMT 42.105709 -99.502663 35,000 51 511 0
2019-04-21 02:29:57 GMT 42.101212 -99.510162 35,000 51 511 0
2019-04-21 02:29:48 GMT 42.090088 -99.529953 35,000 51 510 0
2019-04-21 02:29:43 GMT 42.080978 -99.544746 35,000 51 510 64
2019-04-21 02:29:39 GMT 42.074844 -99.554863 35,000 51 510 0
2019-04-21 02:29:35 GMT 42.069580 -99.564720 35,000 51 510 0
2019-04-21 02:29:28 GMT 42.059109 -99.582062 35,000 51 510 -64
2019-04-21 02:29:25 GMT 42.055199 -99.586975 35,000 51 510 0
2019-04-21 02:29:18 GMT 42.043655 -99.606773 35,000 51 509 128
2019-04-21 02:29:15 GMT 42.039001 -99.614288 35,000 51 509 64
2019-04-21 02:29:04 GMT 42.023823 -99.641266 35,000 51 509 0
2019-04-21 02:28:57 GMT 42.013321 -99.658607 35,000 51 509 0
2019-04-21 02:28:54 GMT 42.008507 -99.665993 35,000 51 509 0
2019-04-21 02:28:43 GMT 41.993423 -99.690704 35,000 51 510 0
2019-04-21 02:28:35 GMT 41.981003 -99.712975 35,000 51 510 64
2019-04-21 02:28:32 GMT 41.977203 -99.717842 35,000 51 510 0
2019-04-21 02:28:25 GMT 41.966537 -99.737694 35,000 51 509 -64
2019-04-21 02:28:22 GMT 41.960884 -99.745132 35,000 51 509 -64
2019-04-21 02:28:12 GMT 41.945892 -99.772087 35,000 51 509 64
2019-04-21 02:28:04 GMT 41.935467 -99.789520 35,000 51 509 -64
2019-04-21 02:28:00 GMT 41.930466 -99.796806 35,000 51 509 0
2019-04-21 02:27:54 GMT 41.920105 -99.814049 35,000 51 509 0
2019-04-21 02:27:51 GMT 41.914749 -99.823952 35,000 51 509 64
2019-04-21 02:27:42 GMT 41.902882 -99.843559 35,000 51 509 0
2019-04-21 02:27:39 GMT 41.899109 -99.848541 35,000 51 509 64
2019-04-21 02:27:33 GMT 41.888855 -99.865601 35,000 51 509 0
2019-04-21 02:27:30 GMT 41.883133 -99.875587 35,000 51 510 -64
2019-04-21 02:27:19 GMT 41.868759 -99.900307 35,000 51 510 0
2019-04-21 02:27:12 GMT 41.857536 -99.917458 35,000 51 511 0
2019-04-21 02:27:09 GMT 41.852417 -99.927422 35,000 51 511 -64
2019-04-21 02:27:00 GMT 41.841843 -99.944504 35,000 51 511 64
2019-04-21 02:26:57 GMT 41.836121 -99.954491 35,000 51 511 0
2019-04-21 02:26:51 GMT 41.820019 -99.981400 35,000 51 511 0
2019-04-21 02:26:40 GMT 41.811127 -99.996346 35,000 51 511 -64
2019-04-21 02:26:36 GMT 41.804050 -100.006058 35,000 51 511 0
2019-04-21 02:26:29 GMT 41.794601 -100.023216 35,000 51 511 -64
2019-04-21 02:26:25 GMT 41.788651 -100.033073 35,000 51 511 0
2019-04-21 02:26:19 GMT 41.779984 -100.045593 35,000 51 511 64
2019-04-21 02:26:15 GMT 41.773361 -100.057732 35,000 51 511 0
2019-04-21 02:26:09 GMT 41.764526 -100.072594 35,000 51 511 64
2019-04-21 02:26:05 GMT 41.758484 -100.082512 35,000 51 511 64
2019-04-21 02:25:58 GMT 41.748653 -100.099754 35,000 51 511 64
2019-04-21 02:25:55 GMT 41.742783 -100.106987 35,000 51 511 0
2019-04-21 02:25:48 GMT 41.733429 -100.124161 35,000 51 511 0
2019-04-21 02:25:44 GMT 41.727146 -100.133995 35,000 51 511 -64
2019-04-21 02:25:37 GMT 41.717789 -100.148941 35,000 50 511 -64
2019-04-21 02:25:33 GMT 41.710602 -100.161041 35,000 51 511 -64
2019-04-21 02:25:27 GMT 41.702179 -100.175835 35,000 50 511 0
2019-04-21 02:25:23 GMT 41.696320 -100.185760 35,000 50 511 64
2019-04-21 02:25:16 GMT 41.685902 -100.202911 35,000 50 511 0
2019-04-21 02:25:13 GMT 41.679848 -100.212555 35,000 50 511 -64
2019-04-21 02:25:09 GMT 41.674438 -100.219971 35,000 50 511 0
2019-04-21 02:25:05 GMT 41.670586 -100.227249 35,000 50 511 64
2019-04-21 02:25:02 GMT 41.664810 -100.237213 35,000 50 511 0
2019-04-21 02:24:57 GMT 41.658108 -100.246796 35,000 50 511 0
2019-04-21 02:24:52 GMT 41.648438 -100.264099 35,000 50 510 64
2019-04-21 02:24:44 GMT 41.639328 -100.278770 35,000 50 511 0
2019-04-21 02:24:40 GMT 41.632874 -100.288445 35,000 50 511 -64
2019-04-21 02:24:34 GMT 41.623398 -100.303307 35,000 51 511 0
2019-04-21 02:24:31 GMT 41.617447 -100.313103 35,000 51 511 0
2019-04-21 02:24:23 GMT 41.606461 -100.332581 35,000 50 511 64
2019-04-21 02:24:20 GMT 41.601734 -100.340050 35,000 50 511 64
2019-04-21 02:24:15 GMT 41.594696 -100.352303 35,000 50 511 0
2019-04-21 02:24:12 GMT 41.590576 -100.357178 35,000 50 511 0
2019-04-21 02:24:09 GMT 41.585449 -100.366974 35,000 50 511 0
2019-04-21 02:24:03 GMT 41.575745 -100.381584 35,000 50 511 0
2019-04-21 02:23:56 GMT 41.566864 -100.396378 35,000 50 512 -64
2019-04-21 02:23:52 GMT 41.560730 -100.406113 35,000 50 512 0
2019-04-21 02:23:48 GMT 41.554066 -100.418297 35,000 50 512 0
2019-04-21 02:23:42 GMT 41.544476 -100.433113 35,000 50 512 0
2019-04-21 02:23:38 GMT 41.538422 -100.442757 35,000 50 512 0
2019-04-21 02:23:31 GMT 41.529160 -100.457581 35,000 50 512 -64
2019-04-21 02:23:27 GMT 41.522552 -100.469658 35,000 50 513 0
2019-04-21 02:23:21 GMT 41.513351 -100.484390 35,000 50 513 64
2019-04-21 02:23:17 GMT 41.507217 -100.494125 35,000 50 513 0
2019-04-21 02:23:10 GMT 41.497559 -100.508987 35,000 50 513 0
2019-04-21 02:23:00 GMT 41.481396 -100.535759 35,000 50 513 0
2019-04-21 02:22:56 GMT 41.475529 -100.545792 35,000 50 513 64
2019-04-21 02:22:47 GMT 41.464031 -100.565208 35,000 50 513 64
2019-04-21 02:22:43 GMT 41.457516 -100.575104 35,000 50 513 0
2019-04-21 02:22:38 GMT 41.450226 -100.587196 35,000 50 513 -64
2019-04-21 02:22:34 GMT 41.443176 -100.599380 35,000 50 513 0
2019-04-21 02:22:27 GMT 41.433960 -100.614136 35,000 50 513 0
2019-04-21 02:22:23 GMT 41.426376 -100.626404 35,000 50 513 0
2019-04-21 02:22:17 GMT 41.418503 -100.638474 35,000 50 512 0
2019-04-21 02:22:13 GMT 41.412033 -100.648178 35,000 50 512 0
2019-04-21 02:22:07 GMT 41.403515 -100.662994 35,000 50 511 0
2019-04-21 02:22:03 GMT 41.394760 -100.677429 35,000 50 512 64
2019-04-21 02:21:55 GMT 41.383667 -100.694397 35,000 50 511 0
2019-04-21 02:21:51 GMT 41.378265 -100.704346 35,000 50 511 0
2019-04-21 02:21:42 GMT 41.363297 -100.728516 35,000 50 512 64
2019-04-21 02:21:36 GMT 41.354462 -100.743042 35,000 50 511 0
2019-04-21 02:21:31 GMT 41.348602 -100.752747 35,000 50 512 64
2019-04-21 02:21:21 GMT 41.332169 -100.777161 35,000 50 512 -64
2019-04-21 02:21:15 GMT 41.323196 -100.791809 35,000 50 512 0
2019-04-21 02:21:09 GMT 41.315414 -100.806274 35,000 50 512 0
2019-04-21 02:21:00 GMT 41.300587 -100.828278 35,000 50 512 0
2019-04-21 02:20:52 GMT 41.289787 -100.847626 35,000 50 513 0
2019-04-21 02:20:48 GMT 41.284332 -100.854919 35,000 50 513 -64
2019-04-21 02:20:39 GMT 41.270699 -100.876839 35,000 50 513 0
2019-04-21 02:20:26 GMT 41.250542 -100.908615 35,000 50 513 0
2019-04-21 02:20:17 GMT 41.236542 -100.932800 35,000 50 513 -64
2019-04-21 02:20:07 GMT 41.220097 -100.959549 35,000 50 514 0
2019-04-21 02:19:55 GMT 41.203991 -100.983894 35,000 50 514 0
2019-04-21 02:19:45 GMT 41.187469 -101.010559 35,000 50 513 64
2019-04-21 02:19:34 GMT 41.172318 -101.034851 35,000 50 514 0
2019-04-21 02:19:24 GMT 41.155857 -101.061607 35,000 50 514 -64
2019-04-21 02:19:13 GMT 41.139175 -101.088257 35,000 50 514 0
2019-04-21 02:19:02 GMT 41.124252 -101.112305 35,000 50 514 0
2019-04-21 02:18:53 GMT 41.107628 -101.139076 35,000 50 514 0
2019-04-21 02:18:28 GMT 41.070805 -101.197250 35,000 50 514 0
2019-04-21 02:18:13 GMT 41.047760 -101.233459 35,000 50 515 64
2019-04-21 02:17:52 GMT 41.016384 -101.284393 35,000 50 515 64
2019-04-21 02:17:26 GMT 40.976116 -101.347313 35,000 50 515 0
2019-04-21 02:17:19 GMT 40.965546 -101.364319 35,000 50 515 0
2019-04-21 02:17:07 GMT 40.947510 -101.393311 35,000 50 516 0
2019-04-21 02:16:58 GMT 40.933987 -101.414986 35,000 50 516 0
2019-04-21 02:16:48 GMT 40.917416 -101.439262 35,000 50 516 0
2019-04-21 02:16:37 GMT 40.900818 -101.465942 35,000 50 516 -64
2019-04-21 02:16:25 GMT 40.884830 -101.492325 35,000 50 516 0
2019-04-21 02:16:15 GMT 40.867996 -101.518921 35,000 50 516 0
2019-04-21 02:16:05 GMT 40.852020 -101.543152 35,000 50 516 0
2019-04-21 02:15:54 GMT 40.834972 -101.569725 35,000 50 515 64
2019-04-21 02:15:43 GMT 40.819107 -101.596130 35,000 50 515 0
2019-04-21 02:15:32 GMT 40.802536 -101.620300 35,000 49 514 0
2019-04-21 02:15:21 GMT 40.784958 -101.649048 35,000 50 513 0
2019-04-21 02:15:10 GMT 40.769669 -101.673035 35,000 50 513 0
2019-04-21 02:14:57 GMT 40.745590 -101.711365 35,000 49 513 -64
2019-04-21 02:14:50 GMT 40.736481 -101.725891 35,000 49 513 0
2019-04-21 02:14:45 GMT 40.729385 -101.735291 35,000 49 513 0
2019-04-21 02:14:38 GMT 40.718216 -101.754456 35,000 49 513 0
2019-04-21 02:14:34 GMT 40.712082 -101.764099 35,000 49 513 64
2019-04-21 02:14:28 GMT 40.704254 -101.776093 35,000 49 512 0
2019-04-21 02:14:22 GMT 40.695034 -101.790199 35,000 49 512 -64
2019-04-21 02:14:18 GMT 40.687546 -101.802124 35,000 49 513 -64
2019-04-21 02:14:12 GMT 40.679531 -101.814110 35,000 49 512 0
2019-04-21 02:14:06 GMT 40.670734 -101.828346 35,000 49 512 0
2019-04-21 02:14:01 GMT 40.662140 -101.840332 35,000 49 511 64
2019-04-21 02:13:56 GMT 40.655560 -101.852249 35,000 49 512 0
2019-04-21 02:13:50 GMT 40.647308 -101.864136 35,000 49 511 -64
2019-04-21 02:13:45 GMT 40.637833 -101.878418 35,000 49 511 -64
2019-04-21 02:13:39 GMT 40.628860 -101.892639 35,000 49 510 0
2019-04-21 02:13:34 GMT 40.622726 -101.902100 35,000 49 510 0
2019-04-21 02:13:29 GMT 40.612976 -101.916382 35,000 49 510 0
2019-04-21 02:13:23 GMT 40.604187 -101.930481 35,000 49 510 0
2019-04-21 02:13:18 GMT 40.597088 -101.942451 35,000 49 510 0
2019-04-21 02:13:12 GMT 40.588715 -101.954285 35,000 49 510 64
2019-04-21 02:13:08 GMT 40.581726 -101.966049 35,000 49 510 0
2019-04-21 02:13:02 GMT 40.572090 -101.980278 35,000 49 510 -64
2019-04-21 02:12:57 GMT 40.563663 -101.994514 35,000 49 510 0
2019-04-21 02:12:52 GMT 40.558090 -102.001709 35,000 49 510 0
2019-04-21 02:12:46 GMT 40.546692 -102.020447 35,000 49 510 -64
2019-04-21 02:12:42 GMT 40.541180 -102.027657 35,000 49 510 -64
2019-04-21 02:12:34 GMT 40.530426 -102.046448 35,000 49 510 0
2019-04-21 02:12:31 GMT 40.525452 -102.053711 35,000 49 509 0
2019-04-21 02:12:23 GMT 40.512131 -102.074913 35,000 49 509 64
2019-04-21 02:12:20 GMT 40.509106 -102.079529 35,000 49 509 64
2019-04-21 02:12:10 GMT 40.493092 -102.103127 35,000 49 508 0
2019-04-21 02:12:02 GMT 40.482147 -102.119751 35,000 49 508 0
2019-04-21 02:11:59 GMT 40.477020 -102.129150 35,000 49 508 0
2019-04-21 02:11:52 GMT 40.464066 -102.148010 35,000 49 508 0
2019-04-21 02:11:47 GMT 40.459713 -102.154938 35,000 49 508 0
2019-04-21 02:11:38 GMT 40.443649 -102.180969 35,000 49 508 64
2019-04-21 02:11:30 GMT 40.431595 -102.197388 35,000 49 508 0
2019-04-21 02:11:26 GMT 40.427765 -102.204468 35,000 49 508 0
2019-04-21 02:11:16 GMT 40.411255 -102.230156 35,000 49 508 0
2019-04-21 02:11:08 GMT 40.396866 -102.251343 35,000 49 508 0
2019-04-21 02:11:05 GMT 40.394531 -102.256042 35,000 49 508 0
2019-04-21 02:10:55 GMT 40.378555 -102.279480 35,000 49 508 0
2019-04-21 02:10:44 GMT 40.362373 -102.305374 35,000 49 508 0
2019-04-21 02:10:33 GMT 40.346218 -102.328842 35,025 49 508 -64
2019-04-21 02:10:23 GMT 40.329712 -102.354675 35,000 49 508 448
2019-04-21 02:10:15 GMT 40.316334 -102.375664 34,875 49 508 1280
2019-04-21 02:10:11 GMT 40.313309 -102.380341 34,850 49 508 1280
2019-04-21 02:10:01 GMT 40.297245 -102.403877 34,625 49 510 1024
2019-04-21 02:09:53 GMT 40.284210 -102.424927 34,500 49 509 1024
2019-04-21 02:09:50 GMT 40.280457 -102.429688 34,450 49 509 1088
2019-04-21 02:09:40 GMT 40.263638 -102.455315 34,225 49 509 1472
2019-04-21 02:09:32 GMT 40.251438 -102.474167 33,975 49 512 1344
2019-04-21 02:09:28 GMT 40.247406 -102.481262 33,975 49 510 1408
2019-04-21 02:09:21 GMT 40.235985 -102.497513 33,775 49 511 1664
2019-04-21 02:09:18 GMT 40.231384 -102.504456 33,700 49 511 1664
2019-04-21 02:09:11 GMT 40.219986 -102.523438 33,525 49 512 1536
2019-04-21 02:09:08 GMT 40.213852 -102.532715 33,425 49 512 1536
2019-04-21 02:09:00 GMT 40.202419 -102.549194 33,225 49 513 1472
2019-04-21 02:08:56 GMT 40.197739 -102.556274 33,150 49 513 1344
2019-04-21 02:08:49 GMT 40.185974 -102.575073 32,950 49 513 1344
2019-04-21 02:08:46 GMT 40.181473 -102.582092 32,950 49 513 1344
2019-04-21 02:08:39 GMT 40.168995 -102.601006 32,725 49 512 1344
2019-04-21 02:08:36 GMT 40.164989 -102.605621 32,675 49 513 1280
2019-04-21 02:08:27 GMT 40.152515 -102.624229 32,500 49 513 1600
2019-04-21 02:08:24 GMT 40.148529 -102.631409 32,425 49 514 1600
2019-04-21 02:08:18 GMT 40.136826 -102.647636 32,125 49 513 1472
2019-04-21 02:08:14 GMT 40.131706 -102.657188 32,150 49 514 1344
2019-04-21 02:08:09 GMT 40.124352 -102.666428 32,050 49 513 1280
2019-04-21 02:08:06 GMT 40.119644 -102.673523 32,000 49 512 1216
2019-04-21 02:08:03 GMT 40.114151 -102.682800 31,925 49 512 1344
2019-04-21 02:07:59 GMT 40.106895 -102.694641 31,800 49 512 1600
2019-04-21 02:07:56 GMT 40.104172 -102.696838 31,750 49 511 1728
2019-04-21 02:07:53 GMT 40.097992 -102.706238 31,650 49 511 1920
2019-04-21 02:07:48 GMT 40.091484 -102.717987 31,500 49 513 1920
2019-04-21 02:07:43 GMT 40.082382 -102.729797 31,300 49 514 1984
2019-04-21 02:07:38 GMT 40.074463 -102.743713 31,150 49 514 2048
2019-04-21 02:07:35 GMT 40.071468 -102.746262 31,075 49 514 2176
2019-04-21 02:07:31 GMT 40.064804 -102.757996 30,925 49 514 2176
2019-04-21 02:07:25 GMT 40.054916 -102.772156 30,475 49 517 1408
2019-04-21 02:07:21 GMT 40.048462 -102.781616 30,550 49 517 1984
2019-04-21 02:07:13 GMT 40.037766 -102.798386 30,325 49 517 1728
2019-04-21 02:07:09 GMT 40.029785 -102.810242 30,200 48 517 1600
2019-04-21 02:07:04 GMT 40.022354 -102.822105 30,075 49 517 1408
2019-04-21 02:06:58 GMT 40.014221 -102.834167 29,950 52 516 1536
2019-04-21 02:06:53 GMT 40.007080 -102.849243 29,825 55 515 1728
2019-04-21 02:06:49 GMT 40.000568 -102.862305 29,675 58 515 1600
2019-04-21 02:06:43 GMT 39.993851 -102.875610 29,525 62 514 1664
2019-04-21 02:06:37 GMT 39.988651 -102.889519 29,400 65 514 1408
2019-04-21 02:06:31 GMT 39.982971 -102.906441 29,250 68 512 1408
2019-04-21 02:06:27 GMT 39.979065 -102.921143 29,125 71 511 2048
2019-04-21 02:06:24 GMT 39.976826 -102.929726 29,025 73 511 2048
2019-04-21 02:06:20 GMT 39.974316 -102.941704 28,900 75 510 1728
2019-04-21 02:06:17 GMT 39.972382 -102.950745 28,800 78 509 1664
2019-04-21 02:06:14 GMT 39.971100 -102.959808 28,700 80 509 1792
2019-04-21 02:06:11 GMT 39.970093 -102.968811 28,625 81 509 1664
2019-04-21 02:06:05 GMT 39.968353 -102.984093 28,500 81 507 1664
2019-04-21 02:06:02 GMT 39.967190 -102.995949 28,375 81 507 1792
2019-04-21 02:05:59 GMT 39.966492 -103.002129 28,325 81 507 1856
2019-04-21 02:05:53 GMT 39.963913 -103.023376 28,100 81 506 1856
2019-04-21 02:05:50 GMT 39.963093 -103.032471 28,025 81 506 1792
2019-04-21 02:05:45 GMT 39.961185 -103.050446 27,850 81 506 1536
2019-04-21 02:05:41 GMT 39.960487 -103.056503 27,800 81 505 1600
2019-04-21 02:05:38 GMT 39.959473 -103.065491 27,725 81 505 1472
2019-04-21 02:05:34 GMT 39.957882 -103.080719 27,550 81 504 1600
2019-04-21 02:05:31 GMT 39.956909 -103.089539 27,525 81 503 1856
2019-04-21 02:05:27 GMT 39.955879 -103.098640 27,425 81 503 1920
2019-04-21 02:05:24 GMT 39.954437 -103.110558 27,275 81 503 1792
2019-04-21 02:05:21 GMT 39.953476 -103.119690 27,225 81 503 1728
2019-04-21 02:05:17 GMT 39.952480 -103.128471 27,125 81 502 1472
2019-04-21 02:05:12 GMT 39.950821 -103.143616 27,025 81 500 1280
2019-04-21 02:05:07 GMT 39.949081 -103.158501 26,900 81 499 1408
2019-04-21 02:05:02 GMT 39.947407 -103.176414 26,775 81 498 1600
2019-04-21 02:04:57 GMT 39.945602 -103.191162 26,625 81 497 1600
2019-04-21 02:04:52 GMT 39.943680 -103.208801 26,475 81 496 1664
2019-04-21 02:04:46 GMT 39.942146 -103.223541 26,350 81 493 1472
2019-04-21 02:04:39 GMT 39.939541 -103.247078 25,150 81 480 1984
2019-04-21 02:04:36 GMT 39.938747 -103.252945 26,075 81 491 1920
2019-04-21 02:04:31 GMT 39.936951 -103.267639 25,900 81 490 1536
2019-04-21 02:04:27 GMT 39.936001 -103.276291 25,825 81 490 1472
2019-04-21 02:04:24 GMT 39.935211 -103.284912 25,775 81 489 1408
2019-04-21 02:04:18 GMT 39.932693 -103.308105 25,600 81 486 1472
2019-04-21 02:04:13 GMT 39.931534 -103.316803 25,500 81 484 1600
2019-04-21 02:04:09 GMT 39.929947 -103.331299 25,375 81 482 1792
2019-04-21 02:04:04 GMT 39.928322 -103.345703 25,200 81 481 1984
2019-04-21 02:03:57 GMT 39.926456 -103.362808 25,025 81 480 1984
2019-04-21 02:03:53 GMT 39.924957 -103.377258 24,875 81 479 1984
2019-04-21 02:03:48 GMT 39.921524 -103.405647 24,625 81 475 1664
2019-04-21 02:03:43 GMT 39.921524 -103.405647 24,525 81 478 1856
2019-04-21 02:03:36 GMT 39.919334 -103.425598 24,175 81 475 1728
2019-04-21 02:03:31 GMT 39.917984 -103.436890 24,225 81 475 1664
2019-04-21 02:03:26 GMT 39.916443 -103.451202 24,075 81 473 1920
2019-04-21 02:03:21 GMT 39.914772 -103.465088 23,925 81 472 1856
2019-04-21 02:03:18 GMT 39.913834 -103.473534 23,825 81 470 1728
2019-04-21 02:03:15 GMT 39.912598 -103.484825 23,725 81 469 1728
2019-04-21 02:03:11 GMT 39.911407 -103.495865 23,600 81 468 1664
2019-04-21 02:03:06 GMT 39.909744 -103.509827 23,500 81 466 1216
2019-04-21 02:02:59 GMT 39.907745 -103.526489 23,400 81 463 704
2019-04-21 02:02:54 GMT 39.905823 -103.545547 23,325 81 457 576
2019-04-21 02:02:50 GMT 39.904671 -103.553894 23,300 81 453 704
2019-04-21 02:02:42 GMT 39.902664 -103.572594 23,225 81 449 640
2019-04-21 02:02:37 GMT 39.901089 -103.585938 23,175 81 445 640
2019-04-21 02:02:33 GMT 39.899319 -103.601807 23,100 81 439 1216
2019-04-21 02:02:27 GMT 39.898060 -103.612122 23,000 81 437 1728
2019-04-21 02:02:21 GMT 39.896294 -103.627808 22,900 81 435 1600
2019-04-21 02:02:18 GMT 39.894791 -103.640839 22,725 81 433 1536
2019-04-21 02:02:13 GMT 39.893463 -103.650932 22,625 81 431 1536
2019-04-21 02:02:06 GMT 39.891815 -103.666336 22,475 81 428 1792
2019-04-21 02:02:00 GMT 39.889893 -103.681740 22,325 81 427 1664
2019-04-21 02:01:55 GMT 39.888657 -103.694275 22,175 82 424 1408
2019-04-21 02:01:52 GMT 39.887466 -103.707001 22,075 82 420 896
2019-04-21 02:01:49 GMT 39.887074 -103.709351 22,050 82 420 832
2019-04-21 02:01:44 GMT 39.885677 -103.724304 21,975 83 414 1280
2019-04-21 02:01:39 GMT 39.884537 -103.734344 21,850 83 411 1920
2019-04-21 02:01:35 GMT 39.883575 -103.746407 21,650 83 409 2176
2019-04-21 02:01:32 GMT 39.882977 -103.753967 21,500 83 408 2176
2019-04-21 02:01:29 GMT 39.882385 -103.761093 21,500 83 408 2176
2019-04-21 02:01:25 GMT 39.881470 -103.770882 21,350 84 407 2048
2019-04-21 02:01:22 GMT 39.880783 -103.780617 21,225 84 405 1984
2019-04-21 02:01:18 GMT 39.880280 -103.787842 21,175 84 404 1984
2019-04-21 02:01:13 GMT 39.879456 -103.799965 20,975 85 402 2048
2019-04-21 02:01:08 GMT 39.878651 -103.812012 20,800 84 400 1920
2019-04-21 02:01:03 GMT 39.877857 -103.821716 20,650 84 398 1792
2019-04-21 02:00:57 GMT 39.876926 -103.835999 20,500 84 395 1920
2019-04-21 02:00:52 GMT 39.875950 -103.850159 20,275 84 393 2688
2019-04-21 02:00:46 GMT 39.875153 -103.861938 20,025 85 393 2944
2019-04-21 02:00:43 GMT 39.874557 -103.871193 19,800 86 391 1920
2019-04-21 02:00:40 GMT 39.874134 -103.878235 19,775 86 389 1408
2019-04-21 02:00:36 GMT 39.873779 -103.885223 19,700 86 388 1472
2019-04-21 02:00:32 GMT 39.873295 -103.897034 19,575 87 385 1920
2019-04-21 02:00:26 GMT 39.872829 -103.910889 19,375 87 382 2048
2019-04-21 02:00:20 GMT 39.872452 -103.922363 19,175 88 380 2176
2019-04-21 02:00:16 GMT 39.872223 -103.933716 19,000 88 379 2496
2019-04-21 02:00:11 GMT 39.872040 -103.947449 18,775 89 376 2112
2019-04-21 02:00:05 GMT 39.871994 -103.958664 18,625 90 374 2112
2019-04-21 02:00:02 GMT 39.872040 -103.967506 18,475 90 371 2560
2019-04-21 01:59:58 GMT 39.872086 -103.974243 18,325 90 370 2880
2019-04-21 01:59:55 GMT 39.872131 -103.980942 18,200 90 369 3008
2019-04-21 01:59:50 GMT 39.872223 -103.992065 17,950 90 369 3136
2019-04-21 01:59:46 GMT 39.872269 -103.998734 17,800 90 370 2368
2019-04-21 01:59:43 GMT 39.872364 -104.005310 17,650 90 369 3648
2019-04-21 01:59:39 GMT 39.872452 -104.016525 17,350 90 370 3008
2019-04-21 01:59:36 GMT 39.872505 -104.023071 17,225 90 370 2368
2019-04-21 01:59:33 GMT 39.872505 -104.027649 17,125 90 370 2176
2019-04-21 01:59:29 GMT 39.872543 -104.038734 16,975 90 367 2240
2019-04-21 01:59:22 GMT 39.872643 -104.053955 16,725 90 364 2624
2019-04-21 01:59:19 GMT 39.872726 -104.060593 16,575 90 362 2624
2019-04-21 01:59:16 GMT 39.872772 -104.064949 16,475 90 361 2432
2019-04-21 01:59:11 GMT 39.872829 -104.075867 16,325 90 359 2240
2019-04-21 01:59:06 GMT 39.872955 -104.086624 16,150 90 358 2752
2019-04-21 01:58:59 GMT 39.873047 -104.103821 15,825 90 355 2880
2019-04-21 01:58:55 GMT 39.873093 -104.112358 15,550 90 353 3456
2019-04-21 01:58:49 GMT 39.873154 -104.122925 15,250 90 353 3968
2019-04-21 01:58:46 GMT 39.873203 -104.131409 15,075 90 353 4032
2019-04-21 01:58:43 GMT 39.873249 -104.135681 14,850 90 353 3904
2019-04-21 01:58:35 GMT 39.873436 -104.152710 14,000 90 355 2880
2019-04-21 01:58:30 GMT 39.873550 -104.167526 14,000 90 355 2880
2019-04-21 01:58:25 GMT 39.873550 -104.176186 13,850 90 354 2560
2019-04-21 01:58:22 GMT 39.873528 -104.182495 13,700 90 354 3712
2019-04-21 01:58:14 GMT 39.873596 -104.197563 13,175 90 357 3264
2019-04-21 01:58:04 GMT 39.873806 -104.221069 12,600 90 357 3136
2019-04-21 01:58:00 GMT 39.873901 -104.229492 12,400 90 355 2496
2019-04-21 01:57:54 GMT 39.874008 -104.244431 12,150 90 350 1920
2019-04-21 01:57:45 GMT 39.874008 -104.261269 11,850 89 345 2560
2019-04-21 01:57:42 GMT 39.874008 -104.265388 11,800 89 343 2240
2019-04-21 01:57:38 GMT 39.873962 -104.273567 11,650 90 343 1792
2019-04-21 01:57:33 GMT 39.873962 -104.285866 11,450 90 340 2688
2019-04-21 01:57:25 GMT 39.873962 -104.302170 11,175 90 337 1728
2019-04-21 01:57:21 GMT 39.873947 -104.308289 10,825 90 323 1664
2019-04-21 01:57:13 GMT 39.873947 -104.324097 10,875 90 324 1408
2019-04-21 01:57:10 GMT 39.873947 -104.331787 10,775 89 314 2240
2019-04-21 01:57:06 GMT 39.873917 -104.341339 10,675 89 314 2240
2019-04-21 01:57:00 GMT 39.873871 -104.348984 10,500 89 312 2816
2019-04-21 01:56:56 GMT 39.873825 -104.360085 10,250 89 309 2752
2019-04-21 01:56:52 GMT 39.873825 -104.363907 10,125 90 308 2816
2019-04-21 01:56:48 GMT 39.873825 -104.371307 9,950 90 307 3072
2019-04-21 01:56:42 GMT 39.873947 -104.384216 9,625 90 306 2880
2019-04-21 01:56:39 GMT 39.874100 -104.396988 9,100 90 304 2176
2019-04-21 01:56:34 GMT 39.874100 -104.396988 9,325 90 304 1920
2019-04-21 01:56:31 GMT 39.874237 -104.404266 9,225 90 300 1408
2019-04-21 01:56:28 GMT 39.874317 -104.409607 9,175 91 297 1472
2019-04-21 01:56:22 GMT 39.874508 -104.420227 8,975 91 290 1600
2019-04-21 01:56:19 GMT 39.874603 -104.425529 8,975 91 290 1600
2019-04-21 01:56:16 GMT 39.874691 -104.430786 8,825 90 287 2368
2019-04-21 01:56:10 GMT 39.874832 -104.440979 8,575 91 285 2432
2019-04-21 01:56:07 GMT 39.874924 -104.444519 8,500 91 284 2176
2019-04-21 01:56:04 GMT 39.875061 -104.452873 8,350 91 281 1920
2019-04-21 01:56:00 GMT 39.875107 -104.456276 8,250 91 279 1472
2019-04-21 01:55:57 GMT 39.875202 -104.461304 8,225 91 277 1344
2019-04-21 01:55:52 GMT 39.875343 -104.471252 8,050 90 272 1088
2019-04-21 01:55:49 GMT 39.875343 -104.474548 8,025 90 270 768
2019-04-21 01:55:45 GMT 39.875389 -104.481079 7,300 91 241 1472
2019-04-21 01:55:37 GMT 39.875519 -104.504639 7,300 91 241 1472
2019-04-21 01:55:28 GMT 39.875565 -104.507683 7,550 90 253 960
2019-04-21 01:55:24 GMT 39.875622 -104.515198 7,500 90 249 1088
2019-04-21 01:55:16 GMT 39.875748 -104.528404 7,250 91 240 1472
2019-04-21 01:55:08 GMT 39.876022 -104.538437 7,100 92 233 896
2019-04-21 01:55:04 GMT 39.876183 -104.543884 7,050 92 227 832
2019-04-21 01:54:55 GMT 39.876648 -104.557190 6,925 92 214 896
2019-04-21 01:54:46 GMT 39.877029 -104.566078 6,800 92 205 832
2019-04-21 01:54:43 GMT 39.877159 -104.569763 6,775 92 203 1152

Making use of Plane Finder data

You are free to use the raw flight data, aircraft information and images provided in this report for your own purposes provided the data is correctly attributed to Plane Finder. We ask that you please credit Plane Finder and link to planefinder.net in close proximity to the content.

Optionally one of the following logos (no smaller then 150x24px) can be used and must link to planefinder.net

Embedding the Plane Finder map

You are welcome to embed the Plane Finder playback map on your website to offer visitors a more interactive experience. We suggest using the following HTML code:

<iframe src="//planefinder.net/data/report/BA218-G-CIVA-7700-squawk-2019-04-21/map" width="800" height="600" seamless="seamless"></iframe>

Where our data comes from

Plane Finder has a global network of data feeds and antenna radars that receive data broadcast directly from aircraft. The primary technologies used are ADS-B and MLAT. We also show feeds from the FAA and a FLARM glider feed.

Click here to find out more about the Plane Finder network.

How we collect our data